<?xml version="1.0" encoding="UTF-8" standalone="no" ?>
<gpx xmlns="http://www.topografix.com/GPX/1/1" xmlns:xsi="http://www.w3.org/2001/XMLSchema-instance" xsi:schemaLocation="http://www.topografix.com/GPX/1/1 http://www.topografix.com/GPX/1/1/gpx.xsd" version="1.1" creator="VisuGPX - https://www.visugpx.com">
  <metadata>
    <name>La Merendolaise 2026 30kms</name>
  </metadata>
  <trk>
    <name><![CDATA[CCM_2024_30_ [Définitif]-18345902]]></name>
    <trkseg>
      <trkpt lat="43.75413" lon="5.20247">
        <ele>154</ele>
        <time>2024-02-11T20:23:29Z</time>
      </trkpt>
      <trkpt lat="43.75403" lon="5.20232">
        <ele>153</ele>
        <time>2024-02-11T20:23:32Z</time>
      </trkpt>
      <trkpt lat="43.75408" lon="5.20201">
        <ele>153</ele>
        <time>2024-02-11T20:23:38Z</time>
      </trkpt>
      <trkpt lat="43.75414" lon="5.202">
        <ele>154</ele>
        <time>2024-02-11T20:23:39Z</time>
      </trkpt>
      <trkpt lat="43.75428" lon="5.20203">
        <ele>155</ele>
        <time>2024-02-11T20:23:43Z</time>
      </trkpt>
      <trkpt lat="43.75451" lon="5.20212">
        <ele>156</ele>
        <time>2024-02-11T20:23:48Z</time>
      </trkpt>
      <trkpt lat="43.75453" lon="5.2021">
        <ele>157</ele>
        <time>2024-02-11T20:23:49Z</time>
      </trkpt>
      <trkpt lat="43.75457" lon="5.20203">
        <ele>157</ele>
        <time>2024-02-11T20:23:50Z</time>
      </trkpt>
      <trkpt lat="43.75461" lon="5.20142">
        <ele>158</ele>
        <time>2024-02-11T20:24:01Z</time>
      </trkpt>
      <trkpt lat="43.75468" lon="5.20132">
        <ele>159</ele>
        <time>2024-02-11T20:24:03Z</time>
      </trkpt>
      <trkpt lat="43.75478" lon="5.20132">
        <ele>160</ele>
        <time>2024-02-11T20:24:05Z</time>
      </trkpt>
      <trkpt lat="43.755" lon="5.20143">
        <ele>162</ele>
        <time>2024-02-11T20:24:11Z</time>
      </trkpt>
      <trkpt lat="43.75517" lon="5.20147">
        <ele>163</ele>
        <time>2024-02-11T20:24:15Z</time>
      </trkpt>
      <trkpt lat="43.75534" lon="5.20157">
        <ele>163</ele>
        <time>2024-02-11T20:24:19Z</time>
      </trkpt>
      <trkpt lat="43.75558" lon="5.20182">
        <ele>165</ele>
        <time>2024-02-11T20:24:26Z</time>
      </trkpt>
      <trkpt lat="43.75567" lon="5.20188">
        <ele>166</ele>
        <time>2024-02-11T20:24:28Z</time>
      </trkpt>
      <trkpt lat="43.75575" lon="5.2019">
        <ele>166</ele>
        <time>2024-02-11T20:24:30Z</time>
      </trkpt>
      <trkpt lat="43.75584" lon="5.20198">
        <ele>167</ele>
        <time>2024-02-11T20:24:33Z</time>
      </trkpt>
      <trkpt lat="43.7559" lon="5.202">
        <ele>167</ele>
        <time>2024-02-11T20:24:34Z</time>
      </trkpt>
      <trkpt lat="43.75599" lon="5.20201">
        <ele>168</ele>
        <time>2024-02-11T20:24:36Z</time>
      </trkpt>
      <trkpt lat="43.75602" lon="5.20198">
        <ele>168</ele>
        <time>2024-02-11T20:24:37Z</time>
      </trkpt>
      <trkpt lat="43.75618" lon="5.20156">
        <ele>169</ele>
        <time>2024-02-11T20:24:45Z</time>
      </trkpt>
      <trkpt lat="43.75624" lon="5.20151">
        <ele>170</ele>
        <time>2024-02-11T20:24:47Z</time>
      </trkpt>
      <trkpt lat="43.75626" lon="5.20145">
        <ele>170</ele>
        <time>2024-02-11T20:24:48Z</time>
      </trkpt>
      <trkpt lat="43.7563" lon="5.20115">
        <ele>171</ele>
        <time>2024-02-11T20:24:53Z</time>
      </trkpt>
      <trkpt lat="43.75632" lon="5.20053">
        <ele>176</ele>
        <time>2024-02-11T20:25:04Z</time>
      </trkpt>
      <trkpt lat="43.75641" lon="5.19984">
        <ele>183</ele>
        <time>2024-02-11T20:25:15Z</time>
      </trkpt>
      <trkpt lat="43.75666" lon="5.19869">
        <ele>188</ele>
        <time>2024-02-11T20:25:36Z</time>
      </trkpt>
      <trkpt lat="43.75673" lon="5.19847">
        <ele>190</ele>
        <time>2024-02-11T20:25:40Z</time>
      </trkpt>
      <trkpt lat="43.75697" lon="5.19795">
        <ele>195</ele>
        <time>2024-02-11T20:25:50Z</time>
      </trkpt>
      <trkpt lat="43.75703" lon="5.19766">
        <ele>196</ele>
        <time>2024-02-11T20:25:55Z</time>
      </trkpt>
      <trkpt lat="43.75706" lon="5.19725">
        <ele>195</ele>
        <time>2024-02-11T20:26:02Z</time>
      </trkpt>
      <trkpt lat="43.75713" lon="5.19712">
        <ele>196</ele>
        <time>2024-02-11T20:26:05Z</time>
      </trkpt>
      <trkpt lat="43.75743" lon="5.19678">
        <ele>200</ele>
        <time>2024-02-11T20:26:14Z</time>
      </trkpt>
      <trkpt lat="43.75751" lon="5.19656">
        <ele>200</ele>
        <time>2024-02-11T20:26:18Z</time>
      </trkpt>
      <trkpt lat="43.75773" lon="5.19617">
        <ele>200</ele>
        <time>2024-02-11T20:26:26Z</time>
      </trkpt>
      <trkpt lat="43.75796" lon="5.19594">
        <ele>201</ele>
        <time>2024-02-11T20:26:33Z</time>
      </trkpt>
      <trkpt lat="43.75816" lon="5.19547">
        <ele>197</ele>
        <time>2024-02-11T20:26:42Z</time>
      </trkpt>
      <trkpt lat="43.75836" lon="5.19524">
        <ele>197</ele>
        <time>2024-02-11T20:26:48Z</time>
      </trkpt>
      <trkpt lat="43.75848" lon="5.19516">
        <ele>197</ele>
        <time>2024-02-11T20:26:51Z</time>
      </trkpt>
      <trkpt lat="43.75875" lon="5.19523">
        <ele>201</ele>
        <time>2024-02-11T20:26:58Z</time>
      </trkpt>
      <trkpt lat="43.75908" lon="5.19525">
        <ele>206</ele>
        <time>2024-02-11T20:27:06Z</time>
      </trkpt>
      <trkpt lat="43.75932" lon="5.19531">
        <ele>207</ele>
        <time>2024-02-11T20:27:11Z</time>
      </trkpt>
      <trkpt lat="43.75938" lon="5.19539">
        <ele>208</ele>
        <time>2024-02-11T20:27:13Z</time>
      </trkpt>
      <trkpt lat="43.75932" lon="5.19553">
        <ele>210</ele>
        <time>2024-02-11T20:27:16Z</time>
      </trkpt>
      <trkpt lat="43.75912" lon="5.19562">
        <ele>211</ele>
        <time>2024-02-11T20:27:21Z</time>
      </trkpt>
      <trkpt lat="43.75904" lon="5.19572">
        <ele>212</ele>
        <time>2024-02-11T20:27:23Z</time>
      </trkpt>
      <trkpt lat="43.75904" lon="5.19581">
        <ele>213</ele>
        <time>2024-02-11T20:27:25Z</time>
      </trkpt>
      <trkpt lat="43.75908" lon="5.19595">
        <ele>215</ele>
        <time>2024-02-11T20:27:27Z</time>
      </trkpt>
      <trkpt lat="43.75907" lon="5.19605">
        <ele>217</ele>
        <time>2024-02-11T20:27:29Z</time>
      </trkpt>
      <trkpt lat="43.759" lon="5.1961">
        <ele>217</ele>
        <time>2024-02-11T20:27:31Z</time>
      </trkpt>
      <trkpt lat="43.75878" lon="5.19652">
        <ele>220</ele>
        <time>2024-02-11T20:27:40Z</time>
      </trkpt>
      <trkpt lat="43.75867" lon="5.19662">
        <ele>221</ele>
        <time>2024-02-11T20:27:43Z</time>
      </trkpt>
      <trkpt lat="43.75855" lon="5.19681">
        <ele>222</ele>
        <time>2024-02-11T20:27:47Z</time>
      </trkpt>
      <trkpt lat="43.75852" lon="5.19699">
        <ele>224</ele>
        <time>2024-02-11T20:27:50Z</time>
      </trkpt>
      <trkpt lat="43.7586" lon="5.19739">
        <ele>228</ele>
        <time>2024-02-11T20:27:57Z</time>
      </trkpt>
      <trkpt lat="43.75856" lon="5.19762">
        <ele>229</ele>
        <time>2024-02-11T20:28:01Z</time>
      </trkpt>
      <trkpt lat="43.75846" lon="5.19793">
        <ele>231</ele>
        <time>2024-02-11T20:28:07Z</time>
      </trkpt>
      <trkpt lat="43.75828" lon="5.19818">
        <ele>231</ele>
        <time>2024-02-11T20:28:13Z</time>
      </trkpt>
      <trkpt lat="43.75827" lon="5.19825">
        <ele>231</ele>
        <time>2024-02-11T20:28:14Z</time>
      </trkpt>
      <trkpt lat="43.7583" lon="5.19829">
        <ele>233</ele>
        <time>2024-02-11T20:28:15Z</time>
      </trkpt>
      <trkpt lat="43.75841" lon="5.19832">
        <ele>234</ele>
        <time>2024-02-11T20:28:18Z</time>
      </trkpt>
      <trkpt lat="43.75844" lon="5.19841">
        <ele>234</ele>
        <time>2024-02-11T20:28:19Z</time>
      </trkpt>
      <trkpt lat="43.75847" lon="5.1987">
        <ele>233</ele>
        <time>2024-02-11T20:28:24Z</time>
      </trkpt>
      <trkpt lat="43.75845" lon="5.19882">
        <ele>233</ele>
        <time>2024-02-11T20:28:26Z</time>
      </trkpt>
      <trkpt lat="43.75847" lon="5.19902">
        <ele>232</ele>
        <time>2024-02-11T20:28:30Z</time>
      </trkpt>
      <trkpt lat="43.75853" lon="5.19915">
        <ele>232</ele>
        <time>2024-02-11T20:28:32Z</time>
      </trkpt>
      <trkpt lat="43.75861" lon="5.19949">
        <ele>229</ele>
        <time>2024-02-11T20:28:38Z</time>
      </trkpt>
      <trkpt lat="43.7587" lon="5.19968">
        <ele>228</ele>
        <time>2024-02-11T20:28:42Z</time>
      </trkpt>
      <trkpt lat="43.75882" lon="5.1998">
        <ele>228</ele>
        <time>2024-02-11T20:28:46Z</time>
      </trkpt>
      <trkpt lat="43.75896" lon="5.19982">
        <ele>231</ele>
        <time>2024-02-11T20:28:49Z</time>
      </trkpt>
      <trkpt lat="43.75913" lon="5.19991">
        <ele>233</ele>
        <time>2024-02-11T20:28:53Z</time>
      </trkpt>
      <trkpt lat="43.75924" lon="5.20007">
        <ele>232</ele>
        <time>2024-02-11T20:28:57Z</time>
      </trkpt>
      <trkpt lat="43.7593" lon="5.20033">
        <ele>229</ele>
        <time>2024-02-11T20:29:02Z</time>
      </trkpt>
      <trkpt lat="43.75933" lon="5.20068">
        <ele>226</ele>
        <time>2024-02-11T20:29:07Z</time>
      </trkpt>
      <trkpt lat="43.75935" lon="5.20071">
        <ele>226</ele>
        <time>2024-02-11T20:29:08Z</time>
      </trkpt>
      <trkpt lat="43.75942" lon="5.20073">
        <ele>226</ele>
        <time>2024-02-11T20:29:10Z</time>
      </trkpt>
      <trkpt lat="43.75973" lon="5.20061">
        <ele>228</ele>
        <time>2024-02-11T20:29:17Z</time>
      </trkpt>
      <trkpt lat="43.75983" lon="5.2006">
        <ele>228</ele>
        <time>2024-02-11T20:29:20Z</time>
      </trkpt>
      <trkpt lat="43.75992" lon="5.20063">
        <ele>229</ele>
        <time>2024-02-11T20:29:22Z</time>
      </trkpt>
      <trkpt lat="43.76004" lon="5.20076">
        <ele>229</ele>
        <time>2024-02-11T20:29:25Z</time>
      </trkpt>
      <trkpt lat="43.76011" lon="5.20082">
        <ele>229</ele>
        <time>2024-02-11T20:29:27Z</time>
      </trkpt>
      <trkpt lat="43.76014" lon="5.20082">
        <ele>228</ele>
        <time>2024-02-11T20:29:28Z</time>
      </trkpt>
      <trkpt lat="43.76024" lon="5.20071">
        <ele>227</ele>
        <time>2024-02-11T20:29:31Z</time>
      </trkpt>
      <trkpt lat="43.76045" lon="5.20058">
        <ele>223</ele>
        <time>2024-02-11T20:29:36Z</time>
      </trkpt>
      <trkpt lat="43.7606" lon="5.20035">
        <ele>219</ele>
        <time>2024-02-11T20:29:42Z</time>
      </trkpt>
      <trkpt lat="43.76071" lon="5.2003">
        <ele>217</ele>
        <time>2024-02-11T20:29:44Z</time>
      </trkpt>
      <trkpt lat="43.76079" lon="5.20022">
        <ele>215</ele>
        <time>2024-02-11T20:29:47Z</time>
      </trkpt>
      <trkpt lat="43.76087" lon="5.20007">
        <ele>212</ele>
        <time>2024-02-11T20:29:50Z</time>
      </trkpt>
      <trkpt lat="43.76092" lon="5.19981">
        <ele>208</ele>
        <time>2024-02-11T20:29:54Z</time>
      </trkpt>
      <trkpt lat="43.76096" lon="5.19979">
        <ele>208</ele>
        <time>2024-02-11T20:29:55Z</time>
      </trkpt>
      <trkpt lat="43.76101" lon="5.19971">
        <ele>206</ele>
        <time>2024-02-11T20:29:57Z</time>
      </trkpt>
      <trkpt lat="43.76109" lon="5.19968">
        <ele>205</ele>
        <time>2024-02-11T20:29:59Z</time>
      </trkpt>
      <trkpt lat="43.76112" lon="5.19961">
        <ele>204</ele>
        <time>2024-02-11T20:30:00Z</time>
      </trkpt>
      <trkpt lat="43.76112" lon="5.19953">
        <ele>203</ele>
        <time>2024-02-11T20:30:02Z</time>
      </trkpt>
      <trkpt lat="43.76109" lon="5.19947">
        <ele>202</ele>
        <time>2024-02-11T20:30:03Z</time>
      </trkpt>
      <trkpt lat="43.76116" lon="5.19928">
        <ele>199</ele>
        <time>2024-02-11T20:30:07Z</time>
      </trkpt>
      <trkpt lat="43.76119" lon="5.19915">
        <ele>197</ele>
        <time>2024-02-11T20:30:09Z</time>
      </trkpt>
      <trkpt lat="43.76118" lon="5.1991">
        <ele>196</ele>
        <time>2024-02-11T20:30:10Z</time>
      </trkpt>
      <trkpt lat="43.76144" lon="5.199">
        <ele>195</ele>
        <time>2024-02-11T20:30:16Z</time>
      </trkpt>
      <trkpt lat="43.76158" lon="5.19907">
        <ele>195</ele>
        <time>2024-02-11T20:30:20Z</time>
      </trkpt>
      <trkpt lat="43.76173" lon="5.19902">
        <ele>195</ele>
        <time>2024-02-11T20:30:23Z</time>
      </trkpt>
      <trkpt lat="43.7622" lon="5.1991">
        <ele>200</ele>
        <time>2024-02-11T20:30:34Z</time>
      </trkpt>
      <trkpt lat="43.76236" lon="5.19925">
        <ele>201</ele>
        <time>2024-02-11T20:30:39Z</time>
      </trkpt>
      <trkpt lat="43.76241" lon="5.19933">
        <ele>202</ele>
        <time>2024-02-11T20:30:40Z</time>
      </trkpt>
      <trkpt lat="43.76246" lon="5.19963">
        <ele>203</ele>
        <time>2024-02-11T20:30:46Z</time>
      </trkpt>
      <trkpt lat="43.76264" lon="5.19995">
        <ele>204</ele>
        <time>2024-02-11T20:30:53Z</time>
      </trkpt>
      <trkpt lat="43.76279" lon="5.20013">
        <ele>207</ele>
        <time>2024-02-11T20:30:57Z</time>
      </trkpt>
      <trkpt lat="43.76311" lon="5.20038">
        <ele>208</ele>
        <time>2024-02-11T20:31:06Z</time>
      </trkpt>
      <trkpt lat="43.76323" lon="5.2004">
        <ele>207</ele>
        <time>2024-02-11T20:31:09Z</time>
      </trkpt>
      <trkpt lat="43.76332" lon="5.20036">
        <ele>206</ele>
        <time>2024-02-11T20:31:11Z</time>
      </trkpt>
      <trkpt lat="43.7634" lon="5.20039">
        <ele>207</ele>
        <time>2024-02-11T20:31:13Z</time>
      </trkpt>
      <trkpt lat="43.76351" lon="5.20036">
        <ele>207</ele>
        <time>2024-02-11T20:31:15Z</time>
      </trkpt>
      <trkpt lat="43.76358" lon="5.2005">
        <ele>209</ele>
        <time>2024-02-11T20:31:18Z</time>
      </trkpt>
      <trkpt lat="43.76366" lon="5.20107">
        <ele>217</ele>
        <time>2024-02-11T20:31:28Z</time>
      </trkpt>
      <trkpt lat="43.76382" lon="5.20151">
        <ele>226</ele>
        <time>2024-02-11T20:31:36Z</time>
      </trkpt>
      <trkpt lat="43.76385" lon="5.20178">
        <ele>229</ele>
        <time>2024-02-11T20:31:41Z</time>
      </trkpt>
      <trkpt lat="43.76383" lon="5.20194">
        <ele>231</ele>
        <time>2024-02-11T20:31:44Z</time>
      </trkpt>
      <trkpt lat="43.76384" lon="5.20211">
        <ele>233</ele>
        <time>2024-02-11T20:31:46Z</time>
      </trkpt>
      <trkpt lat="43.76403" lon="5.20255">
        <ele>234</ele>
        <time>2024-02-11T20:31:55Z</time>
      </trkpt>
      <trkpt lat="43.76403" lon="5.20303">
        <ele>234</ele>
        <time>2024-02-11T20:32:03Z</time>
      </trkpt>
      <trkpt lat="43.764" lon="5.20345">
        <ele>236</ele>
        <time>2024-02-11T20:32:10Z</time>
      </trkpt>
      <trkpt lat="43.76406" lon="5.20358">
        <ele>236</ele>
        <time>2024-02-11T20:32:13Z</time>
      </trkpt>
      <trkpt lat="43.76424" lon="5.20375">
        <ele>237</ele>
        <time>2024-02-11T20:32:18Z</time>
      </trkpt>
      <trkpt lat="43.76445" lon="5.20383">
        <ele>243</ele>
        <time>2024-02-11T20:32:23Z</time>
      </trkpt>
      <trkpt lat="43.76465" lon="5.2038">
        <ele>247</ele>
        <time>2024-02-11T20:32:28Z</time>
      </trkpt>
      <trkpt lat="43.76472" lon="5.20386">
        <ele>249</ele>
        <time>2024-02-11T20:32:30Z</time>
      </trkpt>
      <trkpt lat="43.76477" lon="5.20403">
        <ele>251</ele>
        <time>2024-02-11T20:32:33Z</time>
      </trkpt>
      <trkpt lat="43.76469" lon="5.20423">
        <ele>250</ele>
        <time>2024-02-11T20:32:37Z</time>
      </trkpt>
      <trkpt lat="43.76472" lon="5.20444">
        <ele>252</ele>
        <time>2024-02-11T20:32:40Z</time>
      </trkpt>
      <trkpt lat="43.7647" lon="5.20472">
        <ele>254</ele>
        <time>2024-02-11T20:32:45Z</time>
      </trkpt>
      <trkpt lat="43.7648" lon="5.20505">
        <ele>257</ele>
        <time>2024-02-11T20:32:51Z</time>
      </trkpt>
      <trkpt lat="43.7648" lon="5.20523">
        <ele>259</ele>
        <time>2024-02-11T20:32:54Z</time>
      </trkpt>
      <trkpt lat="43.76502" lon="5.20557">
        <ele>259</ele>
        <time>2024-02-11T20:33:02Z</time>
      </trkpt>
      <trkpt lat="43.76517" lon="5.20574">
        <ele>262</ele>
        <time>2024-02-11T20:33:06Z</time>
      </trkpt>
      <trkpt lat="43.76523" lon="5.20576">
        <ele>263</ele>
        <time>2024-02-11T20:33:08Z</time>
      </trkpt>
      <trkpt lat="43.76531" lon="5.20584">
        <ele>265</ele>
        <time>2024-02-11T20:33:10Z</time>
      </trkpt>
      <trkpt lat="43.76534" lon="5.20584">
        <ele>265</ele>
        <time>2024-02-11T20:33:11Z</time>
      </trkpt>
      <trkpt lat="43.76535" lon="5.20579">
        <ele>265</ele>
        <time>2024-02-11T20:33:12Z</time>
      </trkpt>
      <trkpt lat="43.76546" lon="5.20578">
        <ele>267</ele>
        <time>2024-02-11T20:33:14Z</time>
      </trkpt>
      <trkpt lat="43.76566" lon="5.20565">
        <ele>271</ele>
        <time>2024-02-11T20:33:19Z</time>
      </trkpt>
      <trkpt lat="43.7657" lon="5.20561">
        <ele>271</ele>
        <time>2024-02-11T20:33:21Z</time>
      </trkpt>
      <trkpt lat="43.7657" lon="5.20556">
        <ele>272</ele>
        <time>2024-02-11T20:33:21Z</time>
      </trkpt>
      <trkpt lat="43.76578" lon="5.20555">
        <ele>273</ele>
        <time>2024-02-11T20:33:23Z</time>
      </trkpt>
      <trkpt lat="43.76595" lon="5.20541">
        <ele>278</ele>
        <time>2024-02-11T20:33:28Z</time>
      </trkpt>
      <trkpt lat="43.76597" lon="5.20537">
        <ele>279</ele>
        <time>2024-02-11T20:33:29Z</time>
      </trkpt>
      <trkpt lat="43.76619" lon="5.20528">
        <ele>284</ele>
        <time>2024-02-11T20:33:34Z</time>
      </trkpt>
      <trkpt lat="43.76623" lon="5.20524">
        <ele>285</ele>
        <time>2024-02-11T20:33:35Z</time>
      </trkpt>
      <trkpt lat="43.76627" lon="5.20525">
        <ele>286</ele>
        <time>2024-02-11T20:33:36Z</time>
      </trkpt>
      <trkpt lat="43.76647" lon="5.20542">
        <ele>288</ele>
        <time>2024-02-11T20:33:42Z</time>
      </trkpt>
      <trkpt lat="43.76657" lon="5.20559">
        <ele>289</ele>
        <time>2024-02-11T20:33:45Z</time>
      </trkpt>
      <trkpt lat="43.76663" lon="5.20562">
        <ele>290</ele>
        <time>2024-02-11T20:33:47Z</time>
      </trkpt>
      <trkpt lat="43.76697" lon="5.20598">
        <ele>295</ele>
        <time>2024-02-11T20:33:57Z</time>
      </trkpt>
      <trkpt lat="43.76713" lon="5.20603">
        <ele>298</ele>
        <time>2024-02-11T20:34:01Z</time>
      </trkpt>
      <trkpt lat="43.7672" lon="5.20612">
        <ele>300</ele>
        <time>2024-02-11T20:34:03Z</time>
      </trkpt>
      <trkpt lat="43.76742" lon="5.20616">
        <ele>302</ele>
        <time>2024-02-11T20:34:08Z</time>
      </trkpt>
      <trkpt lat="43.76751" lon="5.20636">
        <ele>304</ele>
        <time>2024-02-11T20:34:12Z</time>
      </trkpt>
      <trkpt lat="43.76762" lon="5.20641">
        <ele>306</ele>
        <time>2024-02-11T20:34:15Z</time>
      </trkpt>
      <trkpt lat="43.76747" lon="5.20648">
        <ele>304</ele>
        <time>2024-02-11T20:34:18Z</time>
      </trkpt>
      <trkpt lat="43.76732" lon="5.20645">
        <ele>304</ele>
        <time>2024-02-11T20:34:22Z</time>
      </trkpt>
      <trkpt lat="43.76713" lon="5.20645">
        <ele>303</ele>
        <time>2024-02-11T20:34:26Z</time>
      </trkpt>
      <trkpt lat="43.76713" lon="5.20647">
        <ele>303</ele>
        <time>2024-02-11T20:34:27Z</time>
      </trkpt>
      <trkpt lat="43.76727" lon="5.20654">
        <ele>304</ele>
        <time>2024-02-11T20:34:30Z</time>
      </trkpt>
      <trkpt lat="43.76754" lon="5.20685">
        <ele>310</ele>
        <time>2024-02-11T20:34:38Z</time>
      </trkpt>
      <trkpt lat="43.76763" lon="5.20688">
        <ele>311</ele>
        <time>2024-02-11T20:34:41Z</time>
      </trkpt>
      <trkpt lat="43.76768" lon="5.20687">
        <ele>311</ele>
        <time>2024-02-11T20:34:42Z</time>
      </trkpt>
      <trkpt lat="43.76776" lon="5.20678">
        <ele>311</ele>
        <time>2024-02-11T20:34:44Z</time>
      </trkpt>
      <trkpt lat="43.76794" lon="5.20675">
        <ele>312</ele>
        <time>2024-02-11T20:34:48Z</time>
      </trkpt>
      <trkpt lat="43.76798" lon="5.20666">
        <ele>311</ele>
        <time>2024-02-11T20:34:50Z</time>
      </trkpt>
      <trkpt lat="43.76806" lon="5.20662">
        <ele>312</ele>
        <time>2024-02-11T20:34:52Z</time>
      </trkpt>
      <trkpt lat="43.76807" lon="5.20665">
        <ele>313</ele>
        <time>2024-02-11T20:34:53Z</time>
      </trkpt>
      <trkpt lat="43.76804" lon="5.2067">
        <ele>313</ele>
        <time>2024-02-11T20:34:54Z</time>
      </trkpt>
      <trkpt lat="43.76802" lon="5.20684">
        <ele>314</ele>
        <time>2024-02-11T20:34:56Z</time>
      </trkpt>
      <trkpt lat="43.76792" lon="5.20705">
        <ele>317</ele>
        <time>2024-02-11T20:35:00Z</time>
      </trkpt>
      <trkpt lat="43.76793" lon="5.20709">
        <ele>317</ele>
        <time>2024-02-11T20:35:01Z</time>
      </trkpt>
      <trkpt lat="43.76796" lon="5.2071">
        <ele>318</ele>
        <time>2024-02-11T20:35:02Z</time>
      </trkpt>
      <trkpt lat="43.7681" lon="5.20711">
        <ele>319</ele>
        <time>2024-02-11T20:35:05Z</time>
      </trkpt>
      <trkpt lat="43.76845" lon="5.20658">
        <ele>316</ele>
        <time>2024-02-11T20:35:17Z</time>
      </trkpt>
      <trkpt lat="43.76854" lon="5.20651">
        <ele>317</ele>
        <time>2024-02-11T20:35:20Z</time>
      </trkpt>
      <trkpt lat="43.76867" lon="5.20646">
        <ele>317</ele>
        <time>2024-02-11T20:35:23Z</time>
      </trkpt>
      <trkpt lat="43.76869" lon="5.20642">
        <ele>317</ele>
        <time>2024-02-11T20:35:24Z</time>
      </trkpt>
      <trkpt lat="43.76864" lon="5.20586">
        <ele>316</ele>
        <time>2024-02-11T20:35:33Z</time>
      </trkpt>
      <trkpt lat="43.76855" lon="5.2053">
        <ele>316</ele>
        <time>2024-02-11T20:35:43Z</time>
      </trkpt>
      <trkpt lat="43.76805" lon="5.2046">
        <ele>316</ele>
        <time>2024-02-11T20:35:59Z</time>
      </trkpt>
      <trkpt lat="43.76768" lon="5.20402">
        <ele>320</ele>
        <time>2024-02-11T20:36:13Z</time>
      </trkpt>
      <trkpt lat="43.7676" lon="5.20393">
        <ele>320</ele>
        <time>2024-02-11T20:36:15Z</time>
      </trkpt>
      <trkpt lat="43.76756" lon="5.20383">
        <ele>320</ele>
        <time>2024-02-11T20:36:17Z</time>
      </trkpt>
      <trkpt lat="43.76755" lon="5.20361">
        <ele>318</ele>
        <time>2024-02-11T20:36:21Z</time>
      </trkpt>
      <trkpt lat="43.76759" lon="5.20328">
        <ele>315</ele>
        <time>2024-02-11T20:36:26Z</time>
      </trkpt>
      <trkpt lat="43.76759" lon="5.2029">
        <ele>311</ele>
        <time>2024-02-11T20:36:33Z</time>
      </trkpt>
      <trkpt lat="43.76772" lon="5.20245">
        <ele>304</ele>
        <time>2024-02-11T20:36:41Z</time>
      </trkpt>
      <trkpt lat="43.76779" lon="5.20234">
        <ele>301</ele>
        <time>2024-02-11T20:36:43Z</time>
      </trkpt>
      <trkpt lat="43.76788" lon="5.20178">
        <ele>293</ele>
        <time>2024-02-11T20:36:53Z</time>
      </trkpt>
      <trkpt lat="43.76782" lon="5.2014">
        <ele>288</ele>
        <time>2024-02-11T20:37:00Z</time>
      </trkpt>
      <trkpt lat="43.76768" lon="5.20099">
        <ele>282</ele>
        <time>2024-02-11T20:37:07Z</time>
      </trkpt>
      <trkpt lat="43.76763" lon="5.20075">
        <ele>279</ele>
        <time>2024-02-11T20:37:11Z</time>
      </trkpt>
      <trkpt lat="43.76757" lon="5.20062">
        <ele>278</ele>
        <time>2024-02-11T20:37:14Z</time>
      </trkpt>
      <trkpt lat="43.76755" lon="5.20049">
        <ele>276</ele>
        <time>2024-02-11T20:37:16Z</time>
      </trkpt>
      <trkpt lat="43.76756" lon="5.20041">
        <ele>275</ele>
        <time>2024-02-11T20:37:18Z</time>
      </trkpt>
      <trkpt lat="43.76762" lon="5.20032">
        <ele>274</ele>
        <time>2024-02-11T20:37:20Z</time>
      </trkpt>
      <trkpt lat="43.7676" lon="5.20014">
        <ele>272</ele>
        <time>2024-02-11T20:37:23Z</time>
      </trkpt>
      <trkpt lat="43.76767" lon="5.19998">
        <ele>269</ele>
        <time>2024-02-11T20:37:26Z</time>
      </trkpt>
      <trkpt lat="43.76774" lon="5.19993">
        <ele>268</ele>
        <time>2024-02-11T20:37:28Z</time>
      </trkpt>
      <trkpt lat="43.7678" lon="5.19979">
        <ele>266</ele>
        <time>2024-02-11T20:37:30Z</time>
      </trkpt>
      <trkpt lat="43.76825" lon="5.19984">
        <ele>263</ele>
        <time>2024-02-11T20:37:41Z</time>
      </trkpt>
      <trkpt lat="43.76832" lon="5.19981">
        <ele>262</ele>
        <time>2024-02-11T20:37:43Z</time>
      </trkpt>
      <trkpt lat="43.76843" lon="5.19982">
        <ele>260</ele>
        <time>2024-02-11T20:37:45Z</time>
      </trkpt>
      <trkpt lat="43.76845" lon="5.19976">
        <ele>259</ele>
        <time>2024-02-11T20:37:46Z</time>
      </trkpt>
      <trkpt lat="43.76851" lon="5.19973">
        <ele>258</ele>
        <time>2024-02-11T20:37:48Z</time>
      </trkpt>
      <trkpt lat="43.76856" lon="5.19975">
        <ele>257</ele>
        <time>2024-02-11T20:37:49Z</time>
      </trkpt>
      <trkpt lat="43.76884" lon="5.19999">
        <ele>254</ele>
        <time>2024-02-11T20:37:57Z</time>
      </trkpt>
      <trkpt lat="43.76891" lon="5.20012">
        <ele>254</ele>
        <time>2024-02-11T20:38:00Z</time>
      </trkpt>
      <trkpt lat="43.769" lon="5.20021">
        <ele>254</ele>
        <time>2024-02-11T20:38:02Z</time>
      </trkpt>
      <trkpt lat="43.76923" lon="5.20032">
        <ele>252</ele>
        <time>2024-02-11T20:38:08Z</time>
      </trkpt>
      <trkpt lat="43.76933" lon="5.20044">
        <ele>253</ele>
        <time>2024-02-11T20:38:11Z</time>
      </trkpt>
      <trkpt lat="43.76944" lon="5.20052">
        <ele>254</ele>
        <time>2024-02-11T20:38:14Z</time>
      </trkpt>
      <trkpt lat="43.76964" lon="5.2006">
        <ele>253</ele>
        <time>2024-02-11T20:38:19Z</time>
      </trkpt>
      <trkpt lat="43.76986" lon="5.20088">
        <ele>250</ele>
        <time>2024-02-11T20:38:26Z</time>
      </trkpt>
      <trkpt lat="43.76991" lon="5.20091">
        <ele>250</ele>
        <time>2024-02-11T20:38:27Z</time>
      </trkpt>
      <trkpt lat="43.77011" lon="5.20076">
        <ele>251</ele>
        <time>2024-02-11T20:38:32Z</time>
      </trkpt>
      <trkpt lat="43.7702" lon="5.20077">
        <ele>252</ele>
        <time>2024-02-11T20:38:34Z</time>
      </trkpt>
      <trkpt lat="43.77028" lon="5.20085">
        <ele>253</ele>
        <time>2024-02-11T20:38:37Z</time>
      </trkpt>
      <trkpt lat="43.77039" lon="5.20102">
        <ele>255</ele>
        <time>2024-02-11T20:38:41Z</time>
      </trkpt>
      <trkpt lat="43.7704" lon="5.20119">
        <ele>255</ele>
        <time>2024-02-11T20:38:43Z</time>
      </trkpt>
      <trkpt lat="43.77043" lon="5.20125">
        <ele>256</ele>
        <time>2024-02-11T20:38:45Z</time>
      </trkpt>
      <trkpt lat="43.7706" lon="5.20138">
        <ele>257</ele>
        <time>2024-02-11T20:38:49Z</time>
      </trkpt>
      <trkpt lat="43.77065" lon="5.20139">
        <ele>257</ele>
        <time>2024-02-11T20:38:50Z</time>
      </trkpt>
      <trkpt lat="43.77084" lon="5.20151">
        <ele>257</ele>
        <time>2024-02-11T20:38:55Z</time>
      </trkpt>
      <trkpt lat="43.77093" lon="5.20153">
        <ele>258</ele>
        <time>2024-02-11T20:38:57Z</time>
      </trkpt>
      <trkpt lat="43.77104" lon="5.20149">
        <ele>259</ele>
        <time>2024-02-11T20:39:00Z</time>
      </trkpt>
      <trkpt lat="43.77114" lon="5.2014">
        <ele>261</ele>
        <time>2024-02-11T20:39:03Z</time>
      </trkpt>
      <trkpt lat="43.77125" lon="5.20138">
        <ele>263</ele>
        <time>2024-02-11T20:39:05Z</time>
      </trkpt>
      <trkpt lat="43.7714" lon="5.20148">
        <ele>263</ele>
        <time>2024-02-11T20:39:09Z</time>
      </trkpt>
      <trkpt lat="43.77152" lon="5.20169">
        <ele>262</ele>
        <time>2024-02-11T20:39:14Z</time>
      </trkpt>
      <trkpt lat="43.77163" lon="5.20205">
        <ele>263</ele>
        <time>2024-02-11T20:39:20Z</time>
      </trkpt>
      <trkpt lat="43.77171" lon="5.20215">
        <ele>263</ele>
        <time>2024-02-11T20:39:23Z</time>
      </trkpt>
      <trkpt lat="43.77184" lon="5.20245">
        <ele>264</ele>
        <time>2024-02-11T20:39:29Z</time>
      </trkpt>
      <trkpt lat="43.7719" lon="5.20283">
        <ele>266</ele>
        <time>2024-02-11T20:39:35Z</time>
      </trkpt>
      <trkpt lat="43.77186" lon="5.20331">
        <ele>267</ele>
        <time>2024-02-11T20:39:43Z</time>
      </trkpt>
      <trkpt lat="43.77177" lon="5.20387">
        <ele>269</ele>
        <time>2024-02-11T20:39:53Z</time>
      </trkpt>
      <trkpt lat="43.77181" lon="5.2043">
        <ele>270</ele>
        <time>2024-02-11T20:40:00Z</time>
      </trkpt>
      <trkpt lat="43.77173" lon="5.20487">
        <ele>272</ele>
        <time>2024-02-11T20:40:10Z</time>
      </trkpt>
      <trkpt lat="43.77168" lon="5.20503">
        <ele>273</ele>
        <time>2024-02-11T20:40:13Z</time>
      </trkpt>
      <trkpt lat="43.77145" lon="5.20622">
        <ele>281</ele>
        <time>2024-02-11T20:40:34Z</time>
      </trkpt>
      <trkpt lat="43.77136" lon="5.20706">
        <ele>284</ele>
        <time>2024-02-11T20:40:48Z</time>
      </trkpt>
      <trkpt lat="43.7713" lon="5.20726">
        <ele>284</ele>
        <time>2024-02-11T20:40:52Z</time>
      </trkpt>
      <trkpt lat="43.77115" lon="5.20761">
        <ele>286</ele>
        <time>2024-02-11T20:40:59Z</time>
      </trkpt>
      <trkpt lat="43.77114" lon="5.20776">
        <ele>286</ele>
        <time>2024-02-11T20:41:01Z</time>
      </trkpt>
      <trkpt lat="43.77118" lon="5.20806">
        <ele>286</ele>
        <time>2024-02-11T20:41:06Z</time>
      </trkpt>
      <trkpt lat="43.77117" lon="5.20845">
        <ele>287</ele>
        <time>2024-02-11T20:41:13Z</time>
      </trkpt>
      <trkpt lat="43.77091" lon="5.21004">
        <ele>292</ele>
        <time>2024-02-11T20:41:41Z</time>
      </trkpt>
      <trkpt lat="43.7708" lon="5.21037">
        <ele>294</ele>
        <time>2024-02-11T20:41:47Z</time>
      </trkpt>
      <trkpt lat="43.77076" lon="5.2106">
        <ele>296</ele>
        <time>2024-02-11T20:41:51Z</time>
      </trkpt>
      <trkpt lat="43.77076" lon="5.21149">
        <ele>300</ele>
        <time>2024-02-11T20:42:06Z</time>
      </trkpt>
      <trkpt lat="43.77064" lon="5.21299">
        <ele>305</ele>
        <time>2024-02-11T20:42:31Z</time>
      </trkpt>
      <trkpt lat="43.77056" lon="5.21306">
        <ele>305</ele>
        <time>2024-02-11T20:42:33Z</time>
      </trkpt>
      <trkpt lat="43.77056" lon="5.2138">
        <ele>305</ele>
        <time>2024-02-11T20:42:46Z</time>
      </trkpt>
      <trkpt lat="43.77064" lon="5.21444">
        <ele>303</ele>
        <time>2024-02-11T20:42:57Z</time>
      </trkpt>
      <trkpt lat="43.77065" lon="5.21472">
        <ele>301</ele>
        <time>2024-02-11T20:43:02Z</time>
      </trkpt>
      <trkpt lat="43.7706" lon="5.2149">
        <ele>301</ele>
        <time>2024-02-11T20:43:05Z</time>
      </trkpt>
      <trkpt lat="43.77055" lon="5.21528">
        <ele>300</ele>
        <time>2024-02-11T20:43:11Z</time>
      </trkpt>
      <trkpt lat="43.77056" lon="5.2155">
        <ele>299</ele>
        <time>2024-02-11T20:43:15Z</time>
      </trkpt>
      <trkpt lat="43.77085" lon="5.21585">
        <ele>296</ele>
        <time>2024-02-11T20:43:24Z</time>
      </trkpt>
      <trkpt lat="43.77093" lon="5.21598">
        <ele>298</ele>
        <time>2024-02-11T20:43:27Z</time>
      </trkpt>
      <trkpt lat="43.77104" lon="5.21673">
        <ele>300</ele>
        <time>2024-02-11T20:43:40Z</time>
      </trkpt>
      <trkpt lat="43.77101" lon="5.21725">
        <ele>297</ele>
        <time>2024-02-11T20:43:49Z</time>
      </trkpt>
      <trkpt lat="43.77102" lon="5.21781">
        <ele>291</ele>
        <time>2024-02-11T20:43:58Z</time>
      </trkpt>
      <trkpt lat="43.77081" lon="5.21814">
        <ele>285</ele>
        <time>2024-02-11T20:44:05Z</time>
      </trkpt>
      <trkpt lat="43.77057" lon="5.21842">
        <ele>281</ele>
        <time>2024-02-11T20:44:13Z</time>
      </trkpt>
      <trkpt lat="43.77055" lon="5.21852">
        <ele>279</ele>
        <time>2024-02-11T20:44:15Z</time>
      </trkpt>
      <trkpt lat="43.77059" lon="5.21859">
        <ele>278</ele>
        <time>2024-02-11T20:44:16Z</time>
      </trkpt>
      <trkpt lat="43.77042" lon="5.21929">
        <ele>269</ele>
        <time>2024-02-11T20:44:28Z</time>
      </trkpt>
      <trkpt lat="43.77039" lon="5.21949">
        <ele>267</ele>
        <time>2024-02-11T20:44:32Z</time>
      </trkpt>
      <trkpt lat="43.77039" lon="5.21973">
        <ele>264</ele>
        <time>2024-02-11T20:44:36Z</time>
      </trkpt>
      <trkpt lat="43.77032" lon="5.22006">
        <ele>261</ele>
        <time>2024-02-11T20:44:42Z</time>
      </trkpt>
      <trkpt lat="43.77029" lon="5.22043">
        <ele>257</ele>
        <time>2024-02-11T20:44:48Z</time>
      </trkpt>
      <trkpt lat="43.77017" lon="5.2208">
        <ele>253</ele>
        <time>2024-02-11T20:44:55Z</time>
      </trkpt>
      <trkpt lat="43.77014" lon="5.22117">
        <ele>251</ele>
        <time>2024-02-11T20:45:01Z</time>
      </trkpt>
      <trkpt lat="43.77004" lon="5.22132">
        <ele>249</ele>
        <time>2024-02-11T20:45:05Z</time>
      </trkpt>
      <trkpt lat="43.76986" lon="5.2214">
        <ele>249</ele>
        <time>2024-02-11T20:45:09Z</time>
      </trkpt>
      <trkpt lat="43.76987" lon="5.2215">
        <ele>248</ele>
        <time>2024-02-11T20:45:11Z</time>
      </trkpt>
      <trkpt lat="43.77004" lon="5.22164">
        <ele>248</ele>
        <time>2024-02-11T20:45:15Z</time>
      </trkpt>
      <trkpt lat="43.77029" lon="5.22154">
        <ele>251</ele>
        <time>2024-02-11T20:45:21Z</time>
      </trkpt>
      <trkpt lat="43.77054" lon="5.22129">
        <ele>254</ele>
        <time>2024-02-11T20:45:29Z</time>
      </trkpt>
      <trkpt lat="43.77062" lon="5.22109">
        <ele>255</ele>
        <time>2024-02-11T20:45:32Z</time>
      </trkpt>
      <trkpt lat="43.77076" lon="5.22056">
        <ele>256</ele>
        <time>2024-02-11T20:45:42Z</time>
      </trkpt>
      <trkpt lat="43.77078" lon="5.21989">
        <ele>259</ele>
        <time>2024-02-11T20:45:53Z</time>
      </trkpt>
      <trkpt lat="43.77081" lon="5.21975">
        <ele>260</ele>
        <time>2024-02-11T20:45:56Z</time>
      </trkpt>
      <trkpt lat="43.7709" lon="5.21956">
        <ele>262</ele>
        <time>2024-02-11T20:46:00Z</time>
      </trkpt>
      <trkpt lat="43.77112" lon="5.21944">
        <ele>264</ele>
        <time>2024-02-11T20:46:05Z</time>
      </trkpt>
      <trkpt lat="43.77122" lon="5.21941">
        <ele>264</ele>
        <time>2024-02-11T20:46:08Z</time>
      </trkpt>
      <trkpt lat="43.7713" lon="5.21944">
        <ele>265</ele>
        <time>2024-02-11T20:46:09Z</time>
      </trkpt>
      <trkpt lat="43.77143" lon="5.21942">
        <ele>265</ele>
        <time>2024-02-11T20:46:12Z</time>
      </trkpt>
      <trkpt lat="43.77152" lon="5.21938">
        <ele>266</ele>
        <time>2024-02-11T20:46:15Z</time>
      </trkpt>
      <trkpt lat="43.77157" lon="5.21933">
        <ele>266</ele>
        <time>2024-02-11T20:46:16Z</time>
      </trkpt>
      <trkpt lat="43.77161" lon="5.21937">
        <ele>266</ele>
        <time>2024-02-11T20:46:17Z</time>
      </trkpt>
      <trkpt lat="43.77179" lon="5.21932">
        <ele>268</ele>
        <time>2024-02-11T20:46:22Z</time>
      </trkpt>
      <trkpt lat="43.77214" lon="5.21937">
        <ele>273</ele>
        <time>2024-02-11T20:46:30Z</time>
      </trkpt>
      <trkpt lat="43.77253" lon="5.21932">
        <ele>277</ele>
        <time>2024-02-11T20:46:39Z</time>
      </trkpt>
      <trkpt lat="43.77267" lon="5.21928">
        <ele>278</ele>
        <time>2024-02-11T20:46:42Z</time>
      </trkpt>
      <trkpt lat="43.77289" lon="5.2193">
        <ele>279</ele>
        <time>2024-02-11T20:46:47Z</time>
      </trkpt>
      <trkpt lat="43.77302" lon="5.21918">
        <ele>278</ele>
        <time>2024-02-11T20:46:51Z</time>
      </trkpt>
      <trkpt lat="43.77305" lon="5.21909">
        <ele>278</ele>
        <time>2024-02-11T20:46:53Z</time>
      </trkpt>
      <trkpt lat="43.7731" lon="5.21903">
        <ele>279</ele>
        <time>2024-02-11T20:46:54Z</time>
      </trkpt>
      <trkpt lat="43.7733" lon="5.21903">
        <ele>279</ele>
        <time>2024-02-11T20:46:59Z</time>
      </trkpt>
      <trkpt lat="43.77335" lon="5.21901">
        <ele>280</ele>
        <time>2024-02-11T20:47:00Z</time>
      </trkpt>
      <trkpt lat="43.77345" lon="5.21886">
        <ele>282</ele>
        <time>2024-02-11T20:47:04Z</time>
      </trkpt>
      <trkpt lat="43.77347" lon="5.21874">
        <ele>282</ele>
        <time>2024-02-11T20:47:06Z</time>
      </trkpt>
      <trkpt lat="43.77355" lon="5.2187">
        <ele>283</ele>
        <time>2024-02-11T20:47:08Z</time>
      </trkpt>
      <trkpt lat="43.77361" lon="5.2183">
        <ele>283</ele>
        <time>2024-02-11T20:47:15Z</time>
      </trkpt>
      <trkpt lat="43.77373" lon="5.21815">
        <ele>285</ele>
        <time>2024-02-11T20:47:18Z</time>
      </trkpt>
      <trkpt lat="43.77393" lon="5.21801">
        <ele>287</ele>
        <time>2024-02-11T20:47:24Z</time>
      </trkpt>
      <trkpt lat="43.77406" lon="5.21781">
        <ele>287</ele>
        <time>2024-02-11T20:47:28Z</time>
      </trkpt>
      <trkpt lat="43.77412" lon="5.21762">
        <ele>286</ele>
        <time>2024-02-11T20:47:32Z</time>
      </trkpt>
      <trkpt lat="43.77416" lon="5.21731">
        <ele>288</ele>
        <time>2024-02-11T20:47:37Z</time>
      </trkpt>
      <trkpt lat="43.77425" lon="5.21718">
        <ele>291</ele>
        <time>2024-02-11T20:47:40Z</time>
      </trkpt>
      <trkpt lat="43.77465" lon="5.21686">
        <ele>295</ele>
        <time>2024-02-11T20:47:51Z</time>
      </trkpt>
      <trkpt lat="43.77476" lon="5.21674">
        <ele>294</ele>
        <time>2024-02-11T20:47:54Z</time>
      </trkpt>
      <trkpt lat="43.7749" lon="5.2167">
        <ele>293</ele>
        <time>2024-02-11T20:47:57Z</time>
      </trkpt>
      <trkpt lat="43.77495" lon="5.21666">
        <ele>292</ele>
        <time>2024-02-11T20:47:59Z</time>
      </trkpt>
      <trkpt lat="43.77498" lon="5.21659">
        <ele>293</ele>
        <time>2024-02-11T20:48:00Z</time>
      </trkpt>
      <trkpt lat="43.77502" lon="5.21621">
        <ele>295</ele>
        <time>2024-02-11T20:48:07Z</time>
      </trkpt>
      <trkpt lat="43.77512" lon="5.21608">
        <ele>296</ele>
        <time>2024-02-11T20:48:10Z</time>
      </trkpt>
      <trkpt lat="43.77526" lon="5.21583">
        <ele>297</ele>
        <time>2024-02-11T20:48:15Z</time>
      </trkpt>
      <trkpt lat="43.77534" lon="5.21574">
        <ele>299</ele>
        <time>2024-02-11T20:48:18Z</time>
      </trkpt>
      <trkpt lat="43.77542" lon="5.21567">
        <ele>300</ele>
        <time>2024-02-11T20:48:20Z</time>
      </trkpt>
      <trkpt lat="43.77549" lon="5.21565">
        <ele>300</ele>
        <time>2024-02-11T20:48:21Z</time>
      </trkpt>
      <trkpt lat="43.77558" lon="5.21567">
        <ele>300</ele>
        <time>2024-02-11T20:48:24Z</time>
      </trkpt>
      <trkpt lat="43.77566" lon="5.21572">
        <ele>299</ele>
        <time>2024-02-11T20:48:26Z</time>
      </trkpt>
      <trkpt lat="43.77578" lon="5.2157">
        <ele>299</ele>
        <time>2024-02-11T20:48:28Z</time>
      </trkpt>
      <trkpt lat="43.77586" lon="5.21565">
        <ele>299</ele>
        <time>2024-02-11T20:48:30Z</time>
      </trkpt>
      <trkpt lat="43.77603" lon="5.21543">
        <ele>302</ele>
        <time>2024-02-11T20:48:36Z</time>
      </trkpt>
      <trkpt lat="43.77611" lon="5.21527">
        <ele>303</ele>
        <time>2024-02-11T20:48:39Z</time>
      </trkpt>
      <trkpt lat="43.77614" lon="5.2152">
        <ele>303</ele>
        <time>2024-02-11T20:48:41Z</time>
      </trkpt>
      <trkpt lat="43.77613" lon="5.21494">
        <ele>304</ele>
        <time>2024-02-11T20:48:45Z</time>
      </trkpt>
      <trkpt lat="43.77608" lon="5.21475">
        <ele>305</ele>
        <time>2024-02-11T20:48:48Z</time>
      </trkpt>
      <trkpt lat="43.77602" lon="5.21469">
        <ele>306</ele>
        <time>2024-02-11T20:48:50Z</time>
      </trkpt>
      <trkpt lat="43.77591" lon="5.21498">
        <ele>303</ele>
        <time>2024-02-11T20:48:56Z</time>
      </trkpt>
      <trkpt lat="43.77579" lon="5.21513">
        <ele>302</ele>
        <time>2024-02-11T20:48:59Z</time>
      </trkpt>
      <trkpt lat="43.77565" lon="5.21521">
        <ele>304</ele>
        <time>2024-02-11T20:49:03Z</time>
      </trkpt>
      <trkpt lat="43.7756" lon="5.2152">
        <ele>305</ele>
        <time>2024-02-11T20:49:04Z</time>
      </trkpt>
      <trkpt lat="43.77559" lon="5.21515">
        <ele>306</ele>
        <time>2024-02-11T20:49:05Z</time>
      </trkpt>
      <trkpt lat="43.77568" lon="5.21507">
        <ele>305</ele>
        <time>2024-02-11T20:49:07Z</time>
      </trkpt>
      <trkpt lat="43.77582" lon="5.21466">
        <ele>306</ele>
        <time>2024-02-11T20:49:15Z</time>
      </trkpt>
      <trkpt lat="43.77589" lon="5.21417">
        <ele>311</ele>
        <time>2024-02-11T20:49:24Z</time>
      </trkpt>
      <trkpt lat="43.77596" lon="5.21338">
        <ele>315</ele>
        <time>2024-02-11T20:49:37Z</time>
      </trkpt>
      <trkpt lat="43.77599" lon="5.21328">
        <ele>316</ele>
        <time>2024-02-11T20:49:39Z</time>
      </trkpt>
      <trkpt lat="43.77627" lon="5.21272">
        <ele>319</ele>
        <time>2024-02-11T20:49:50Z</time>
      </trkpt>
      <trkpt lat="43.77639" lon="5.21257">
        <ele>317</ele>
        <time>2024-02-11T20:49:54Z</time>
      </trkpt>
      <trkpt lat="43.77663" lon="5.21247">
        <ele>313</ele>
        <time>2024-02-11T20:50:00Z</time>
      </trkpt>
      <trkpt lat="43.77671" lon="5.21239">
        <ele>315</ele>
        <time>2024-02-11T20:50:02Z</time>
      </trkpt>
      <trkpt lat="43.77678" lon="5.21224">
        <ele>318</ele>
        <time>2024-02-11T20:50:05Z</time>
      </trkpt>
      <trkpt lat="43.77687" lon="5.21193">
        <ele>322</ele>
        <time>2024-02-11T20:50:11Z</time>
      </trkpt>
      <trkpt lat="43.77697" lon="5.21178">
        <ele>324</ele>
        <time>2024-02-11T20:50:14Z</time>
      </trkpt>
      <trkpt lat="43.77707" lon="5.21171">
        <ele>325</ele>
        <time>2024-02-11T20:50:17Z</time>
      </trkpt>
      <trkpt lat="43.77717" lon="5.21158">
        <ele>328</ele>
        <time>2024-02-11T20:50:20Z</time>
      </trkpt>
      <trkpt lat="43.77748" lon="5.21142">
        <ele>331</ele>
        <time>2024-02-11T20:50:28Z</time>
      </trkpt>
      <trkpt lat="43.77772" lon="5.21138">
        <ele>333</ele>
        <time>2024-02-11T20:50:33Z</time>
      </trkpt>
      <trkpt lat="43.77793" lon="5.21117">
        <ele>335</ele>
        <time>2024-02-11T20:50:40Z</time>
      </trkpt>
      <trkpt lat="43.77817" lon="5.2111">
        <ele>335</ele>
        <time>2024-02-11T20:50:45Z</time>
      </trkpt>
      <trkpt lat="43.77829" lon="5.21111">
        <ele>335</ele>
        <time>2024-02-11T20:50:48Z</time>
      </trkpt>
      <trkpt lat="43.77847" lon="5.21121">
        <ele>337</ele>
        <time>2024-02-11T20:50:53Z</time>
      </trkpt>
      <trkpt lat="43.77854" lon="5.21129">
        <ele>337</ele>
        <time>2024-02-11T20:50:55Z</time>
      </trkpt>
      <trkpt lat="43.77863" lon="5.21133">
        <ele>337</ele>
        <time>2024-02-11T20:50:57Z</time>
      </trkpt>
      <trkpt lat="43.77889" lon="5.21152">
        <ele>335</ele>
        <time>2024-02-11T20:51:04Z</time>
      </trkpt>
      <trkpt lat="43.77901" lon="5.21169">
        <ele>332</ele>
        <time>2024-02-11T20:51:08Z</time>
      </trkpt>
      <trkpt lat="43.77918" lon="5.21181">
        <ele>334</ele>
        <time>2024-02-11T20:51:12Z</time>
      </trkpt>
      <trkpt lat="43.77936" lon="5.21177">
        <ele>336</ele>
        <time>2024-02-11T20:51:16Z</time>
      </trkpt>
      <trkpt lat="43.77957" lon="5.21183">
        <ele>339</ele>
        <time>2024-02-11T20:51:21Z</time>
      </trkpt>
      <trkpt lat="43.77976" lon="5.21181">
        <ele>341</ele>
        <time>2024-02-11T20:51:26Z</time>
      </trkpt>
      <trkpt lat="43.78007" lon="5.21206">
        <ele>344</ele>
        <time>2024-02-11T20:51:34Z</time>
      </trkpt>
      <trkpt lat="43.78028" lon="5.21246">
        <ele>345</ele>
        <time>2024-02-11T20:51:43Z</time>
      </trkpt>
      <trkpt lat="43.78032" lon="5.21262">
        <ele>347</ele>
        <time>2024-02-11T20:51:46Z</time>
      </trkpt>
      <trkpt lat="43.78044" lon="5.21283">
        <ele>349</ele>
        <time>2024-02-11T20:51:50Z</time>
      </trkpt>
      <trkpt lat="43.78047" lon="5.21293">
        <ele>350</ele>
        <time>2024-02-11T20:51:52Z</time>
      </trkpt>
      <trkpt lat="43.78046" lon="5.21303">
        <ele>351</ele>
        <time>2024-02-11T20:51:54Z</time>
      </trkpt>
      <trkpt lat="43.7804" lon="5.21321">
        <ele>353</ele>
        <time>2024-02-11T20:51:57Z</time>
      </trkpt>
      <trkpt lat="43.78035" lon="5.21328">
        <ele>354</ele>
        <time>2024-02-11T20:51:59Z</time>
      </trkpt>
      <trkpt lat="43.78032" lon="5.21341">
        <ele>355</ele>
        <time>2024-02-11T20:52:01Z</time>
      </trkpt>
      <trkpt lat="43.78032" lon="5.21356">
        <ele>356</ele>
        <time>2024-02-11T20:52:03Z</time>
      </trkpt>
      <trkpt lat="43.78035" lon="5.21369">
        <ele>357</ele>
        <time>2024-02-11T20:52:06Z</time>
      </trkpt>
      <trkpt lat="43.78039" lon="5.21377">
        <ele>357</ele>
        <time>2024-02-11T20:52:07Z</time>
      </trkpt>
      <trkpt lat="43.7805" lon="5.21387">
        <ele>356</ele>
        <time>2024-02-11T20:52:10Z</time>
      </trkpt>
      <trkpt lat="43.78057" lon="5.21398">
        <ele>356</ele>
        <time>2024-02-11T20:52:13Z</time>
      </trkpt>
      <trkpt lat="43.78065" lon="5.2143">
        <ele>358</ele>
        <time>2024-02-11T20:52:19Z</time>
      </trkpt>
      <trkpt lat="43.78072" lon="5.2144">
        <ele>358</ele>
        <time>2024-02-11T20:52:21Z</time>
      </trkpt>
      <trkpt lat="43.7808" lon="5.21439">
        <ele>357</ele>
        <time>2024-02-11T20:52:23Z</time>
      </trkpt>
      <trkpt lat="43.78105" lon="5.21421">
        <ele>355</ele>
        <time>2024-02-11T20:52:29Z</time>
      </trkpt>
      <trkpt lat="43.78125" lon="5.21418">
        <ele>356</ele>
        <time>2024-02-11T20:52:34Z</time>
      </trkpt>
      <trkpt lat="43.78176" lon="5.21403">
        <ele>362</ele>
        <time>2024-02-11T20:52:46Z</time>
      </trkpt>
      <trkpt lat="43.78185" lon="5.21399">
        <ele>363</ele>
        <time>2024-02-11T20:52:48Z</time>
      </trkpt>
      <trkpt lat="43.78199" lon="5.21388">
        <ele>365</ele>
        <time>2024-02-11T20:52:52Z</time>
      </trkpt>
      <trkpt lat="43.78219" lon="5.21384">
        <ele>368</ele>
        <time>2024-02-11T20:52:57Z</time>
      </trkpt>
      <trkpt lat="43.78235" lon="5.21386">
        <ele>370</ele>
        <time>2024-02-11T20:53:01Z</time>
      </trkpt>
      <trkpt lat="43.78245" lon="5.21391">
        <ele>371</ele>
        <time>2024-02-11T20:53:03Z</time>
      </trkpt>
      <trkpt lat="43.78249" lon="5.21399">
        <ele>372</ele>
        <time>2024-02-11T20:53:05Z</time>
      </trkpt>
      <trkpt lat="43.78249" lon="5.2141">
        <ele>371</ele>
        <time>2024-02-11T20:53:07Z</time>
      </trkpt>
      <trkpt lat="43.78253" lon="5.2142">
        <ele>372</ele>
        <time>2024-02-11T20:53:09Z</time>
      </trkpt>
      <trkpt lat="43.78265" lon="5.21435">
        <ele>375</ele>
        <time>2024-02-11T20:53:12Z</time>
      </trkpt>
      <trkpt lat="43.78329" lon="5.21483">
        <ele>386</ele>
        <time>2024-02-11T20:53:29Z</time>
      </trkpt>
      <trkpt lat="43.78368" lon="5.21497">
        <ele>390</ele>
        <time>2024-02-11T20:53:39Z</time>
      </trkpt>
      <trkpt lat="43.78389" lon="5.21501">
        <ele>393</ele>
        <time>2024-02-11T20:53:44Z</time>
      </trkpt>
      <trkpt lat="43.78391" lon="5.21497">
        <ele>392</ele>
        <time>2024-02-11T20:53:45Z</time>
      </trkpt>
      <trkpt lat="43.78401" lon="5.21492">
        <ele>392</ele>
        <time>2024-02-11T20:53:47Z</time>
      </trkpt>
      <trkpt lat="43.7843" lon="5.21494">
        <ele>393</ele>
        <time>2024-02-11T20:53:54Z</time>
      </trkpt>
      <trkpt lat="43.78455" lon="5.21501">
        <ele>395</ele>
        <time>2024-02-11T20:54:00Z</time>
      </trkpt>
      <trkpt lat="43.7846" lon="5.21509">
        <ele>397</ele>
        <time>2024-02-11T20:54:02Z</time>
      </trkpt>
      <trkpt lat="43.78448" lon="5.21508">
        <ele>396</ele>
        <time>2024-02-11T20:54:04Z</time>
      </trkpt>
      <trkpt lat="43.7842" lon="5.21513">
        <ele>397</ele>
        <time>2024-02-11T20:54:11Z</time>
      </trkpt>
      <trkpt lat="43.78379" lon="5.2154">
        <ele>400</ele>
        <time>2024-02-11T20:54:22Z</time>
      </trkpt>
      <trkpt lat="43.78357" lon="5.21549">
        <ele>400</ele>
        <time>2024-02-11T20:54:27Z</time>
      </trkpt>
      <trkpt lat="43.78335" lon="5.21549">
        <ele>398</ele>
        <time>2024-02-11T20:54:32Z</time>
      </trkpt>
      <trkpt lat="43.78316" lon="5.21553">
        <ele>398</ele>
        <time>2024-02-11T20:54:37Z</time>
      </trkpt>
      <trkpt lat="43.78298" lon="5.2155">
        <ele>397</ele>
        <time>2024-02-11T20:54:41Z</time>
      </trkpt>
      <trkpt lat="43.78284" lon="5.21543">
        <ele>395</ele>
        <time>2024-02-11T20:54:44Z</time>
      </trkpt>
      <trkpt lat="43.78268" lon="5.21529">
        <ele>393</ele>
        <time>2024-02-11T20:54:49Z</time>
      </trkpt>
      <trkpt lat="43.78259" lon="5.21527">
        <ele>393</ele>
        <time>2024-02-11T20:54:51Z</time>
      </trkpt>
      <trkpt lat="43.78187" lon="5.21561">
        <ele>389</ele>
        <time>2024-02-11T20:55:09Z</time>
      </trkpt>
      <trkpt lat="43.78176" lon="5.21561">
        <ele>387</ele>
        <time>2024-02-11T20:55:11Z</time>
      </trkpt>
      <trkpt lat="43.7816" lon="5.21554">
        <ele>384</ele>
        <time>2024-02-11T20:55:15Z</time>
      </trkpt>
      <trkpt lat="43.78133" lon="5.21556">
        <ele>381</ele>
        <time>2024-02-11T20:55:21Z</time>
      </trkpt>
      <trkpt lat="43.78099" lon="5.21565">
        <ele>378</ele>
        <time>2024-02-11T20:55:29Z</time>
      </trkpt>
      <trkpt lat="43.78013" lon="5.2158">
        <ele>380</ele>
        <time>2024-02-11T20:55:50Z</time>
      </trkpt>
      <trkpt lat="43.77993" lon="5.21589">
        <ele>379</ele>
        <time>2024-02-11T20:55:55Z</time>
      </trkpt>
      <trkpt lat="43.77959" lon="5.21617">
        <ele>373</ele>
        <time>2024-02-11T20:56:04Z</time>
      </trkpt>
      <trkpt lat="43.77932" lon="5.21633">
        <ele>372</ele>
        <time>2024-02-11T20:56:11Z</time>
      </trkpt>
      <trkpt lat="43.7789" lon="5.21677">
        <ele>365</ele>
        <time>2024-02-11T20:56:23Z</time>
      </trkpt>
      <trkpt lat="43.77863" lon="5.21697">
        <ele>363</ele>
        <time>2024-02-11T20:56:30Z</time>
      </trkpt>
      <trkpt lat="43.77841" lon="5.21717">
        <ele>362</ele>
        <time>2024-02-11T20:56:36Z</time>
      </trkpt>
      <trkpt lat="43.77809" lon="5.21722">
        <ele>359</ele>
        <time>2024-02-11T20:56:44Z</time>
      </trkpt>
      <trkpt lat="43.77785" lon="5.21729">
        <ele>357</ele>
        <time>2024-02-11T20:56:50Z</time>
      </trkpt>
      <trkpt lat="43.77769" lon="5.21745">
        <ele>358</ele>
        <time>2024-02-11T20:56:54Z</time>
      </trkpt>
      <trkpt lat="43.77719" lon="5.21782">
        <ele>350</ele>
        <time>2024-02-11T20:57:07Z</time>
      </trkpt>
      <trkpt lat="43.77712" lon="5.21792">
        <ele>349</ele>
        <time>2024-02-11T20:57:10Z</time>
      </trkpt>
      <trkpt lat="43.7768" lon="5.21858">
        <ele>348</ele>
        <time>2024-02-11T20:57:23Z</time>
      </trkpt>
      <trkpt lat="43.77631" lon="5.21891">
        <ele>350</ele>
        <time>2024-02-11T20:57:36Z</time>
      </trkpt>
      <trkpt lat="43.77601" lon="5.21898">
        <ele>352</ele>
        <time>2024-02-11T20:57:43Z</time>
      </trkpt>
      <trkpt lat="43.77588" lon="5.21904">
        <ele>353</ele>
        <time>2024-02-11T20:57:46Z</time>
      </trkpt>
      <trkpt lat="43.77575" lon="5.21915">
        <ele>354</ele>
        <time>2024-02-11T20:57:50Z</time>
      </trkpt>
      <trkpt lat="43.77565" lon="5.21928">
        <ele>351</ele>
        <time>2024-02-11T20:57:53Z</time>
      </trkpt>
      <trkpt lat="43.77558" lon="5.21948">
        <ele>350</ele>
        <time>2024-02-11T20:57:57Z</time>
      </trkpt>
      <trkpt lat="43.77536" lon="5.21971">
        <ele>347</ele>
        <time>2024-02-11T20:58:03Z</time>
      </trkpt>
      <trkpt lat="43.77528" lon="5.21996">
        <ele>347</ele>
        <time>2024-02-11T20:58:08Z</time>
      </trkpt>
      <trkpt lat="43.77516" lon="5.22019">
        <ele>345</ele>
        <time>2024-02-11T20:58:13Z</time>
      </trkpt>
      <trkpt lat="43.77505" lon="5.22024">
        <ele>345</ele>
        <time>2024-02-11T20:58:15Z</time>
      </trkpt>
      <trkpt lat="43.77496" lon="5.22032">
        <ele>343</ele>
        <time>2024-02-11T20:58:18Z</time>
      </trkpt>
      <trkpt lat="43.77474" lon="5.2206">
        <ele>340</ele>
        <time>2024-02-11T20:58:25Z</time>
      </trkpt>
      <trkpt lat="43.77466" lon="5.22067">
        <ele>339</ele>
        <time>2024-02-11T20:58:27Z</time>
      </trkpt>
      <trkpt lat="43.7743" lon="5.22088">
        <ele>336</ele>
        <time>2024-02-11T20:58:36Z</time>
      </trkpt>
      <trkpt lat="43.77405" lon="5.22117">
        <ele>330</ele>
        <time>2024-02-11T20:58:44Z</time>
      </trkpt>
      <trkpt lat="43.77373" lon="5.22139">
        <ele>326</ele>
        <time>2024-02-11T20:58:52Z</time>
      </trkpt>
      <trkpt lat="43.77331" lon="5.22173">
        <ele>324</ele>
        <time>2024-02-11T20:59:03Z</time>
      </trkpt>
      <trkpt lat="43.77296" lon="5.22189">
        <ele>316</ele>
        <time>2024-02-11T20:59:12Z</time>
      </trkpt>
      <trkpt lat="43.77266" lon="5.22213">
        <ele>311</ele>
        <time>2024-02-11T20:59:20Z</time>
      </trkpt>
      <trkpt lat="43.7725" lon="5.22233">
        <ele>309</ele>
        <time>2024-02-11T20:59:25Z</time>
      </trkpt>
      <trkpt lat="43.77243" lon="5.22237">
        <ele>308</ele>
        <time>2024-02-11T20:59:27Z</time>
      </trkpt>
      <trkpt lat="43.77205" lon="5.22289">
        <ele>299</ele>
        <time>2024-02-11T20:59:39Z</time>
      </trkpt>
      <trkpt lat="43.77169" lon="5.22327">
        <ele>296</ele>
        <time>2024-02-11T20:59:50Z</time>
      </trkpt>
      <trkpt lat="43.77147" lon="5.22341">
        <ele>295</ele>
        <time>2024-02-11T20:59:56Z</time>
      </trkpt>
      <trkpt lat="43.77103" lon="5.22353">
        <ele>295</ele>
        <time>2024-02-11T21:00:06Z</time>
      </trkpt>
      <trkpt lat="43.77089" lon="5.2236">
        <ele>295</ele>
        <time>2024-02-11T21:00:09Z</time>
      </trkpt>
      <trkpt lat="43.77044" lon="5.22424">
        <ele>297</ele>
        <time>2024-02-11T21:00:25Z</time>
      </trkpt>
      <trkpt lat="43.7701" lon="5.22458">
        <ele>296</ele>
        <time>2024-02-11T21:00:34Z</time>
      </trkpt>
      <trkpt lat="43.76984" lon="5.22462">
        <ele>295</ele>
        <time>2024-02-11T21:00:40Z</time>
      </trkpt>
      <trkpt lat="43.76933" lon="5.2248">
        <ele>291</ele>
        <time>2024-02-11T21:00:53Z</time>
      </trkpt>
      <trkpt lat="43.76931" lon="5.22485">
        <ele>291</ele>
        <time>2024-02-11T21:00:54Z</time>
      </trkpt>
      <trkpt lat="43.76932" lon="5.22496">
        <ele>291</ele>
        <time>2024-02-11T21:00:56Z</time>
      </trkpt>
      <trkpt lat="43.76941" lon="5.2251">
        <ele>290</ele>
        <time>2024-02-11T21:00:59Z</time>
      </trkpt>
      <trkpt lat="43.7695" lon="5.22517">
        <ele>289</ele>
        <time>2024-02-11T21:01:01Z</time>
      </trkpt>
      <trkpt lat="43.76966" lon="5.22519">
        <ele>289</ele>
        <time>2024-02-11T21:01:05Z</time>
      </trkpt>
      <trkpt lat="43.76974" lon="5.22523">
        <ele>289</ele>
        <time>2024-02-11T21:01:07Z</time>
      </trkpt>
      <trkpt lat="43.77" lon="5.22573">
        <ele>283</ele>
        <time>2024-02-11T21:01:17Z</time>
      </trkpt>
      <trkpt lat="43.76996" lon="5.226">
        <ele>279</ele>
        <time>2024-02-11T21:01:22Z</time>
      </trkpt>
      <trkpt lat="43.7699" lon="5.22687">
        <ele>271</ele>
        <time>2024-02-11T21:01:37Z</time>
      </trkpt>
      <trkpt lat="43.7699" lon="5.22703">
        <ele>270</ele>
        <time>2024-02-11T21:01:39Z</time>
      </trkpt>
      <trkpt lat="43.76992" lon="5.22706">
        <ele>270</ele>
        <time>2024-02-11T21:01:40Z</time>
      </trkpt>
      <trkpt lat="43.76997" lon="5.22705">
        <ele>271</ele>
        <time>2024-02-11T21:01:41Z</time>
      </trkpt>
      <trkpt lat="43.77009" lon="5.2268">
        <ele>271</ele>
        <time>2024-02-11T21:01:46Z</time>
      </trkpt>
      <trkpt lat="43.77029" lon="5.22614">
        <ele>274</ele>
        <time>2024-02-11T21:01:58Z</time>
      </trkpt>
      <trkpt lat="43.77044" lon="5.22591">
        <ele>273</ele>
        <time>2024-02-11T21:02:04Z</time>
      </trkpt>
      <trkpt lat="43.77052" lon="5.22581">
        <ele>273</ele>
        <time>2024-02-11T21:02:06Z</time>
      </trkpt>
      <trkpt lat="43.77079" lon="5.22558">
        <ele>273</ele>
        <time>2024-02-11T21:02:14Z</time>
      </trkpt>
      <trkpt lat="43.77104" lon="5.22526">
        <ele>277</ele>
        <time>2024-02-11T21:02:21Z</time>
      </trkpt>
      <trkpt lat="43.7712" lon="5.22514">
        <ele>279</ele>
        <time>2024-02-11T21:02:26Z</time>
      </trkpt>
      <trkpt lat="43.77125" lon="5.22518">
        <ele>278</ele>
        <time>2024-02-11T21:02:27Z</time>
      </trkpt>
      <trkpt lat="43.77128" lon="5.22528">
        <ele>277</ele>
        <time>2024-02-11T21:02:29Z</time>
      </trkpt>
      <trkpt lat="43.77126" lon="5.22581">
        <ele>272</ele>
        <time>2024-02-11T21:02:38Z</time>
      </trkpt>
      <trkpt lat="43.7712" lon="5.22625">
        <ele>266</ele>
        <time>2024-02-11T21:02:45Z</time>
      </trkpt>
      <trkpt lat="43.77128" lon="5.22706">
        <ele>255</ele>
        <time>2024-02-11T21:02:59Z</time>
      </trkpt>
      <trkpt lat="43.77128" lon="5.22751">
        <ele>248</ele>
        <time>2024-02-11T21:03:07Z</time>
      </trkpt>
      <trkpt lat="43.77125" lon="5.22791">
        <ele>243</ele>
        <time>2024-02-11T21:03:14Z</time>
      </trkpt>
      <trkpt lat="43.77127" lon="5.22803">
        <ele>241</ele>
        <time>2024-02-11T21:03:16Z</time>
      </trkpt>
      <trkpt lat="43.7713" lon="5.22807">
        <ele>241</ele>
        <time>2024-02-11T21:03:17Z</time>
      </trkpt>
      <trkpt lat="43.77139" lon="5.22809">
        <ele>239</ele>
        <time>2024-02-11T21:03:19Z</time>
      </trkpt>
      <trkpt lat="43.77156" lon="5.22801">
        <ele>239</ele>
        <time>2024-02-11T21:03:23Z</time>
      </trkpt>
      <trkpt lat="43.77172" lon="5.22787">
        <ele>240</ele>
        <time>2024-02-11T21:03:27Z</time>
      </trkpt>
      <trkpt lat="43.7719" lon="5.22762">
        <ele>242</ele>
        <time>2024-02-11T21:03:33Z</time>
      </trkpt>
      <trkpt lat="43.77222" lon="5.22739">
        <ele>242</ele>
        <time>2024-02-11T21:03:42Z</time>
      </trkpt>
      <trkpt lat="43.77228" lon="5.22741">
        <ele>241</ele>
        <time>2024-02-11T21:03:43Z</time>
      </trkpt>
      <trkpt lat="43.77229" lon="5.2275">
        <ele>240</ele>
        <time>2024-02-11T21:03:45Z</time>
      </trkpt>
      <trkpt lat="43.77205" lon="5.22784">
        <ele>239</ele>
        <time>2024-02-11T21:03:53Z</time>
      </trkpt>
      <trkpt lat="43.77188" lon="5.22824">
        <ele>235</ele>
        <time>2024-02-11T21:04:01Z</time>
      </trkpt>
      <trkpt lat="43.77183" lon="5.22839">
        <ele>234</ele>
        <time>2024-02-11T21:04:03Z</time>
      </trkpt>
      <trkpt lat="43.77184" lon="5.2286">
        <ele>235</ele>
        <time>2024-02-11T21:04:07Z</time>
      </trkpt>
      <trkpt lat="43.77181" lon="5.22871">
        <ele>235</ele>
        <time>2024-02-11T21:04:09Z</time>
      </trkpt>
      <trkpt lat="43.77173" lon="5.22877">
        <ele>235</ele>
        <time>2024-02-11T21:04:11Z</time>
      </trkpt>
      <trkpt lat="43.77162" lon="5.22878">
        <ele>234</ele>
        <time>2024-02-11T21:04:14Z</time>
      </trkpt>
      <trkpt lat="43.7715" lon="5.22883">
        <ele>234</ele>
        <time>2024-02-11T21:04:16Z</time>
      </trkpt>
      <trkpt lat="43.77103" lon="5.22926">
        <ele>231</ele>
        <time>2024-02-11T21:04:30Z</time>
      </trkpt>
      <trkpt lat="43.77084" lon="5.22982">
        <ele>231</ele>
        <time>2024-02-11T21:04:40Z</time>
      </trkpt>
      <trkpt lat="43.77087" lon="5.2301">
        <ele>233</ele>
        <time>2024-02-11T21:04:45Z</time>
      </trkpt>
      <trkpt lat="43.77087" lon="5.23015">
        <ele>234</ele>
        <time>2024-02-11T21:04:46Z</time>
      </trkpt>
      <trkpt lat="43.77084" lon="5.23018">
        <ele>235</ele>
        <time>2024-02-11T21:04:47Z</time>
      </trkpt>
      <trkpt lat="43.77073" lon="5.23025">
        <ele>235</ele>
        <time>2024-02-11T21:04:49Z</time>
      </trkpt>
      <trkpt lat="43.77052" lon="5.23031">
        <ele>234</ele>
        <time>2024-02-11T21:04:54Z</time>
      </trkpt>
      <trkpt lat="43.77033" lon="5.23052">
        <ele>236</ele>
        <time>2024-02-11T21:05:00Z</time>
      </trkpt>
      <trkpt lat="43.77024" lon="5.23054">
        <ele>235</ele>
        <time>2024-02-11T21:05:02Z</time>
      </trkpt>
      <trkpt lat="43.77014" lon="5.23051">
        <ele>233</ele>
        <time>2024-02-11T21:05:05Z</time>
      </trkpt>
      <trkpt lat="43.77003" lon="5.23054">
        <ele>233</ele>
        <time>2024-02-11T21:05:07Z</time>
      </trkpt>
      <trkpt lat="43.7695" lon="5.23088">
        <ele>233</ele>
        <time>2024-02-11T21:05:21Z</time>
      </trkpt>
      <trkpt lat="43.76923" lon="5.2309">
        <ele>231</ele>
        <time>2024-02-11T21:05:27Z</time>
      </trkpt>
      <trkpt lat="43.76912" lon="5.23093">
        <ele>231</ele>
        <time>2024-02-11T21:05:30Z</time>
      </trkpt>
      <trkpt lat="43.76894" lon="5.23109">
        <ele>233</ele>
        <time>2024-02-11T21:05:35Z</time>
      </trkpt>
      <trkpt lat="43.76871" lon="5.23113">
        <ele>232</ele>
        <time>2024-02-11T21:05:40Z</time>
      </trkpt>
      <trkpt lat="43.76851" lon="5.23114">
        <ele>231</ele>
        <time>2024-02-11T21:05:45Z</time>
      </trkpt>
      <trkpt lat="43.76835" lon="5.23112">
        <ele>229</ele>
        <time>2024-02-11T21:05:49Z</time>
      </trkpt>
      <trkpt lat="43.76827" lon="5.23114">
        <ele>230</ele>
        <time>2024-02-11T21:05:51Z</time>
      </trkpt>
      <trkpt lat="43.76806" lon="5.23127">
        <ele>232</ele>
        <time>2024-02-11T21:05:56Z</time>
      </trkpt>
      <trkpt lat="43.76789" lon="5.23148">
        <ele>235</ele>
        <time>2024-02-11T21:06:01Z</time>
      </trkpt>
      <trkpt lat="43.76791" lon="5.23157">
        <ele>237</ele>
        <time>2024-02-11T21:06:03Z</time>
      </trkpt>
      <trkpt lat="43.76799" lon="5.23164">
        <ele>238</ele>
        <time>2024-02-11T21:06:05Z</time>
      </trkpt>
      <trkpt lat="43.76858" lon="5.23181">
        <ele>242</ele>
        <time>2024-02-11T21:06:19Z</time>
      </trkpt>
      <trkpt lat="43.7687" lon="5.23189">
        <ele>243</ele>
        <time>2024-02-11T21:06:22Z</time>
      </trkpt>
      <trkpt lat="43.7689" lon="5.23192">
        <ele>245</ele>
        <time>2024-02-11T21:06:27Z</time>
      </trkpt>
      <trkpt lat="43.76899" lon="5.23196">
        <ele>246</ele>
        <time>2024-02-11T21:06:29Z</time>
      </trkpt>
      <trkpt lat="43.76921" lon="5.23215">
        <ele>249</ele>
        <time>2024-02-11T21:06:35Z</time>
      </trkpt>
      <trkpt lat="43.76926" lon="5.23236">
        <ele>251</ele>
        <time>2024-02-11T21:06:39Z</time>
      </trkpt>
      <trkpt lat="43.76937" lon="5.23256">
        <ele>253</ele>
        <time>2024-02-11T21:06:43Z</time>
      </trkpt>
      <trkpt lat="43.76949" lon="5.23271">
        <ele>255</ele>
        <time>2024-02-11T21:06:47Z</time>
      </trkpt>
      <trkpt lat="43.76952" lon="5.23288">
        <ele>256</ele>
        <time>2024-02-11T21:06:50Z</time>
      </trkpt>
      <trkpt lat="43.76958" lon="5.23301">
        <ele>257</ele>
        <time>2024-02-11T21:06:52Z</time>
      </trkpt>
      <trkpt lat="43.76955" lon="5.23315">
        <ele>256</ele>
        <time>2024-02-11T21:06:55Z</time>
      </trkpt>
      <trkpt lat="43.76956" lon="5.23343">
        <ele>255</ele>
        <time>2024-02-11T21:07:00Z</time>
      </trkpt>
      <trkpt lat="43.76962" lon="5.23354">
        <ele>256</ele>
        <time>2024-02-11T21:07:02Z</time>
      </trkpt>
      <trkpt lat="43.76978" lon="5.23363">
        <ele>257</ele>
        <time>2024-02-11T21:07:06Z</time>
      </trkpt>
      <trkpt lat="43.7698" lon="5.23367">
        <ele>257</ele>
        <time>2024-02-11T21:07:07Z</time>
      </trkpt>
      <trkpt lat="43.76975" lon="5.23387">
        <ele>255</ele>
        <time>2024-02-11T21:07:10Z</time>
      </trkpt>
      <trkpt lat="43.76976" lon="5.23399">
        <ele>254</ele>
        <time>2024-02-11T21:07:12Z</time>
      </trkpt>
      <trkpt lat="43.76988" lon="5.23421">
        <ele>253</ele>
        <time>2024-02-11T21:07:17Z</time>
      </trkpt>
      <trkpt lat="43.7699" lon="5.23435">
        <ele>252</ele>
        <time>2024-02-11T21:07:19Z</time>
      </trkpt>
      <trkpt lat="43.76997" lon="5.23452">
        <ele>250</ele>
        <time>2024-02-11T21:07:23Z</time>
      </trkpt>
      <trkpt lat="43.76996" lon="5.23468">
        <ele>248</ele>
        <time>2024-02-11T21:07:25Z</time>
      </trkpt>
      <trkpt lat="43.77006" lon="5.23494">
        <ele>246</ele>
        <time>2024-02-11T21:07:30Z</time>
      </trkpt>
      <trkpt lat="43.77007" lon="5.23511">
        <ele>246</ele>
        <time>2024-02-11T21:07:33Z</time>
      </trkpt>
      <trkpt lat="43.77004" lon="5.23522">
        <ele>246</ele>
        <time>2024-02-11T21:07:35Z</time>
      </trkpt>
      <trkpt lat="43.77011" lon="5.23541">
        <ele>247</ele>
        <time>2024-02-11T21:07:39Z</time>
      </trkpt>
      <trkpt lat="43.77009" lon="5.23559">
        <ele>247</ele>
        <time>2024-02-11T21:07:42Z</time>
      </trkpt>
      <trkpt lat="43.77016" lon="5.23586">
        <ele>249</ele>
        <time>2024-02-11T21:07:47Z</time>
      </trkpt>
      <trkpt lat="43.77013" lon="5.23619">
        <ele>248</ele>
        <time>2024-02-11T21:07:52Z</time>
      </trkpt>
      <trkpt lat="43.77019" lon="5.23645">
        <ele>249</ele>
        <time>2024-02-11T21:07:57Z</time>
      </trkpt>
      <trkpt lat="43.77017" lon="5.23661">
        <ele>249</ele>
        <time>2024-02-11T21:08:00Z</time>
      </trkpt>
      <trkpt lat="43.7702" lon="5.23672">
        <ele>249</ele>
        <time>2024-02-11T21:08:02Z</time>
      </trkpt>
      <trkpt lat="43.77016" lon="5.23682">
        <ele>249</ele>
        <time>2024-02-11T21:08:04Z</time>
      </trkpt>
      <trkpt lat="43.77018" lon="5.23693">
        <ele>249</ele>
        <time>2024-02-11T21:08:06Z</time>
      </trkpt>
      <trkpt lat="43.77016" lon="5.23719">
        <ele>249</ele>
        <time>2024-02-11T21:08:10Z</time>
      </trkpt>
      <trkpt lat="43.77004" lon="5.23733">
        <ele>248</ele>
        <time>2024-02-11T21:08:14Z</time>
      </trkpt>
      <trkpt lat="43.76991" lon="5.23775">
        <ele>246</ele>
        <time>2024-02-11T21:08:21Z</time>
      </trkpt>
      <trkpt lat="43.76987" lon="5.23861">
        <ele>245</ele>
        <time>2024-02-11T21:08:36Z</time>
      </trkpt>
      <trkpt lat="43.76983" lon="5.23886">
        <ele>243</ele>
        <time>2024-02-11T21:08:40Z</time>
      </trkpt>
      <trkpt lat="43.76988" lon="5.23902">
        <ele>244</ele>
        <time>2024-02-11T21:08:43Z</time>
      </trkpt>
      <trkpt lat="43.77015" lon="5.23946">
        <ele>245</ele>
        <time>2024-02-11T21:08:53Z</time>
      </trkpt>
      <trkpt lat="43.77022" lon="5.23988">
        <ele>243</ele>
        <time>2024-02-11T21:09:00Z</time>
      </trkpt>
      <trkpt lat="43.77018" lon="5.2402">
        <ele>240</ele>
        <time>2024-02-11T21:09:06Z</time>
      </trkpt>
      <trkpt lat="43.77019" lon="5.24052">
        <ele>238</ele>
        <time>2024-02-11T21:09:11Z</time>
      </trkpt>
      <trkpt lat="43.77032" lon="5.24074">
        <ele>237</ele>
        <time>2024-02-11T21:09:16Z</time>
      </trkpt>
      <trkpt lat="43.77025" lon="5.24114">
        <ele>233</ele>
        <time>2024-02-11T21:09:23Z</time>
      </trkpt>
      <trkpt lat="43.77029" lon="5.24124">
        <ele>233</ele>
        <time>2024-02-11T21:09:25Z</time>
      </trkpt>
      <trkpt lat="43.7704" lon="5.24132">
        <ele>233</ele>
        <time>2024-02-11T21:09:28Z</time>
      </trkpt>
      <trkpt lat="43.77044" lon="5.24141">
        <ele>232</ele>
        <time>2024-02-11T21:09:29Z</time>
      </trkpt>
      <trkpt lat="43.77043" lon="5.24152">
        <ele>231</ele>
        <time>2024-02-11T21:09:31Z</time>
      </trkpt>
      <trkpt lat="43.77033" lon="5.24169">
        <ele>229</ele>
        <time>2024-02-11T21:09:35Z</time>
      </trkpt>
      <trkpt lat="43.77032" lon="5.24185">
        <ele>231</ele>
        <time>2024-02-11T21:09:38Z</time>
      </trkpt>
      <trkpt lat="43.77026" lon="5.24191">
        <ele>231</ele>
        <time>2024-02-11T21:09:39Z</time>
      </trkpt>
      <trkpt lat="43.77023" lon="5.24202">
        <ele>233</ele>
        <time>2024-02-11T21:09:41Z</time>
      </trkpt>
      <trkpt lat="43.77043" lon="5.24215">
        <ele>235</ele>
        <time>2024-02-11T21:09:47Z</time>
      </trkpt>
      <trkpt lat="43.77062" lon="5.24201">
        <ele>235</ele>
        <time>2024-02-11T21:09:52Z</time>
      </trkpt>
      <trkpt lat="43.77078" lon="5.24202">
        <ele>236</ele>
        <time>2024-02-11T21:09:55Z</time>
      </trkpt>
      <trkpt lat="43.77094" lon="5.24214">
        <ele>239</ele>
        <time>2024-02-11T21:10:00Z</time>
      </trkpt>
      <trkpt lat="43.77098" lon="5.24224">
        <ele>240</ele>
        <time>2024-02-11T21:10:01Z</time>
      </trkpt>
      <trkpt lat="43.77134" lon="5.24263">
        <ele>247</ele>
        <time>2024-02-11T21:10:12Z</time>
      </trkpt>
      <trkpt lat="43.77141" lon="5.24266">
        <ele>248</ele>
        <time>2024-02-11T21:10:14Z</time>
      </trkpt>
      <trkpt lat="43.77167" lon="5.2427">
        <ele>250</ele>
        <time>2024-02-11T21:10:20Z</time>
      </trkpt>
      <trkpt lat="43.77178" lon="5.24255">
        <ele>249</ele>
        <time>2024-02-11T21:10:24Z</time>
      </trkpt>
      <trkpt lat="43.77236" lon="5.24247">
        <ele>249</ele>
        <time>2024-02-11T21:10:37Z</time>
      </trkpt>
      <trkpt lat="43.77253" lon="5.24253">
        <ele>250</ele>
        <time>2024-02-11T21:10:41Z</time>
      </trkpt>
      <trkpt lat="43.77264" lon="5.24261">
        <ele>251</ele>
        <time>2024-02-11T21:10:44Z</time>
      </trkpt>
      <trkpt lat="43.7727" lon="5.24289">
        <ele>255</ele>
        <time>2024-02-11T21:10:49Z</time>
      </trkpt>
      <trkpt lat="43.77266" lon="5.24298">
        <ele>256</ele>
        <time>2024-02-11T21:10:51Z</time>
      </trkpt>
      <trkpt lat="43.77267" lon="5.2431">
        <ele>258</ele>
        <time>2024-02-11T21:10:53Z</time>
      </trkpt>
      <trkpt lat="43.77265" lon="5.24314">
        <ele>258</ele>
        <time>2024-02-11T21:10:54Z</time>
      </trkpt>
      <trkpt lat="43.77245" lon="5.24329">
        <ele>259</ele>
        <time>2024-02-11T21:10:59Z</time>
      </trkpt>
      <trkpt lat="43.77225" lon="5.24334">
        <ele>259</ele>
        <time>2024-02-11T21:11:04Z</time>
      </trkpt>
      <trkpt lat="43.77216" lon="5.24344">
        <ele>260</ele>
        <time>2024-02-11T21:11:06Z</time>
      </trkpt>
      <trkpt lat="43.77201" lon="5.24347">
        <ele>260</ele>
        <time>2024-02-11T21:11:10Z</time>
      </trkpt>
      <trkpt lat="43.77188" lon="5.24343">
        <ele>258</ele>
        <time>2024-02-11T21:11:13Z</time>
      </trkpt>
      <trkpt lat="43.77182" lon="5.24345">
        <ele>258</ele>
        <time>2024-02-11T21:11:15Z</time>
      </trkpt>
      <trkpt lat="43.77177" lon="5.2435">
        <ele>259</ele>
        <time>2024-02-11T21:11:16Z</time>
      </trkpt>
      <trkpt lat="43.77162" lon="5.24351">
        <ele>258</ele>
        <time>2024-02-11T21:11:20Z</time>
      </trkpt>
      <trkpt lat="43.77142" lon="5.24345">
        <ele>257</ele>
        <time>2024-02-11T21:11:24Z</time>
      </trkpt>
      <trkpt lat="43.77106" lon="5.24349">
        <ele>256</ele>
        <time>2024-02-11T21:11:33Z</time>
      </trkpt>
      <trkpt lat="43.77086" lon="5.2436">
        <ele>258</ele>
        <time>2024-02-11T21:11:38Z</time>
      </trkpt>
      <trkpt lat="43.77063" lon="5.24368">
        <ele>258</ele>
        <time>2024-02-11T21:11:43Z</time>
      </trkpt>
      <trkpt lat="43.7703" lon="5.24389">
        <ele>258</ele>
        <time>2024-02-11T21:11:52Z</time>
      </trkpt>
      <trkpt lat="43.77027" lon="5.24392">
        <ele>258</ele>
        <time>2024-02-11T21:11:53Z</time>
      </trkpt>
      <trkpt lat="43.77024" lon="5.24404">
        <ele>259</ele>
        <time>2024-02-11T21:11:55Z</time>
      </trkpt>
      <trkpt lat="43.77011" lon="5.24417">
        <ele>258</ele>
        <time>2024-02-11T21:11:59Z</time>
      </trkpt>
      <trkpt lat="43.77008" lon="5.24459">
        <ele>260</ele>
        <time>2024-02-11T21:12:06Z</time>
      </trkpt>
      <trkpt lat="43.76998" lon="5.24538">
        <ele>258</ele>
        <time>2024-02-11T21:12:19Z</time>
      </trkpt>
      <trkpt lat="43.76974" lon="5.24566">
        <ele>254</ele>
        <time>2024-02-11T21:12:27Z</time>
      </trkpt>
      <trkpt lat="43.7697" lon="5.24586">
        <ele>252</ele>
        <time>2024-02-11T21:12:30Z</time>
      </trkpt>
      <trkpt lat="43.7697" lon="5.24613">
        <ele>253</ele>
        <time>2024-02-11T21:12:35Z</time>
      </trkpt>
      <trkpt lat="43.76964" lon="5.24629">
        <ele>252</ele>
        <time>2024-02-11T21:12:38Z</time>
      </trkpt>
      <trkpt lat="43.76956" lon="5.24635">
        <ele>251</ele>
        <time>2024-02-11T21:12:40Z</time>
      </trkpt>
      <trkpt lat="43.76933" lon="5.24637">
        <ele>249</ele>
        <time>2024-02-11T21:12:45Z</time>
      </trkpt>
      <trkpt lat="43.76922" lon="5.24646">
        <ele>247</ele>
        <time>2024-02-11T21:12:48Z</time>
      </trkpt>
      <trkpt lat="43.76915" lon="5.24666">
        <ele>247</ele>
        <time>2024-02-11T21:12:52Z</time>
      </trkpt>
      <trkpt lat="43.76911" lon="5.2467">
        <ele>247</ele>
        <time>2024-02-11T21:12:53Z</time>
      </trkpt>
      <trkpt lat="43.76904" lon="5.24668">
        <ele>247</ele>
        <time>2024-02-11T21:12:55Z</time>
      </trkpt>
      <trkpt lat="43.769" lon="5.24662">
        <ele>246</ele>
        <time>2024-02-11T21:12:56Z</time>
      </trkpt>
      <trkpt lat="43.76893" lon="5.2466">
        <ele>246</ele>
        <time>2024-02-11T21:12:58Z</time>
      </trkpt>
      <trkpt lat="43.76883" lon="5.2467">
        <ele>246</ele>
        <time>2024-02-11T21:13:01Z</time>
      </trkpt>
      <trkpt lat="43.76879" lon="5.24686">
        <ele>247</ele>
        <time>2024-02-11T21:13:03Z</time>
      </trkpt>
      <trkpt lat="43.76861" lon="5.24711">
        <ele>248</ele>
        <time>2024-02-11T21:13:09Z</time>
      </trkpt>
      <trkpt lat="43.76861" lon="5.2473">
        <ele>250</ele>
        <time>2024-02-11T21:13:13Z</time>
      </trkpt>
      <trkpt lat="43.76851" lon="5.24742">
        <ele>250</ele>
        <time>2024-02-11T21:13:16Z</time>
      </trkpt>
      <trkpt lat="43.76818" lon="5.24823">
        <ele>255</ele>
        <time>2024-02-11T21:13:31Z</time>
      </trkpt>
      <trkpt lat="43.76808" lon="5.24843">
        <ele>257</ele>
        <time>2024-02-11T21:13:35Z</time>
      </trkpt>
      <trkpt lat="43.76792" lon="5.24859">
        <ele>258</ele>
        <time>2024-02-11T21:13:40Z</time>
      </trkpt>
      <trkpt lat="43.768" lon="5.24878">
        <ele>259</ele>
        <time>2024-02-11T21:13:44Z</time>
      </trkpt>
      <trkpt lat="43.768" lon="5.24891">
        <ele>259</ele>
        <time>2024-02-11T21:13:46Z</time>
      </trkpt>
      <trkpt lat="43.76802" lon="5.24893">
        <ele>259</ele>
        <time>2024-02-11T21:13:47Z</time>
      </trkpt>
      <trkpt lat="43.7681" lon="5.24891">
        <ele>258</ele>
        <time>2024-02-11T21:13:48Z</time>
      </trkpt>
      <trkpt lat="43.76811" lon="5.24893">
        <ele>258</ele>
        <time>2024-02-11T21:13:49Z</time>
      </trkpt>
      <trkpt lat="43.76814" lon="5.24905">
        <ele>258</ele>
        <time>2024-02-11T21:13:51Z</time>
      </trkpt>
      <trkpt lat="43.76808" lon="5.24929">
        <ele>259</ele>
        <time>2024-02-11T21:13:55Z</time>
      </trkpt>
      <trkpt lat="43.7681" lon="5.24935">
        <ele>259</ele>
        <time>2024-02-11T21:13:56Z</time>
      </trkpt>
      <trkpt lat="43.76816" lon="5.24938">
        <ele>258</ele>
        <time>2024-02-11T21:13:58Z</time>
      </trkpt>
      <trkpt lat="43.76824" lon="5.24948">
        <ele>257</ele>
        <time>2024-02-11T21:14:00Z</time>
      </trkpt>
      <trkpt lat="43.76824" lon="5.24961">
        <ele>257</ele>
        <time>2024-02-11T21:14:03Z</time>
      </trkpt>
      <trkpt lat="43.76828" lon="5.24982">
        <ele>257</ele>
        <time>2024-02-11T21:14:06Z</time>
      </trkpt>
      <trkpt lat="43.76818" lon="5.24996">
        <ele>257</ele>
        <time>2024-02-11T21:14:10Z</time>
      </trkpt>
      <trkpt lat="43.7681" lon="5.24999">
        <ele>258</ele>
        <time>2024-02-11T21:14:12Z</time>
      </trkpt>
      <trkpt lat="43.76803" lon="5.25009">
        <ele>258</ele>
        <time>2024-02-11T21:14:14Z</time>
      </trkpt>
      <trkpt lat="43.768" lon="5.25017">
        <ele>258</ele>
        <time>2024-02-11T21:14:15Z</time>
      </trkpt>
      <trkpt lat="43.76801" lon="5.25028">
        <ele>257</ele>
        <time>2024-02-11T21:14:17Z</time>
      </trkpt>
      <trkpt lat="43.76796" lon="5.2504">
        <ele>257</ele>
        <time>2024-02-11T21:14:20Z</time>
      </trkpt>
      <trkpt lat="43.76778" lon="5.25052">
        <ele>257</ele>
        <time>2024-02-11T21:14:24Z</time>
      </trkpt>
      <trkpt lat="43.76769" lon="5.25067">
        <ele>257</ele>
        <time>2024-02-11T21:14:28Z</time>
      </trkpt>
      <trkpt lat="43.76759" lon="5.25068">
        <ele>258</ele>
        <time>2024-02-11T21:14:30Z</time>
      </trkpt>
      <trkpt lat="43.76754" lon="5.25071">
        <ele>258</ele>
        <time>2024-02-11T21:14:31Z</time>
      </trkpt>
      <trkpt lat="43.76741" lon="5.25092">
        <ele>256</ele>
        <time>2024-02-11T21:14:36Z</time>
      </trkpt>
      <trkpt lat="43.7673" lon="5.25096">
        <ele>257</ele>
        <time>2024-02-11T21:14:38Z</time>
      </trkpt>
      <trkpt lat="43.76715" lon="5.25117">
        <ele>255</ele>
        <time>2024-02-11T21:14:43Z</time>
      </trkpt>
      <trkpt lat="43.76714" lon="5.2514">
        <ele>252</ele>
        <time>2024-02-11T21:14:47Z</time>
      </trkpt>
      <trkpt lat="43.76721" lon="5.2515">
        <ele>250</ele>
        <time>2024-02-11T21:14:50Z</time>
      </trkpt>
      <trkpt lat="43.76719" lon="5.25172">
        <ele>247</ele>
        <time>2024-02-11T21:14:53Z</time>
      </trkpt>
      <trkpt lat="43.76722" lon="5.25186">
        <ele>244</ele>
        <time>2024-02-11T21:14:56Z</time>
      </trkpt>
      <trkpt lat="43.76718" lon="5.252">
        <ele>241</ele>
        <time>2024-02-11T21:14:58Z</time>
      </trkpt>
      <trkpt lat="43.76703" lon="5.25221">
        <ele>239</ele>
        <time>2024-02-11T21:15:03Z</time>
      </trkpt>
      <trkpt lat="43.76705" lon="5.25238">
        <ele>236</ele>
        <time>2024-02-11T21:15:06Z</time>
      </trkpt>
      <trkpt lat="43.76709" lon="5.25249">
        <ele>233</ele>
        <time>2024-02-11T21:15:08Z</time>
      </trkpt>
      <trkpt lat="43.76709" lon="5.25261">
        <ele>231</ele>
        <time>2024-02-11T21:15:10Z</time>
      </trkpt>
      <trkpt lat="43.76705" lon="5.25273">
        <ele>230</ele>
        <time>2024-02-11T21:15:13Z</time>
      </trkpt>
      <trkpt lat="43.767" lon="5.25321">
        <ele>223</ele>
        <time>2024-02-11T21:15:21Z</time>
      </trkpt>
      <trkpt lat="43.76678" lon="5.25353">
        <ele>221</ele>
        <time>2024-02-11T21:15:28Z</time>
      </trkpt>
      <trkpt lat="43.76682" lon="5.25358">
        <ele>220</ele>
        <time>2024-02-11T21:15:30Z</time>
      </trkpt>
      <trkpt lat="43.76696" lon="5.25358">
        <ele>220</ele>
        <time>2024-02-11T21:15:33Z</time>
      </trkpt>
      <trkpt lat="43.76701" lon="5.25369">
        <ele>220</ele>
        <time>2024-02-11T21:15:35Z</time>
      </trkpt>
      <trkpt lat="43.76706" lon="5.25369">
        <ele>220</ele>
        <time>2024-02-11T21:15:36Z</time>
      </trkpt>
      <trkpt lat="43.76735" lon="5.2531">
        <ele>222</ele>
        <time>2024-02-11T21:15:48Z</time>
      </trkpt>
      <trkpt lat="43.76787" lon="5.25267">
        <ele>226</ele>
        <time>2024-02-11T21:16:02Z</time>
      </trkpt>
      <trkpt lat="43.76804" lon="5.25259">
        <ele>226</ele>
        <time>2024-02-11T21:16:07Z</time>
      </trkpt>
      <trkpt lat="43.7682" lon="5.25262">
        <ele>226</ele>
        <time>2024-02-11T21:16:10Z</time>
      </trkpt>
      <trkpt lat="43.76848" lon="5.25256">
        <ele>226</ele>
        <time>2024-02-11T21:16:17Z</time>
      </trkpt>
      <trkpt lat="43.76872" lon="5.25259">
        <ele>227</ele>
        <time>2024-02-11T21:16:23Z</time>
      </trkpt>
      <trkpt lat="43.76917" lon="5.25249">
        <ele>226</ele>
        <time>2024-02-11T21:16:33Z</time>
      </trkpt>
      <trkpt lat="43.76948" lon="5.25231">
        <ele>231</ele>
        <time>2024-02-11T21:16:41Z</time>
      </trkpt>
      <trkpt lat="43.76965" lon="5.25215">
        <ele>233</ele>
        <time>2024-02-11T21:16:46Z</time>
      </trkpt>
      <trkpt lat="43.76973" lon="5.25198">
        <ele>233</ele>
        <time>2024-02-11T21:16:49Z</time>
      </trkpt>
      <trkpt lat="43.76986" lon="5.25179">
        <ele>233</ele>
        <time>2024-02-11T21:16:54Z</time>
      </trkpt>
      <trkpt lat="43.76994" lon="5.25175">
        <ele>233</ele>
        <time>2024-02-11T21:16:56Z</time>
      </trkpt>
      <trkpt lat="43.77017" lon="5.2517">
        <ele>233</ele>
        <time>2024-02-11T21:17:01Z</time>
      </trkpt>
      <trkpt lat="43.77037" lon="5.25159">
        <ele>237</ele>
        <time>2024-02-11T21:17:06Z</time>
      </trkpt>
      <trkpt lat="43.77069" lon="5.25147">
        <ele>242</ele>
        <time>2024-02-11T21:17:14Z</time>
      </trkpt>
      <trkpt lat="43.77088" lon="5.25146">
        <ele>243</ele>
        <time>2024-02-11T21:17:18Z</time>
      </trkpt>
      <trkpt lat="43.77101" lon="5.25148">
        <ele>245</ele>
        <time>2024-02-11T21:17:21Z</time>
      </trkpt>
      <trkpt lat="43.77136" lon="5.2516">
        <ele>247</ele>
        <time>2024-02-11T21:17:30Z</time>
      </trkpt>
      <trkpt lat="43.77145" lon="5.25156">
        <ele>249</ele>
        <time>2024-02-11T21:17:32Z</time>
      </trkpt>
      <trkpt lat="43.77164" lon="5.25155">
        <ele>252</ele>
        <time>2024-02-11T21:17:36Z</time>
      </trkpt>
      <trkpt lat="43.77171" lon="5.25157">
        <ele>253</ele>
        <time>2024-02-11T21:17:38Z</time>
      </trkpt>
      <trkpt lat="43.77185" lon="5.25164">
        <ele>254</ele>
        <time>2024-02-11T21:17:42Z</time>
      </trkpt>
      <trkpt lat="43.77227" lon="5.25196">
        <ele>261</ele>
        <time>2024-02-11T21:17:53Z</time>
      </trkpt>
      <trkpt lat="43.77284" lon="5.2522">
        <ele>265</ele>
        <time>2024-02-11T21:18:07Z</time>
      </trkpt>
      <trkpt lat="43.77299" lon="5.25224">
        <ele>265</ele>
        <time>2024-02-11T21:18:10Z</time>
      </trkpt>
      <trkpt lat="43.77319" lon="5.25221">
        <ele>268</ele>
        <time>2024-02-11T21:18:15Z</time>
      </trkpt>
      <trkpt lat="43.77341" lon="5.25205">
        <ele>273</ele>
        <time>2024-02-11T21:18:21Z</time>
      </trkpt>
      <trkpt lat="43.7735" lon="5.25201">
        <ele>274</ele>
        <time>2024-02-11T21:18:23Z</time>
      </trkpt>
      <trkpt lat="43.77355" lon="5.25201">
        <ele>274</ele>
        <time>2024-02-11T21:18:24Z</time>
      </trkpt>
      <trkpt lat="43.77376" lon="5.2521">
        <ele>272</ele>
        <time>2024-02-11T21:18:29Z</time>
      </trkpt>
      <trkpt lat="43.77384" lon="5.25209">
        <ele>272</ele>
        <time>2024-02-11T21:18:31Z</time>
      </trkpt>
      <trkpt lat="43.77395" lon="5.25201">
        <ele>274</ele>
        <time>2024-02-11T21:18:34Z</time>
      </trkpt>
      <trkpt lat="43.77406" lon="5.25197">
        <ele>275</ele>
        <time>2024-02-11T21:18:37Z</time>
      </trkpt>
      <trkpt lat="43.77418" lon="5.25196">
        <ele>275</ele>
        <time>2024-02-11T21:18:40Z</time>
      </trkpt>
      <trkpt lat="43.7744" lon="5.252">
        <ele>276</ele>
        <time>2024-02-11T21:18:45Z</time>
      </trkpt>
      <trkpt lat="43.77454" lon="5.25209">
        <ele>275</ele>
        <time>2024-02-11T21:18:48Z</time>
      </trkpt>
      <trkpt lat="43.77469" lon="5.25234">
        <ele>269</ele>
        <time>2024-02-11T21:18:54Z</time>
      </trkpt>
      <trkpt lat="43.77494" lon="5.25257">
        <ele>265</ele>
        <time>2024-02-11T21:19:01Z</time>
      </trkpt>
      <trkpt lat="43.77504" lon="5.25276">
        <ele>266</ele>
        <time>2024-02-11T21:19:05Z</time>
      </trkpt>
      <trkpt lat="43.77524" lon="5.25397">
        <ele>272</ele>
        <time>2024-02-11T21:19:26Z</time>
      </trkpt>
      <trkpt lat="43.77533" lon="5.25426">
        <ele>273</ele>
        <time>2024-02-11T21:19:31Z</time>
      </trkpt>
      <trkpt lat="43.77545" lon="5.25449">
        <ele>275</ele>
        <time>2024-02-11T21:19:36Z</time>
      </trkpt>
      <trkpt lat="43.77579" lon="5.25497">
        <ele>270</ele>
        <time>2024-02-11T21:19:47Z</time>
      </trkpt>
      <trkpt lat="43.77609" lon="5.25549">
        <ele>278</ele>
        <time>2024-02-11T21:19:58Z</time>
      </trkpt>
      <trkpt lat="43.7762" lon="5.2556">
        <ele>279</ele>
        <time>2024-02-11T21:20:02Z</time>
      </trkpt>
      <trkpt lat="43.77641" lon="5.25569">
        <ele>277</ele>
        <time>2024-02-11T21:20:07Z</time>
      </trkpt>
      <trkpt lat="43.77653" lon="5.25577">
        <ele>276</ele>
        <time>2024-02-11T21:20:10Z</time>
      </trkpt>
      <trkpt lat="43.7766" lon="5.25587">
        <ele>275</ele>
        <time>2024-02-11T21:20:12Z</time>
      </trkpt>
      <trkpt lat="43.77686" lon="5.25649">
        <ele>280</ele>
        <time>2024-02-11T21:20:24Z</time>
      </trkpt>
      <trkpt lat="43.77698" lon="5.25693">
        <ele>282</ele>
        <time>2024-02-11T21:20:32Z</time>
      </trkpt>
      <trkpt lat="43.77713" lon="5.25734">
        <ele>284</ele>
        <time>2024-02-11T21:20:40Z</time>
      </trkpt>
      <trkpt lat="43.77725" lon="5.25757">
        <ele>285</ele>
        <time>2024-02-11T21:20:45Z</time>
      </trkpt>
      <trkpt lat="43.7774" lon="5.25809">
        <ele>285</ele>
        <time>2024-02-11T21:20:54Z</time>
      </trkpt>
      <trkpt lat="43.77759" lon="5.25837">
        <ele>288</ele>
        <time>2024-02-11T21:21:01Z</time>
      </trkpt>
      <trkpt lat="43.77778" lon="5.25852">
        <ele>297</ele>
        <time>2024-02-11T21:21:06Z</time>
      </trkpt>
      <trkpt lat="43.77793" lon="5.25871">
        <ele>302</ele>
        <time>2024-02-11T21:21:10Z</time>
      </trkpt>
      <trkpt lat="43.77812" lon="5.25904">
        <ele>305</ele>
        <time>2024-02-11T21:21:18Z</time>
      </trkpt>
      <trkpt lat="43.77829" lon="5.25944">
        <ele>307</ele>
        <time>2024-02-11T21:21:25Z</time>
      </trkpt>
      <trkpt lat="43.77839" lon="5.25988">
        <ele>308</ele>
        <time>2024-02-11T21:21:33Z</time>
      </trkpt>
      <trkpt lat="43.77855" lon="5.26025">
        <ele>316</ele>
        <time>2024-02-11T21:21:40Z</time>
      </trkpt>
      <trkpt lat="43.77857" lon="5.26047">
        <ele>319</ele>
        <time>2024-02-11T21:21:44Z</time>
      </trkpt>
      <trkpt lat="43.77856" lon="5.26076">
        <ele>321</ele>
        <time>2024-02-11T21:21:49Z</time>
      </trkpt>
      <trkpt lat="43.7786" lon="5.26119">
        <ele>329</ele>
        <time>2024-02-11T21:21:56Z</time>
      </trkpt>
      <trkpt lat="43.77871" lon="5.26145">
        <ele>335</ele>
        <time>2024-02-11T21:22:01Z</time>
      </trkpt>
      <trkpt lat="43.7787" lon="5.26154">
        <ele>336</ele>
        <time>2024-02-11T21:22:03Z</time>
      </trkpt>
      <trkpt lat="43.7786" lon="5.26165">
        <ele>336</ele>
        <time>2024-02-11T21:22:06Z</time>
      </trkpt>
      <trkpt lat="43.77846" lon="5.2617">
        <ele>336</ele>
        <time>2024-02-11T21:22:09Z</time>
      </trkpt>
      <trkpt lat="43.77835" lon="5.26171">
        <ele>335</ele>
        <time>2024-02-11T21:22:12Z</time>
      </trkpt>
      <trkpt lat="43.77816" lon="5.26168">
        <ele>334</ele>
        <time>2024-02-11T21:22:16Z</time>
      </trkpt>
      <trkpt lat="43.77781" lon="5.26148">
        <ele>330</ele>
        <time>2024-02-11T21:22:25Z</time>
      </trkpt>
      <trkpt lat="43.77776" lon="5.26143">
        <ele>329</ele>
        <time>2024-02-11T21:22:27Z</time>
      </trkpt>
      <trkpt lat="43.77766" lon="5.26141">
        <ele>329</ele>
        <time>2024-02-11T21:22:29Z</time>
      </trkpt>
      <trkpt lat="43.7776" lon="5.26151">
        <ele>331</ele>
        <time>2024-02-11T21:22:31Z</time>
      </trkpt>
      <trkpt lat="43.7776" lon="5.2616">
        <ele>333</ele>
        <time>2024-02-11T21:22:33Z</time>
      </trkpt>
      <trkpt lat="43.77774" lon="5.26177">
        <ele>337</ele>
        <time>2024-02-11T21:22:37Z</time>
      </trkpt>
      <trkpt lat="43.77778" lon="5.26186">
        <ele>338</ele>
        <time>2024-02-11T21:22:39Z</time>
      </trkpt>
      <trkpt lat="43.77781" lon="5.26206">
        <ele>343</ele>
        <time>2024-02-11T21:22:42Z</time>
      </trkpt>
      <trkpt lat="43.7778" lon="5.26216">
        <ele>345</ele>
        <time>2024-02-11T21:22:44Z</time>
      </trkpt>
      <trkpt lat="43.77754" lon="5.26293">
        <ele>360</ele>
        <time>2024-02-11T21:22:58Z</time>
      </trkpt>
      <trkpt lat="43.77742" lon="5.26341">
        <ele>370</ele>
        <time>2024-02-11T21:23:07Z</time>
      </trkpt>
      <trkpt lat="43.77722" lon="5.26364">
        <ele>370</ele>
        <time>2024-02-11T21:23:13Z</time>
      </trkpt>
      <trkpt lat="43.77711" lon="5.2637">
        <ele>368</ele>
        <time>2024-02-11T21:23:16Z</time>
      </trkpt>
      <trkpt lat="43.77703" lon="5.26382">
        <ele>368</ele>
        <time>2024-02-11T21:23:19Z</time>
      </trkpt>
      <trkpt lat="43.77696" lon="5.26419">
        <ele>375</ele>
        <time>2024-02-11T21:23:25Z</time>
      </trkpt>
      <trkpt lat="43.77696" lon="5.26454">
        <ele>382</ele>
        <time>2024-02-11T21:23:31Z</time>
      </trkpt>
      <trkpt lat="43.77687" lon="5.26509">
        <ele>389</ele>
        <time>2024-02-11T21:23:40Z</time>
      </trkpt>
      <trkpt lat="43.7769" lon="5.26533">
        <ele>392</ele>
        <time>2024-02-11T21:23:44Z</time>
      </trkpt>
      <trkpt lat="43.77682" lon="5.26594">
        <ele>394</ele>
        <time>2024-02-11T21:23:55Z</time>
      </trkpt>
      <trkpt lat="43.77683" lon="5.26621">
        <ele>391</ele>
        <time>2024-02-11T21:24:00Z</time>
      </trkpt>
      <trkpt lat="43.77681" lon="5.26631">
        <ele>389</ele>
        <time>2024-02-11T21:24:01Z</time>
      </trkpt>
      <trkpt lat="43.77669" lon="5.26634">
        <ele>385</ele>
        <time>2024-02-11T21:24:04Z</time>
      </trkpt>
      <trkpt lat="43.77656" lon="5.26647">
        <ele>383</ele>
        <time>2024-02-11T21:24:08Z</time>
      </trkpt>
      <trkpt lat="43.77647" lon="5.26651">
        <ele>382</ele>
        <time>2024-02-11T21:24:10Z</time>
      </trkpt>
      <trkpt lat="43.77625" lon="5.26647">
        <ele>383</ele>
        <time>2024-02-11T21:24:15Z</time>
      </trkpt>
      <trkpt lat="43.77601" lon="5.26636">
        <ele>385</ele>
        <time>2024-02-11T21:24:21Z</time>
      </trkpt>
      <trkpt lat="43.77591" lon="5.26633">
        <ele>386</ele>
        <time>2024-02-11T21:24:24Z</time>
      </trkpt>
      <trkpt lat="43.77586" lon="5.26635">
        <ele>386</ele>
        <time>2024-02-11T21:24:25Z</time>
      </trkpt>
      <trkpt lat="43.77582" lon="5.26632">
        <ele>386</ele>
        <time>2024-02-11T21:24:26Z</time>
      </trkpt>
      <trkpt lat="43.77569" lon="5.26634">
        <ele>387</ele>
        <time>2024-02-11T21:24:29Z</time>
      </trkpt>
      <trkpt lat="43.77553" lon="5.26641">
        <ele>388</ele>
        <time>2024-02-11T21:24:33Z</time>
      </trkpt>
      <trkpt lat="43.77522" lon="5.26638">
        <ele>392</ele>
        <time>2024-02-11T21:24:40Z</time>
      </trkpt>
      <trkpt lat="43.77514" lon="5.26626">
        <ele>393</ele>
        <time>2024-02-11T21:24:43Z</time>
      </trkpt>
      <trkpt lat="43.77508" lon="5.26623">
        <ele>393</ele>
        <time>2024-02-11T21:24:44Z</time>
      </trkpt>
      <trkpt lat="43.77498" lon="5.26612">
        <ele>393</ele>
        <time>2024-02-11T21:24:47Z</time>
      </trkpt>
      <trkpt lat="43.77493" lon="5.26611">
        <ele>392</ele>
        <time>2024-02-11T21:24:48Z</time>
      </trkpt>
      <trkpt lat="43.77485" lon="5.26594">
        <ele>390</ele>
        <time>2024-02-11T21:24:52Z</time>
      </trkpt>
      <trkpt lat="43.77468" lon="5.26596">
        <ele>387</ele>
        <time>2024-02-11T21:24:56Z</time>
      </trkpt>
      <trkpt lat="43.77457" lon="5.26586">
        <ele>385</ele>
        <time>2024-02-11T21:24:59Z</time>
      </trkpt>
      <trkpt lat="43.77455" lon="5.2658">
        <ele>385</ele>
        <time>2024-02-11T21:25:00Z</time>
      </trkpt>
      <trkpt lat="43.7745" lon="5.26578">
        <ele>384</ele>
        <time>2024-02-11T21:25:01Z</time>
      </trkpt>
      <trkpt lat="43.77443" lon="5.2657">
        <ele>385</ele>
        <time>2024-02-11T21:25:03Z</time>
      </trkpt>
      <trkpt lat="43.77435" lon="5.26567">
        <ele>384</ele>
        <time>2024-02-11T21:25:05Z</time>
      </trkpt>
      <trkpt lat="43.77429" lon="5.26555">
        <ele>386</ele>
        <time>2024-02-11T21:25:08Z</time>
      </trkpt>
      <trkpt lat="43.77422" lon="5.26547">
        <ele>387</ele>
        <time>2024-02-11T21:25:10Z</time>
      </trkpt>
      <trkpt lat="43.77417" lon="5.26535">
        <ele>389</ele>
        <time>2024-02-11T21:25:12Z</time>
      </trkpt>
      <trkpt lat="43.77405" lon="5.26527">
        <ele>389</ele>
        <time>2024-02-11T21:25:15Z</time>
      </trkpt>
      <trkpt lat="43.77378" lon="5.26487">
        <ele>393</ele>
        <time>2024-02-11T21:25:25Z</time>
      </trkpt>
      <trkpt lat="43.77362" lon="5.2648">
        <ele>392</ele>
        <time>2024-02-11T21:25:28Z</time>
      </trkpt>
      <trkpt lat="43.77353" lon="5.26471">
        <ele>392</ele>
        <time>2024-02-11T21:25:31Z</time>
      </trkpt>
      <trkpt lat="43.77344" lon="5.2647">
        <ele>391</ele>
        <time>2024-02-11T21:25:33Z</time>
      </trkpt>
      <trkpt lat="43.77334" lon="5.26463">
        <ele>390</ele>
        <time>2024-02-11T21:25:36Z</time>
      </trkpt>
      <trkpt lat="43.77321" lon="5.26458">
        <ele>389</ele>
        <time>2024-02-11T21:25:39Z</time>
      </trkpt>
      <trkpt lat="43.77309" lon="5.26445">
        <ele>389</ele>
        <time>2024-02-11T21:25:43Z</time>
      </trkpt>
      <trkpt lat="43.77303" lon="5.26448">
        <ele>388</ele>
        <time>2024-02-11T21:25:44Z</time>
      </trkpt>
      <trkpt lat="43.77295" lon="5.26444">
        <ele>387</ele>
        <time>2024-02-11T21:25:46Z</time>
      </trkpt>
      <trkpt lat="43.77285" lon="5.26443">
        <ele>386</ele>
        <time>2024-02-11T21:25:48Z</time>
      </trkpt>
      <trkpt lat="43.7728" lon="5.26439">
        <ele>386</ele>
        <time>2024-02-11T21:25:50Z</time>
      </trkpt>
      <trkpt lat="43.77275" lon="5.26444">
        <ele>384</ele>
        <time>2024-02-11T21:25:51Z</time>
      </trkpt>
      <trkpt lat="43.77269" lon="5.26445">
        <ele>383</ele>
        <time>2024-02-11T21:25:53Z</time>
      </trkpt>
      <trkpt lat="43.77257" lon="5.26434">
        <ele>382</ele>
        <time>2024-02-11T21:25:56Z</time>
      </trkpt>
      <trkpt lat="43.77254" lon="5.26434">
        <ele>382</ele>
        <time>2024-02-11T21:25:57Z</time>
      </trkpt>
      <trkpt lat="43.77246" lon="5.26441">
        <ele>379</ele>
        <time>2024-02-11T21:25:59Z</time>
      </trkpt>
      <trkpt lat="43.77242" lon="5.26434">
        <ele>379</ele>
        <time>2024-02-11T21:26:00Z</time>
      </trkpt>
      <trkpt lat="43.77233" lon="5.26432">
        <ele>378</ele>
        <time>2024-02-11T21:26:02Z</time>
      </trkpt>
      <trkpt lat="43.7723" lon="5.26434">
        <ele>377</ele>
        <time>2024-02-11T21:26:03Z</time>
      </trkpt>
      <trkpt lat="43.77223" lon="5.26433">
        <ele>376</ele>
        <time>2024-02-11T21:26:05Z</time>
      </trkpt>
      <trkpt lat="43.77202" lon="5.2642">
        <ele>372</ele>
        <time>2024-02-11T21:26:10Z</time>
      </trkpt>
      <trkpt lat="43.77198" lon="5.26407">
        <ele>371</ele>
        <time>2024-02-11T21:26:13Z</time>
      </trkpt>
      <trkpt lat="43.77189" lon="5.26398">
        <ele>368</ele>
        <time>2024-02-11T21:26:15Z</time>
      </trkpt>
      <trkpt lat="43.77184" lon="5.26396">
        <ele>367</ele>
        <time>2024-02-11T21:26:16Z</time>
      </trkpt>
      <trkpt lat="43.7718" lon="5.26383">
        <ele>364</ele>
        <time>2024-02-11T21:26:19Z</time>
      </trkpt>
      <trkpt lat="43.77177" lon="5.2638">
        <ele>363</ele>
        <time>2024-02-11T21:26:20Z</time>
      </trkpt>
      <trkpt lat="43.77166" lon="5.26378">
        <ele>361</ele>
        <time>2024-02-11T21:26:22Z</time>
      </trkpt>
      <trkpt lat="43.77161" lon="5.26372">
        <ele>359</ele>
        <time>2024-02-11T21:26:24Z</time>
      </trkpt>
      <trkpt lat="43.77153" lon="5.26373">
        <ele>357</ele>
        <time>2024-02-11T21:26:26Z</time>
      </trkpt>
      <trkpt lat="43.77136" lon="5.26368">
        <ele>352</ele>
        <time>2024-02-11T21:26:30Z</time>
      </trkpt>
      <trkpt lat="43.77128" lon="5.26359">
        <ele>349</ele>
        <time>2024-02-11T21:26:32Z</time>
      </trkpt>
      <trkpt lat="43.77118" lon="5.26369">
        <ele>347</ele>
        <time>2024-02-11T21:26:35Z</time>
      </trkpt>
      <trkpt lat="43.77104" lon="5.26374">
        <ele>344</ele>
        <time>2024-02-11T21:26:38Z</time>
      </trkpt>
      <trkpt lat="43.77101" lon="5.26373">
        <ele>343</ele>
        <time>2024-02-11T21:26:39Z</time>
      </trkpt>
      <trkpt lat="43.77096" lon="5.26364">
        <ele>341</ele>
        <time>2024-02-11T21:26:41Z</time>
      </trkpt>
      <trkpt lat="43.77071" lon="5.26355">
        <ele>335</ele>
        <time>2024-02-11T21:26:47Z</time>
      </trkpt>
      <trkpt lat="43.77066" lon="5.26342">
        <ele>333</ele>
        <time>2024-02-11T21:26:50Z</time>
      </trkpt>
      <trkpt lat="43.77057" lon="5.26333">
        <ele>331</ele>
        <time>2024-02-11T21:26:52Z</time>
      </trkpt>
      <trkpt lat="43.77049" lon="5.26333">
        <ele>330</ele>
        <time>2024-02-11T21:26:54Z</time>
      </trkpt>
      <trkpt lat="43.77045" lon="5.26324">
        <ele>327</ele>
        <time>2024-02-11T21:26:56Z</time>
      </trkpt>
      <trkpt lat="43.77027" lon="5.26315">
        <ele>322</ele>
        <time>2024-02-11T21:27:00Z</time>
      </trkpt>
      <trkpt lat="43.77018" lon="5.26317">
        <ele>321</ele>
        <time>2024-02-11T21:27:02Z</time>
      </trkpt>
      <trkpt lat="43.77011" lon="5.26307">
        <ele>318</ele>
        <time>2024-02-11T21:27:05Z</time>
      </trkpt>
      <trkpt lat="43.77002" lon="5.26307">
        <ele>316</ele>
        <time>2024-02-11T21:27:07Z</time>
      </trkpt>
      <trkpt lat="43.76991" lon="5.26287">
        <ele>311</ele>
        <time>2024-02-11T21:27:11Z</time>
      </trkpt>
      <trkpt lat="43.76984" lon="5.26286">
        <ele>310</ele>
        <time>2024-02-11T21:27:13Z</time>
      </trkpt>
      <trkpt lat="43.76982" lon="5.26283">
        <ele>309</ele>
        <time>2024-02-11T21:27:13Z</time>
      </trkpt>
      <trkpt lat="43.76979" lon="5.26269">
        <ele>307</ele>
        <time>2024-02-11T21:27:16Z</time>
      </trkpt>
      <trkpt lat="43.76971" lon="5.26261">
        <ele>305</ele>
        <time>2024-02-11T21:27:18Z</time>
      </trkpt>
      <trkpt lat="43.76955" lon="5.26253">
        <ele>302</ele>
        <time>2024-02-11T21:27:22Z</time>
      </trkpt>
      <trkpt lat="43.76948" lon="5.26242">
        <ele>300</ele>
        <time>2024-02-11T21:27:25Z</time>
      </trkpt>
      <trkpt lat="43.76939" lon="5.26241">
        <ele>298</ele>
        <time>2024-02-11T21:27:27Z</time>
      </trkpt>
      <trkpt lat="43.76925" lon="5.26221">
        <ele>294</ele>
        <time>2024-02-11T21:27:31Z</time>
      </trkpt>
      <trkpt lat="43.7692" lon="5.26221">
        <ele>293</ele>
        <time>2024-02-11T21:27:33Z</time>
      </trkpt>
      <trkpt lat="43.76906" lon="5.26212">
        <ele>289</ele>
        <time>2024-02-11T21:27:36Z</time>
      </trkpt>
      <trkpt lat="43.76889" lon="5.26213">
        <ele>287</ele>
        <time>2024-02-11T21:27:40Z</time>
      </trkpt>
      <trkpt lat="43.76886" lon="5.2619">
        <ele>284</ele>
        <time>2024-02-11T21:27:44Z</time>
      </trkpt>
      <trkpt lat="43.76895" lon="5.26192">
        <ele>285</ele>
        <time>2024-02-11T21:27:46Z</time>
      </trkpt>
      <trkpt lat="43.76904" lon="5.26189">
        <ele>286</ele>
        <time>2024-02-11T21:27:48Z</time>
      </trkpt>
      <trkpt lat="43.76917" lon="5.26194">
        <ele>289</ele>
        <time>2024-02-11T21:27:52Z</time>
      </trkpt>
      <trkpt lat="43.76937" lon="5.26194">
        <ele>293</ele>
        <time>2024-02-11T21:27:56Z</time>
      </trkpt>
      <trkpt lat="43.76948" lon="5.26203">
        <ele>296</ele>
        <time>2024-02-11T21:27:59Z</time>
      </trkpt>
      <trkpt lat="43.76959" lon="5.26208">
        <ele>298</ele>
        <time>2024-02-11T21:28:02Z</time>
      </trkpt>
      <trkpt lat="43.76996" lon="5.26217">
        <ele>306</ele>
        <time>2024-02-11T21:28:11Z</time>
      </trkpt>
      <trkpt lat="43.77012" lon="5.26218">
        <ele>309</ele>
        <time>2024-02-11T21:28:14Z</time>
      </trkpt>
      <trkpt lat="43.77023" lon="5.26215">
        <ele>311</ele>
        <time>2024-02-11T21:28:17Z</time>
      </trkpt>
      <trkpt lat="43.77029" lon="5.2621">
        <ele>312</ele>
        <time>2024-02-11T21:28:19Z</time>
      </trkpt>
      <trkpt lat="43.7702" lon="5.26178">
        <ele>310</ele>
        <time>2024-02-11T21:28:24Z</time>
      </trkpt>
      <trkpt lat="43.77012" lon="5.26171">
        <ele>307</ele>
        <time>2024-02-11T21:28:27Z</time>
      </trkpt>
      <trkpt lat="43.76999" lon="5.2615">
        <ele>305</ele>
        <time>2024-02-11T21:28:31Z</time>
      </trkpt>
      <trkpt lat="43.76989" lon="5.26144">
        <ele>302</ele>
        <time>2024-02-11T21:28:34Z</time>
      </trkpt>
      <trkpt lat="43.76985" lon="5.26131">
        <ele>302</ele>
        <time>2024-02-11T21:28:36Z</time>
      </trkpt>
      <trkpt lat="43.76987" lon="5.26118">
        <ele>303</ele>
        <time>2024-02-11T21:28:39Z</time>
      </trkpt>
      <trkpt lat="43.76983" lon="5.26092">
        <ele>303</ele>
        <time>2024-02-11T21:28:43Z</time>
      </trkpt>
      <trkpt lat="43.7699" lon="5.26072">
        <ele>304</ele>
        <time>2024-02-11T21:28:47Z</time>
      </trkpt>
      <trkpt lat="43.76988" lon="5.26061">
        <ele>302</ele>
        <time>2024-02-11T21:28:49Z</time>
      </trkpt>
      <trkpt lat="43.76993" lon="5.26047">
        <ele>301</ele>
        <time>2024-02-11T21:28:51Z</time>
      </trkpt>
      <trkpt lat="43.76994" lon="5.26014">
        <ele>297</ele>
        <time>2024-02-11T21:28:57Z</time>
      </trkpt>
      <trkpt lat="43.77001" lon="5.26">
        <ele>297</ele>
        <time>2024-02-11T21:29:00Z</time>
      </trkpt>
      <trkpt lat="43.77015" lon="5.25994">
        <ele>298</ele>
        <time>2024-02-11T21:29:03Z</time>
      </trkpt>
      <trkpt lat="43.77044" lon="5.2597">
        <ele>298</ele>
        <time>2024-02-11T21:29:11Z</time>
      </trkpt>
      <trkpt lat="43.77049" lon="5.25958">
        <ele>296</ele>
        <time>2024-02-11T21:29:13Z</time>
      </trkpt>
      <trkpt lat="43.77059" lon="5.25952">
        <ele>296</ele>
        <time>2024-02-11T21:29:16Z</time>
      </trkpt>
      <trkpt lat="43.7707" lon="5.25953">
        <ele>298</ele>
        <time>2024-02-11T21:29:19Z</time>
      </trkpt>
      <trkpt lat="43.7708" lon="5.25959">
        <ele>302</ele>
        <time>2024-02-11T21:29:21Z</time>
      </trkpt>
      <trkpt lat="43.77087" lon="5.25958">
        <ele>303</ele>
        <time>2024-02-11T21:29:23Z</time>
      </trkpt>
      <trkpt lat="43.77091" lon="5.25957">
        <ele>303</ele>
        <time>2024-02-11T21:29:24Z</time>
      </trkpt>
      <trkpt lat="43.77092" lon="5.25951">
        <ele>302</ele>
        <time>2024-02-11T21:29:25Z</time>
      </trkpt>
      <trkpt lat="43.77074" lon="5.2593">
        <ele>293</ele>
        <time>2024-02-11T21:29:30Z</time>
      </trkpt>
      <trkpt lat="43.77071" lon="5.25919">
        <ele>290</ele>
        <time>2024-02-11T21:29:32Z</time>
      </trkpt>
      <trkpt lat="43.77066" lon="5.25918">
        <ele>288</ele>
        <time>2024-02-11T21:29:33Z</time>
      </trkpt>
      <trkpt lat="43.77064" lon="5.25913">
        <ele>288</ele>
        <time>2024-02-11T21:29:34Z</time>
      </trkpt>
      <trkpt lat="43.77065" lon="5.25906">
        <ele>289</ele>
        <time>2024-02-11T21:29:36Z</time>
      </trkpt>
      <trkpt lat="43.7706" lon="5.25904">
        <ele>288</ele>
        <time>2024-02-11T21:29:37Z</time>
      </trkpt>
      <trkpt lat="43.77054" lon="5.25906">
        <ele>287</ele>
        <time>2024-02-11T21:29:38Z</time>
      </trkpt>
      <trkpt lat="43.77044" lon="5.25888">
        <ele>287</ele>
        <time>2024-02-11T21:29:42Z</time>
      </trkpt>
      <trkpt lat="43.77041" lon="5.25887">
        <ele>287</ele>
        <time>2024-02-11T21:29:43Z</time>
      </trkpt>
      <trkpt lat="43.77035" lon="5.2589">
        <ele>285</ele>
        <time>2024-02-11T21:29:44Z</time>
      </trkpt>
      <trkpt lat="43.77015" lon="5.25891">
        <ele>282</ele>
        <time>2024-02-11T21:29:49Z</time>
      </trkpt>
      <trkpt lat="43.77004" lon="5.25898">
        <ele>279</ele>
        <time>2024-02-11T21:29:52Z</time>
      </trkpt>
      <trkpt lat="43.76966" lon="5.25914">
        <ele>269</ele>
        <time>2024-02-11T21:30:01Z</time>
      </trkpt>
      <trkpt lat="43.76929" lon="5.25912">
        <ele>261</ele>
        <time>2024-02-11T21:30:10Z</time>
      </trkpt>
      <trkpt lat="43.76921" lon="5.25899">
        <ele>259</ele>
        <time>2024-02-11T21:30:13Z</time>
      </trkpt>
      <trkpt lat="43.76918" lon="5.25882">
        <ele>258</ele>
        <time>2024-02-11T21:30:15Z</time>
      </trkpt>
      <trkpt lat="43.7691" lon="5.25866">
        <ele>256</ele>
        <time>2024-02-11T21:30:19Z</time>
      </trkpt>
      <trkpt lat="43.76905" lon="5.25821">
        <ele>254</ele>
        <time>2024-02-11T21:30:26Z</time>
      </trkpt>
      <trkpt lat="43.76911" lon="5.25784">
        <ele>254</ele>
        <time>2024-02-11T21:30:33Z</time>
      </trkpt>
      <trkpt lat="43.76915" lon="5.25775">
        <ele>254</ele>
        <time>2024-02-11T21:30:35Z</time>
      </trkpt>
      <trkpt lat="43.7693" lon="5.25754">
        <ele>257</ele>
        <time>2024-02-11T21:30:40Z</time>
      </trkpt>
      <trkpt lat="43.76943" lon="5.25743">
        <ele>260</ele>
        <time>2024-02-11T21:30:43Z</time>
      </trkpt>
      <trkpt lat="43.76946" lon="5.25736">
        <ele>260</ele>
        <time>2024-02-11T21:30:45Z</time>
      </trkpt>
      <trkpt lat="43.76957" lon="5.25731">
        <ele>263</ele>
        <time>2024-02-11T21:30:47Z</time>
      </trkpt>
      <trkpt lat="43.76965" lon="5.25722">
        <ele>264</ele>
        <time>2024-02-11T21:30:50Z</time>
      </trkpt>
      <trkpt lat="43.76967" lon="5.25712">
        <ele>263</ele>
        <time>2024-02-11T21:30:51Z</time>
      </trkpt>
      <trkpt lat="43.76984" lon="5.25675">
        <ele>262</ele>
        <time>2024-02-11T21:30:59Z</time>
      </trkpt>
      <trkpt lat="43.76994" lon="5.2566">
        <ele>263</ele>
        <time>2024-02-11T21:31:02Z</time>
      </trkpt>
      <trkpt lat="43.77009" lon="5.25646">
        <ele>267</ele>
        <time>2024-02-11T21:31:06Z</time>
      </trkpt>
      <trkpt lat="43.77013" lon="5.25638">
        <ele>268</ele>
        <time>2024-02-11T21:31:08Z</time>
      </trkpt>
      <trkpt lat="43.77022" lon="5.25629">
        <ele>271</ele>
        <time>2024-02-11T21:31:11Z</time>
      </trkpt>
      <trkpt lat="43.77027" lon="5.25602">
        <ele>270</ele>
        <time>2024-02-11T21:31:15Z</time>
      </trkpt>
      <trkpt lat="43.77026" lon="5.25567">
        <ele>269</ele>
        <time>2024-02-11T21:31:21Z</time>
      </trkpt>
      <trkpt lat="43.77028" lon="5.25555">
        <ele>270</ele>
        <time>2024-02-11T21:31:23Z</time>
      </trkpt>
      <trkpt lat="43.77017" lon="5.25552">
        <ele>267</ele>
        <time>2024-02-11T21:31:26Z</time>
      </trkpt>
      <trkpt lat="43.77" lon="5.25542">
        <ele>262</ele>
        <time>2024-02-11T21:31:30Z</time>
      </trkpt>
      <trkpt lat="43.76985" lon="5.25527">
        <ele>259</ele>
        <time>2024-02-11T21:31:35Z</time>
      </trkpt>
      <trkpt lat="43.76977" lon="5.25502">
        <ele>258</ele>
        <time>2024-02-11T21:31:39Z</time>
      </trkpt>
      <trkpt lat="43.76975" lon="5.25476">
        <ele>257</ele>
        <time>2024-02-11T21:31:44Z</time>
      </trkpt>
      <trkpt lat="43.76978" lon="5.25463">
        <ele>257</ele>
        <time>2024-02-11T21:31:46Z</time>
      </trkpt>
      <trkpt lat="43.76986" lon="5.2545">
        <ele>258</ele>
        <time>2024-02-11T21:31:49Z</time>
      </trkpt>
      <trkpt lat="43.76979" lon="5.2542">
        <ele>256</ele>
        <time>2024-02-11T21:31:54Z</time>
      </trkpt>
      <trkpt lat="43.76979" lon="5.25409">
        <ele>255</ele>
        <time>2024-02-11T21:31:56Z</time>
      </trkpt>
      <trkpt lat="43.76993" lon="5.25381">
        <ele>256</ele>
        <time>2024-02-11T21:32:02Z</time>
      </trkpt>
      <trkpt lat="43.76996" lon="5.25366">
        <ele>255</ele>
        <time>2024-02-11T21:32:04Z</time>
      </trkpt>
      <trkpt lat="43.77014" lon="5.25343">
        <ele>258</ele>
        <time>2024-02-11T21:32:10Z</time>
      </trkpt>
      <trkpt lat="43.77017" lon="5.25317">
        <ele>255</ele>
        <time>2024-02-11T21:32:15Z</time>
      </trkpt>
      <trkpt lat="43.77012" lon="5.253">
        <ele>250</ele>
        <time>2024-02-11T21:32:18Z</time>
      </trkpt>
      <trkpt lat="43.77013" lon="5.25285">
        <ele>246</ele>
        <time>2024-02-11T21:32:20Z</time>
      </trkpt>
      <trkpt lat="43.77029" lon="5.25272">
        <ele>248</ele>
        <time>2024-02-11T21:32:24Z</time>
      </trkpt>
      <trkpt lat="43.7705" lon="5.25227">
        <ele>245</ele>
        <time>2024-02-11T21:32:34Z</time>
      </trkpt>
      <trkpt lat="43.77031" lon="5.25238">
        <ele>242</ele>
        <time>2024-02-11T21:32:38Z</time>
      </trkpt>
      <trkpt lat="43.77032" lon="5.2522">
        <ele>240</ele>
        <time>2024-02-11T21:32:41Z</time>
      </trkpt>
      <trkpt lat="43.77037" lon="5.25198">
        <ele>239</ele>
        <time>2024-02-11T21:32:45Z</time>
      </trkpt>
      <trkpt lat="43.77047" lon="5.25183">
        <ele>238</ele>
        <time>2024-02-11T21:32:49Z</time>
      </trkpt>
      <trkpt lat="43.77059" lon="5.25176">
        <ele>238</ele>
        <time>2024-02-11T21:32:52Z</time>
      </trkpt>
      <trkpt lat="43.77077" lon="5.25172">
        <ele>239</ele>
        <time>2024-02-11T21:32:56Z</time>
      </trkpt>
      <trkpt lat="43.77084" lon="5.25173">
        <ele>240</ele>
        <time>2024-02-11T21:32:58Z</time>
      </trkpt>
      <trkpt lat="43.77089" lon="5.25179">
        <ele>242</ele>
        <time>2024-02-11T21:32:59Z</time>
      </trkpt>
      <trkpt lat="43.77093" lon="5.2517">
        <ele>240</ele>
        <time>2024-02-11T21:33:01Z</time>
      </trkpt>
      <trkpt lat="43.77101" lon="5.25176">
        <ele>243</ele>
        <time>2024-02-11T21:33:03Z</time>
      </trkpt>
      <trkpt lat="43.77115" lon="5.25181">
        <ele>246</ele>
        <time>2024-02-11T21:33:06Z</time>
      </trkpt>
      <trkpt lat="43.77126" lon="5.2518">
        <ele>247</ele>
        <time>2024-02-11T21:33:09Z</time>
      </trkpt>
      <trkpt lat="43.77143" lon="5.25183">
        <ele>250</ele>
        <time>2024-02-11T21:33:13Z</time>
      </trkpt>
      <trkpt lat="43.77152" lon="5.25178">
        <ele>250</ele>
        <time>2024-02-11T21:33:15Z</time>
      </trkpt>
      <trkpt lat="43.77155" lon="5.25164">
        <ele>249</ele>
        <time>2024-02-11T21:33:18Z</time>
      </trkpt>
      <trkpt lat="43.77151" lon="5.25159">
        <ele>249</ele>
        <time>2024-02-11T21:33:19Z</time>
      </trkpt>
      <trkpt lat="43.77146" lon="5.25158">
        <ele>249</ele>
        <time>2024-02-11T21:33:20Z</time>
      </trkpt>
      <trkpt lat="43.77138" lon="5.25151">
        <ele>249</ele>
        <time>2024-02-11T21:33:22Z</time>
      </trkpt>
      <trkpt lat="43.77128" lon="5.2515">
        <ele>248</ele>
        <time>2024-02-11T21:33:25Z</time>
      </trkpt>
      <trkpt lat="43.77121" lon="5.25145">
        <ele>248</ele>
        <time>2024-02-11T21:33:27Z</time>
      </trkpt>
      <trkpt lat="43.77102" lon="5.25121">
        <ele>251</ele>
        <time>2024-02-11T21:33:33Z</time>
      </trkpt>
      <trkpt lat="43.77083" lon="5.25104">
        <ele>252</ele>
        <time>2024-02-11T21:33:38Z</time>
      </trkpt>
      <trkpt lat="43.77072" lon="5.25098">
        <ele>254</ele>
        <time>2024-02-11T21:33:41Z</time>
      </trkpt>
      <trkpt lat="43.77032" lon="5.25092">
        <ele>255</ele>
        <time>2024-02-11T21:33:50Z</time>
      </trkpt>
      <trkpt lat="43.77019" lon="5.25094">
        <ele>254</ele>
        <time>2024-02-11T21:33:53Z</time>
      </trkpt>
      <trkpt lat="43.76983" lon="5.25109">
        <ele>249</ele>
        <time>2024-02-11T21:34:02Z</time>
      </trkpt>
      <trkpt lat="43.76961" lon="5.25098">
        <ele>252</ele>
        <time>2024-02-11T21:34:07Z</time>
      </trkpt>
      <trkpt lat="43.76936" lon="5.25097">
        <ele>251</ele>
        <time>2024-02-11T21:34:13Z</time>
      </trkpt>
      <trkpt lat="43.76921" lon="5.25082">
        <ele>253</ele>
        <time>2024-02-11T21:34:18Z</time>
      </trkpt>
      <trkpt lat="43.76921" lon="5.25069">
        <ele>254</ele>
        <time>2024-02-11T21:34:20Z</time>
      </trkpt>
      <trkpt lat="43.76925" lon="5.25061">
        <ele>255</ele>
        <time>2024-02-11T21:34:21Z</time>
      </trkpt>
      <trkpt lat="43.76924" lon="5.25048">
        <ele>255</ele>
        <time>2024-02-11T21:34:24Z</time>
      </trkpt>
      <trkpt lat="43.76929" lon="5.25035">
        <ele>256</ele>
        <time>2024-02-11T21:34:26Z</time>
      </trkpt>
      <trkpt lat="43.76926" lon="5.25016">
        <ele>257</ele>
        <time>2024-02-11T21:34:29Z</time>
      </trkpt>
      <trkpt lat="43.76927" lon="5.24965">
        <ele>259</ele>
        <time>2024-02-11T21:34:38Z</time>
      </trkpt>
      <trkpt lat="43.76957" lon="5.24921">
        <ele>261</ele>
        <time>2024-02-11T21:34:48Z</time>
      </trkpt>
      <trkpt lat="43.76961" lon="5.2491">
        <ele>262</ele>
        <time>2024-02-11T21:34:50Z</time>
      </trkpt>
      <trkpt lat="43.76967" lon="5.24875">
        <ele>261</ele>
        <time>2024-02-11T21:34:56Z</time>
      </trkpt>
      <trkpt lat="43.76966" lon="5.24871">
        <ele>261</ele>
        <time>2024-02-11T21:34:57Z</time>
      </trkpt>
      <trkpt lat="43.76959" lon="5.24867">
        <ele>261</ele>
        <time>2024-02-11T21:34:59Z</time>
      </trkpt>
      <trkpt lat="43.76956" lon="5.24861">
        <ele>260</ele>
        <time>2024-02-11T21:35:00Z</time>
      </trkpt>
      <trkpt lat="43.7696" lon="5.24848">
        <ele>260</ele>
        <time>2024-02-11T21:35:02Z</time>
      </trkpt>
      <trkpt lat="43.76968" lon="5.24839">
        <ele>261</ele>
        <time>2024-02-11T21:35:05Z</time>
      </trkpt>
      <trkpt lat="43.76969" lon="5.24832">
        <ele>260</ele>
        <time>2024-02-11T21:35:06Z</time>
      </trkpt>
      <trkpt lat="43.76965" lon="5.24825">
        <ele>260</ele>
        <time>2024-02-11T21:35:07Z</time>
      </trkpt>
      <trkpt lat="43.76951" lon="5.24768">
        <ele>256</ele>
        <time>2024-02-11T21:35:18Z</time>
      </trkpt>
      <trkpt lat="43.76945" lon="5.24753">
        <ele>255</ele>
        <time>2024-02-11T21:35:21Z</time>
      </trkpt>
      <trkpt lat="43.76936" lon="5.2474">
        <ele>254</ele>
        <time>2024-02-11T21:35:24Z</time>
      </trkpt>
      <trkpt lat="43.76924" lon="5.24704">
        <ele>250</ele>
        <time>2024-02-11T21:35:30Z</time>
      </trkpt>
      <trkpt lat="43.76934" lon="5.24688">
        <ele>250</ele>
        <time>2024-02-11T21:35:34Z</time>
      </trkpt>
      <trkpt lat="43.76947" lon="5.24649">
        <ele>250</ele>
        <time>2024-02-11T21:35:41Z</time>
      </trkpt>
      <trkpt lat="43.76947" lon="5.24641">
        <ele>250</ele>
        <time>2024-02-11T21:35:42Z</time>
      </trkpt>
      <trkpt lat="43.76944" lon="5.24635">
        <ele>250</ele>
        <time>2024-02-11T21:35:44Z</time>
      </trkpt>
      <trkpt lat="43.76933" lon="5.24629">
        <ele>249</ele>
        <time>2024-02-11T21:35:46Z</time>
      </trkpt>
      <trkpt lat="43.76919" lon="5.24617">
        <ele>247</ele>
        <time>2024-02-11T21:35:50Z</time>
      </trkpt>
      <trkpt lat="43.76906" lon="5.24616">
        <ele>246</ele>
        <time>2024-02-11T21:35:53Z</time>
      </trkpt>
      <trkpt lat="43.76896" lon="5.24606">
        <ele>245</ele>
        <time>2024-02-11T21:35:56Z</time>
      </trkpt>
      <trkpt lat="43.76877" lon="5.24602">
        <ele>244</ele>
        <time>2024-02-11T21:36:01Z</time>
      </trkpt>
      <trkpt lat="43.76867" lon="5.24588">
        <ele>243</ele>
        <time>2024-02-11T21:36:04Z</time>
      </trkpt>
      <trkpt lat="43.76862" lon="5.24576">
        <ele>242</ele>
        <time>2024-02-11T21:36:06Z</time>
      </trkpt>
      <trkpt lat="43.76847" lon="5.24567">
        <ele>241</ele>
        <time>2024-02-11T21:36:10Z</time>
      </trkpt>
      <trkpt lat="43.76839" lon="5.24557">
        <ele>240</ele>
        <time>2024-02-11T21:36:13Z</time>
      </trkpt>
      <trkpt lat="43.76832" lon="5.24564">
        <ele>240</ele>
        <time>2024-02-11T21:36:15Z</time>
      </trkpt>
      <trkpt lat="43.7683" lon="5.24572">
        <ele>240</ele>
        <time>2024-02-11T21:36:16Z</time>
      </trkpt>
      <trkpt lat="43.76835" lon="5.24599">
        <ele>241</ele>
        <time>2024-02-11T21:36:21Z</time>
      </trkpt>
      <trkpt lat="43.76834" lon="5.24606">
        <ele>241</ele>
        <time>2024-02-11T21:36:22Z</time>
      </trkpt>
      <trkpt lat="43.76832" lon="5.24609">
        <ele>241</ele>
        <time>2024-02-11T21:36:23Z</time>
      </trkpt>
      <trkpt lat="43.76822" lon="5.24604">
        <ele>241</ele>
        <time>2024-02-11T21:36:25Z</time>
      </trkpt>
      <trkpt lat="43.76809" lon="5.24609">
        <ele>241</ele>
        <time>2024-02-11T21:36:28Z</time>
      </trkpt>
      <trkpt lat="43.76804" lon="5.24621">
        <ele>242</ele>
        <time>2024-02-11T21:36:31Z</time>
      </trkpt>
      <trkpt lat="43.76805" lon="5.24627">
        <ele>242</ele>
        <time>2024-02-11T21:36:32Z</time>
      </trkpt>
      <trkpt lat="43.76803" lon="5.24628">
        <ele>242</ele>
        <time>2024-02-11T21:36:32Z</time>
      </trkpt>
      <trkpt lat="43.76784" lon="5.24631">
        <ele>242</ele>
        <time>2024-02-11T21:36:37Z</time>
      </trkpt>
      <trkpt lat="43.76763" lon="5.2462">
        <ele>242</ele>
        <time>2024-02-11T21:36:42Z</time>
      </trkpt>
      <trkpt lat="43.76757" lon="5.24614">
        <ele>241</ele>
        <time>2024-02-11T21:36:44Z</time>
      </trkpt>
      <trkpt lat="43.76749" lon="5.24613">
        <ele>241</ele>
        <time>2024-02-11T21:36:45Z</time>
      </trkpt>
      <trkpt lat="43.76742" lon="5.24604">
        <ele>241</ele>
        <time>2024-02-11T21:36:48Z</time>
      </trkpt>
      <trkpt lat="43.76735" lon="5.24589">
        <ele>241</ele>
        <time>2024-02-11T21:36:51Z</time>
      </trkpt>
      <trkpt lat="43.76731" lon="5.24586">
        <ele>241</ele>
        <time>2024-02-11T21:36:52Z</time>
      </trkpt>
      <trkpt lat="43.76721" lon="5.24584">
        <ele>243</ele>
        <time>2024-02-11T21:36:54Z</time>
      </trkpt>
      <trkpt lat="43.76715" lon="5.24586">
        <ele>243</ele>
        <time>2024-02-11T21:36:56Z</time>
      </trkpt>
      <trkpt lat="43.76711" lon="5.24583">
        <ele>244</ele>
        <time>2024-02-11T21:36:57Z</time>
      </trkpt>
      <trkpt lat="43.76694" lon="5.24591">
        <ele>246</ele>
        <time>2024-02-11T21:37:01Z</time>
      </trkpt>
      <trkpt lat="43.76665" lon="5.24576">
        <ele>248</ele>
        <time>2024-02-11T21:37:08Z</time>
      </trkpt>
      <trkpt lat="43.76655" lon="5.24577">
        <ele>249</ele>
        <time>2024-02-11T21:37:10Z</time>
      </trkpt>
      <trkpt lat="43.76649" lon="5.24582">
        <ele>250</ele>
        <time>2024-02-11T21:37:12Z</time>
      </trkpt>
      <trkpt lat="43.76642" lon="5.24583">
        <ele>250</ele>
        <time>2024-02-11T21:37:14Z</time>
      </trkpt>
      <trkpt lat="43.76637" lon="5.24588">
        <ele>250</ele>
        <time>2024-02-11T21:37:15Z</time>
      </trkpt>
      <trkpt lat="43.76629" lon="5.24591">
        <ele>251</ele>
        <time>2024-02-11T21:37:17Z</time>
      </trkpt>
      <trkpt lat="43.76617" lon="5.24606">
        <ele>251</ele>
        <time>2024-02-11T21:37:21Z</time>
      </trkpt>
      <trkpt lat="43.76612" lon="5.24605">
        <ele>252</ele>
        <time>2024-02-11T21:37:22Z</time>
      </trkpt>
      <trkpt lat="43.76603" lon="5.24582">
        <ele>251</ele>
        <time>2024-02-11T21:37:26Z</time>
      </trkpt>
      <trkpt lat="43.76602" lon="5.24567">
        <ele>250</ele>
        <time>2024-02-11T21:37:29Z</time>
      </trkpt>
      <trkpt lat="43.76584" lon="5.24529">
        <ele>247</ele>
        <time>2024-02-11T21:37:37Z</time>
      </trkpt>
      <trkpt lat="43.76582" lon="5.24517">
        <ele>247</ele>
        <time>2024-02-11T21:37:39Z</time>
      </trkpt>
      <trkpt lat="43.76567" lon="5.24498">
        <ele>247</ele>
        <time>2024-02-11T21:37:43Z</time>
      </trkpt>
      <trkpt lat="43.76562" lon="5.24483">
        <ele>246</ele>
        <time>2024-02-11T21:37:46Z</time>
      </trkpt>
      <trkpt lat="43.76558" lon="5.24478">
        <ele>246</ele>
        <time>2024-02-11T21:37:48Z</time>
      </trkpt>
      <trkpt lat="43.76556" lon="5.24463">
        <ele>245</ele>
        <time>2024-02-11T21:37:50Z</time>
      </trkpt>
      <trkpt lat="43.76547" lon="5.24435">
        <ele>244</ele>
        <time>2024-02-11T21:37:55Z</time>
      </trkpt>
      <trkpt lat="43.76541" lon="5.24433">
        <ele>244</ele>
        <time>2024-02-11T21:37:57Z</time>
      </trkpt>
      <trkpt lat="43.76536" lon="5.24425">
        <ele>243</ele>
        <time>2024-02-11T21:37:58Z</time>
      </trkpt>
      <trkpt lat="43.76539" lon="5.24388">
        <ele>239</ele>
        <time>2024-02-11T21:38:05Z</time>
      </trkpt>
      <trkpt lat="43.76536" lon="5.24372">
        <ele>237</ele>
        <time>2024-02-11T21:38:08Z</time>
      </trkpt>
      <trkpt lat="43.76525" lon="5.24345">
        <ele>233</ele>
        <time>2024-02-11T21:38:13Z</time>
      </trkpt>
      <trkpt lat="43.76526" lon="5.24325">
        <ele>231</ele>
        <time>2024-02-11T21:38:16Z</time>
      </trkpt>
      <trkpt lat="43.76519" lon="5.24305">
        <ele>229</ele>
        <time>2024-02-11T21:38:20Z</time>
      </trkpt>
      <trkpt lat="43.76523" lon="5.24282">
        <ele>227</ele>
        <time>2024-02-11T21:38:24Z</time>
      </trkpt>
      <trkpt lat="43.76509" lon="5.24243">
        <ele>223</ele>
        <time>2024-02-11T21:38:31Z</time>
      </trkpt>
      <trkpt lat="43.765" lon="5.24208">
        <ele>218</ele>
        <time>2024-02-11T21:38:38Z</time>
      </trkpt>
      <trkpt lat="43.76507" lon="5.24162">
        <ele>213</ele>
        <time>2024-02-11T21:38:45Z</time>
      </trkpt>
      <trkpt lat="43.76517" lon="5.24119">
        <ele>205</ele>
        <time>2024-02-11T21:38:53Z</time>
      </trkpt>
      <trkpt lat="43.76515" lon="5.24109">
        <ele>204</ele>
        <time>2024-02-11T21:38:55Z</time>
      </trkpt>
      <trkpt lat="43.76511" lon="5.24102">
        <ele>202</ele>
        <time>2024-02-11T21:38:56Z</time>
      </trkpt>
      <trkpt lat="43.76475" lon="5.2408">
        <ele>200</ele>
        <time>2024-02-11T21:39:06Z</time>
      </trkpt>
      <trkpt lat="43.76467" lon="5.24069">
        <ele>199</ele>
        <time>2024-02-11T21:39:08Z</time>
      </trkpt>
      <trkpt lat="43.76457" lon="5.24041">
        <ele>196</ele>
        <time>2024-02-11T21:39:13Z</time>
      </trkpt>
      <trkpt lat="43.76459" lon="5.24034">
        <ele>195</ele>
        <time>2024-02-11T21:39:15Z</time>
      </trkpt>
      <trkpt lat="43.7648" lon="5.24011">
        <ele>192</ele>
        <time>2024-02-11T21:39:21Z</time>
      </trkpt>
      <trkpt lat="43.76503" lon="5.24003">
        <ele>193</ele>
        <time>2024-02-11T21:39:26Z</time>
      </trkpt>
      <trkpt lat="43.76515" lon="5.23993">
        <ele>194</ele>
        <time>2024-02-11T21:39:30Z</time>
      </trkpt>
      <trkpt lat="43.76526" lon="5.23972">
        <ele>197</ele>
        <time>2024-02-11T21:39:34Z</time>
      </trkpt>
      <trkpt lat="43.76532" lon="5.23936">
        <ele>201</ele>
        <time>2024-02-11T21:39:40Z</time>
      </trkpt>
      <trkpt lat="43.76548" lon="5.23914">
        <ele>202</ele>
        <time>2024-02-11T21:39:46Z</time>
      </trkpt>
      <trkpt lat="43.76558" lon="5.23909">
        <ele>202</ele>
        <time>2024-02-11T21:39:48Z</time>
      </trkpt>
      <trkpt lat="43.76568" lon="5.23909">
        <ele>202</ele>
        <time>2024-02-11T21:39:50Z</time>
      </trkpt>
      <trkpt lat="43.76583" lon="5.23904">
        <ele>202</ele>
        <time>2024-02-11T21:39:54Z</time>
      </trkpt>
      <trkpt lat="43.76594" lon="5.23893">
        <ele>204</ele>
        <time>2024-02-11T21:39:57Z</time>
      </trkpt>
      <trkpt lat="43.76598" lon="5.23891">
        <ele>205</ele>
        <time>2024-02-11T21:39:58Z</time>
      </trkpt>
      <trkpt lat="43.76611" lon="5.23891">
        <ele>206</ele>
        <time>2024-02-11T21:40:01Z</time>
      </trkpt>
      <trkpt lat="43.76622" lon="5.23885">
        <ele>207</ele>
        <time>2024-02-11T21:40:04Z</time>
      </trkpt>
      <trkpt lat="43.76629" lon="5.23877">
        <ele>208</ele>
        <time>2024-02-11T21:40:06Z</time>
      </trkpt>
      <trkpt lat="43.76632" lon="5.23872">
        <ele>209</ele>
        <time>2024-02-11T21:40:07Z</time>
      </trkpt>
      <trkpt lat="43.76633" lon="5.23854">
        <ele>209</ele>
        <time>2024-02-11T21:40:10Z</time>
      </trkpt>
      <trkpt lat="43.76645" lon="5.23837">
        <ele>209</ele>
        <time>2024-02-11T21:40:14Z</time>
      </trkpt>
      <trkpt lat="43.76644" lon="5.23832">
        <ele>209</ele>
        <time>2024-02-11T21:40:15Z</time>
      </trkpt>
      <trkpt lat="43.76656" lon="5.23794">
        <ele>212</ele>
        <time>2024-02-11T21:40:22Z</time>
      </trkpt>
      <trkpt lat="43.76659" lon="5.23761">
        <ele>214</ele>
        <time>2024-02-11T21:40:28Z</time>
      </trkpt>
      <trkpt lat="43.76679" lon="5.23739">
        <ele>217</ele>
        <time>2024-02-11T21:40:34Z</time>
      </trkpt>
      <trkpt lat="43.76686" lon="5.23725">
        <ele>218</ele>
        <time>2024-02-11T21:40:37Z</time>
      </trkpt>
      <trkpt lat="43.76698" lon="5.23711">
        <ele>219</ele>
        <time>2024-02-11T21:40:40Z</time>
      </trkpt>
      <trkpt lat="43.76701" lon="5.23701">
        <ele>220</ele>
        <time>2024-02-11T21:40:42Z</time>
      </trkpt>
      <trkpt lat="43.76699" lon="5.23693">
        <ele>220</ele>
        <time>2024-02-11T21:40:43Z</time>
      </trkpt>
      <trkpt lat="43.76696" lon="5.23691">
        <ele>220</ele>
        <time>2024-02-11T21:40:44Z</time>
      </trkpt>
      <trkpt lat="43.76684" lon="5.23696">
        <ele>220</ele>
        <time>2024-02-11T21:40:47Z</time>
      </trkpt>
      <trkpt lat="43.76678" lon="5.23702">
        <ele>219</ele>
        <time>2024-02-11T21:40:49Z</time>
      </trkpt>
      <trkpt lat="43.7667" lon="5.23703">
        <ele>219</ele>
        <time>2024-02-11T21:40:51Z</time>
      </trkpt>
      <trkpt lat="43.76665" lon="5.237">
        <ele>219</ele>
        <time>2024-02-11T21:40:52Z</time>
      </trkpt>
      <trkpt lat="43.76656" lon="5.23677">
        <ele>220</ele>
        <time>2024-02-11T21:40:56Z</time>
      </trkpt>
      <trkpt lat="43.76639" lon="5.23668">
        <ele>221</ele>
        <time>2024-02-11T21:41:01Z</time>
      </trkpt>
      <trkpt lat="43.76632" lon="5.23658">
        <ele>221</ele>
        <time>2024-02-11T21:41:03Z</time>
      </trkpt>
      <trkpt lat="43.76619" lon="5.23629">
        <ele>223</ele>
        <time>2024-02-11T21:41:09Z</time>
      </trkpt>
      <trkpt lat="43.76614" lon="5.23612">
        <ele>224</ele>
        <time>2024-02-11T21:41:12Z</time>
      </trkpt>
      <trkpt lat="43.76615" lon="5.236">
        <ele>224</ele>
        <time>2024-02-11T21:41:14Z</time>
      </trkpt>
      <trkpt lat="43.76599" lon="5.23597">
        <ele>224</ele>
        <time>2024-02-11T21:41:18Z</time>
      </trkpt>
      <trkpt lat="43.76586" lon="5.23544">
        <ele>227</ele>
        <time>2024-02-11T21:41:27Z</time>
      </trkpt>
      <trkpt lat="43.76579" lon="5.23531">
        <ele>228</ele>
        <time>2024-02-11T21:41:30Z</time>
      </trkpt>
      <trkpt lat="43.76578" lon="5.23511">
        <ele>229</ele>
        <time>2024-02-11T21:41:33Z</time>
      </trkpt>
      <trkpt lat="43.76571" lon="5.23502">
        <ele>230</ele>
        <time>2024-02-11T21:41:36Z</time>
      </trkpt>
      <trkpt lat="43.76567" lon="5.2349">
        <ele>231</ele>
        <time>2024-02-11T21:41:38Z</time>
      </trkpt>
      <trkpt lat="43.76557" lon="5.23488">
        <ele>231</ele>
        <time>2024-02-11T21:41:40Z</time>
      </trkpt>
      <trkpt lat="43.76554" lon="5.23484">
        <ele>231</ele>
        <time>2024-02-11T21:41:41Z</time>
      </trkpt>
      <trkpt lat="43.76561" lon="5.23453">
        <ele>233</ele>
        <time>2024-02-11T21:41:47Z</time>
      </trkpt>
      <trkpt lat="43.7655" lon="5.23431">
        <ele>234</ele>
        <time>2024-02-11T21:41:51Z</time>
      </trkpt>
      <trkpt lat="43.76554" lon="5.23418">
        <ele>235</ele>
        <time>2024-02-11T21:41:53Z</time>
      </trkpt>
      <trkpt lat="43.76556" lon="5.23395">
        <ele>236</ele>
        <time>2024-02-11T21:41:57Z</time>
      </trkpt>
      <trkpt lat="43.76567" lon="5.23383">
        <ele>236</ele>
        <time>2024-02-11T21:42:01Z</time>
      </trkpt>
      <trkpt lat="43.76584" lon="5.23345">
        <ele>237</ele>
        <time>2024-02-11T21:42:08Z</time>
      </trkpt>
      <trkpt lat="43.76595" lon="5.23331">
        <ele>238</ele>
        <time>2024-02-11T21:42:12Z</time>
      </trkpt>
      <trkpt lat="43.766" lon="5.23309">
        <ele>239</ele>
        <time>2024-02-11T21:42:16Z</time>
      </trkpt>
      <trkpt lat="43.76607" lon="5.23292">
        <ele>240</ele>
        <time>2024-02-11T21:42:19Z</time>
      </trkpt>
      <trkpt lat="43.76635" lon="5.23262">
        <ele>241</ele>
        <time>2024-02-11T21:42:27Z</time>
      </trkpt>
      <trkpt lat="43.7664" lon="5.23245">
        <ele>241</ele>
        <time>2024-02-11T21:42:30Z</time>
      </trkpt>
      <trkpt lat="43.76661" lon="5.23217">
        <ele>240</ele>
        <time>2024-02-11T21:42:37Z</time>
      </trkpt>
      <trkpt lat="43.76664" lon="5.23192">
        <ele>240</ele>
        <time>2024-02-11T21:42:41Z</time>
      </trkpt>
      <trkpt lat="43.76667" lon="5.23186">
        <ele>239</ele>
        <time>2024-02-11T21:42:43Z</time>
      </trkpt>
      <trkpt lat="43.76679" lon="5.23184">
        <ele>239</ele>
        <time>2024-02-11T21:42:45Z</time>
      </trkpt>
      <trkpt lat="43.76695" lon="5.23162">
        <ele>238</ele>
        <time>2024-02-11T21:42:51Z</time>
      </trkpt>
      <trkpt lat="43.76719" lon="5.23151">
        <ele>236</ele>
        <time>2024-02-11T21:42:57Z</time>
      </trkpt>
      <trkpt lat="43.7674" lon="5.23135">
        <ele>233</ele>
        <time>2024-02-11T21:43:02Z</time>
      </trkpt>
      <trkpt lat="43.76751" lon="5.23139">
        <ele>234</ele>
        <time>2024-02-11T21:43:05Z</time>
      </trkpt>
      <trkpt lat="43.76769" lon="5.2314">
        <ele>234</ele>
        <time>2024-02-11T21:43:09Z</time>
      </trkpt>
      <trkpt lat="43.76774" lon="5.23143">
        <ele>235</ele>
        <time>2024-02-11T21:43:10Z</time>
      </trkpt>
      <trkpt lat="43.76781" lon="5.23141">
        <ele>234</ele>
        <time>2024-02-11T21:43:12Z</time>
      </trkpt>
      <trkpt lat="43.7679" lon="5.23132">
        <ele>233</ele>
        <time>2024-02-11T21:43:15Z</time>
      </trkpt>
      <trkpt lat="43.76794" lon="5.23122">
        <ele>231</ele>
        <time>2024-02-11T21:43:16Z</time>
      </trkpt>
      <trkpt lat="43.76808" lon="5.23114">
        <ele>230</ele>
        <time>2024-02-11T21:43:20Z</time>
      </trkpt>
      <trkpt lat="43.76824" lon="5.23094">
        <ele>226</ele>
        <time>2024-02-11T21:43:25Z</time>
      </trkpt>
      <trkpt lat="43.76838" lon="5.23088">
        <ele>225</ele>
        <time>2024-02-11T21:43:28Z</time>
      </trkpt>
      <trkpt lat="43.76838" lon="5.23084">
        <ele>224</ele>
        <time>2024-02-11T21:43:29Z</time>
      </trkpt>
      <trkpt lat="43.76833" lon="5.23081">
        <ele>224</ele>
        <time>2024-02-11T21:43:30Z</time>
      </trkpt>
      <trkpt lat="43.76836" lon="5.23076">
        <ele>224</ele>
        <time>2024-02-11T21:43:31Z</time>
      </trkpt>
      <trkpt lat="43.7686" lon="5.23063">
        <ele>224</ele>
        <time>2024-02-11T21:43:38Z</time>
      </trkpt>
      <trkpt lat="43.76868" lon="5.23061">
        <ele>224</ele>
        <time>2024-02-11T21:43:39Z</time>
      </trkpt>
      <trkpt lat="43.76874" lon="5.23056">
        <ele>224</ele>
        <time>2024-02-11T21:43:41Z</time>
      </trkpt>
      <trkpt lat="43.76876" lon="5.2305">
        <ele>224</ele>
        <time>2024-02-11T21:43:42Z</time>
      </trkpt>
      <trkpt lat="43.76865" lon="5.23042">
        <ele>223</ele>
        <time>2024-02-11T21:43:45Z</time>
      </trkpt>
      <trkpt lat="43.76855" lon="5.23044">
        <ele>222</ele>
        <time>2024-02-11T21:43:47Z</time>
      </trkpt>
      <trkpt lat="43.76828" lon="5.23038">
        <ele>221</ele>
        <time>2024-02-11T21:43:54Z</time>
      </trkpt>
      <trkpt lat="43.76814" lon="5.23025">
        <ele>220</ele>
        <time>2024-02-11T21:43:58Z</time>
      </trkpt>
      <trkpt lat="43.76803" lon="5.23025">
        <ele>220</ele>
        <time>2024-02-11T21:44:00Z</time>
      </trkpt>
      <trkpt lat="43.76775" lon="5.22999">
        <ele>217</ele>
        <time>2024-02-11T21:44:08Z</time>
      </trkpt>
      <trkpt lat="43.76761" lon="5.22997">
        <ele>217</ele>
        <time>2024-02-11T21:44:11Z</time>
      </trkpt>
      <trkpt lat="43.76733" lon="5.22999">
        <ele>215</ele>
        <time>2024-02-11T21:44:18Z</time>
      </trkpt>
      <trkpt lat="43.76697" lon="5.22988">
        <ele>216</ele>
        <time>2024-02-11T21:44:27Z</time>
      </trkpt>
      <trkpt lat="43.76687" lon="5.22992">
        <ele>214</ele>
        <time>2024-02-11T21:44:29Z</time>
      </trkpt>
      <trkpt lat="43.76673" lon="5.23002">
        <ele>213</ele>
        <time>2024-02-11T21:44:33Z</time>
      </trkpt>
      <trkpt lat="43.76661" lon="5.23018">
        <ele>214</ele>
        <time>2024-02-11T21:44:37Z</time>
      </trkpt>
      <trkpt lat="43.76644" lon="5.23027">
        <ele>215</ele>
        <time>2024-02-11T21:44:41Z</time>
      </trkpt>
      <trkpt lat="43.76635" lon="5.23029">
        <ele>215</ele>
        <time>2024-02-11T21:44:43Z</time>
      </trkpt>
      <trkpt lat="43.76622" lon="5.23018">
        <ele>212</ele>
        <time>2024-02-11T21:44:47Z</time>
      </trkpt>
      <trkpt lat="43.76615" lon="5.22994">
        <ele>208</ele>
        <time>2024-02-11T21:44:51Z</time>
      </trkpt>
      <trkpt lat="43.76615" lon="5.22984">
        <ele>210</ele>
        <time>2024-02-11T21:44:53Z</time>
      </trkpt>
      <trkpt lat="43.76612" lon="5.22977">
        <ele>210</ele>
        <time>2024-02-11T21:44:54Z</time>
      </trkpt>
      <trkpt lat="43.76607" lon="5.22974">
        <ele>210</ele>
        <time>2024-02-11T21:44:55Z</time>
      </trkpt>
      <trkpt lat="43.76597" lon="5.22975">
        <ele>209</ele>
        <time>2024-02-11T21:44:58Z</time>
      </trkpt>
      <trkpt lat="43.76586" lon="5.22983">
        <ele>207</ele>
        <time>2024-02-11T21:45:01Z</time>
      </trkpt>
      <trkpt lat="43.76578" lon="5.23004">
        <ele>205</ele>
        <time>2024-02-11T21:45:05Z</time>
      </trkpt>
      <trkpt lat="43.76564" lon="5.23021">
        <ele>208</ele>
        <time>2024-02-11T21:45:09Z</time>
      </trkpt>
      <trkpt lat="43.76549" lon="5.23026">
        <ele>208</ele>
        <time>2024-02-11T21:45:12Z</time>
      </trkpt>
      <trkpt lat="43.76531" lon="5.23018">
        <ele>204</ele>
        <time>2024-02-11T21:45:17Z</time>
      </trkpt>
      <trkpt lat="43.76503" lon="5.22999">
        <ele>196</ele>
        <time>2024-02-11T21:45:24Z</time>
      </trkpt>
      <trkpt lat="43.76493" lon="5.22995">
        <ele>196</ele>
        <time>2024-02-11T21:45:27Z</time>
      </trkpt>
      <trkpt lat="43.76484" lon="5.22993">
        <ele>196</ele>
        <time>2024-02-11T21:45:29Z</time>
      </trkpt>
      <trkpt lat="43.76468" lon="5.22994">
        <ele>194</ele>
        <time>2024-02-11T21:45:32Z</time>
      </trkpt>
      <trkpt lat="43.76446" lon="5.23003">
        <ele>192</ele>
        <time>2024-02-11T21:45:38Z</time>
      </trkpt>
      <trkpt lat="43.7642" lon="5.23019">
        <ele>191</ele>
        <time>2024-02-11T21:45:44Z</time>
      </trkpt>
      <trkpt lat="43.76374" lon="5.23085">
        <ele>190</ele>
        <time>2024-02-11T21:46:00Z</time>
      </trkpt>
      <trkpt lat="43.76355" lon="5.23093">
        <ele>187</ele>
        <time>2024-02-11T21:46:05Z</time>
      </trkpt>
      <trkpt lat="43.76345" lon="5.23101">
        <ele>186</ele>
        <time>2024-02-11T21:46:07Z</time>
      </trkpt>
      <trkpt lat="43.76298" lon="5.23172">
        <ele>183</ele>
        <time>2024-02-11T21:46:24Z</time>
      </trkpt>
      <trkpt lat="43.76279" lon="5.23194">
        <ele>183</ele>
        <time>2024-02-11T21:46:29Z</time>
      </trkpt>
      <trkpt lat="43.7627" lon="5.23201">
        <ele>182</ele>
        <time>2024-02-11T21:46:32Z</time>
      </trkpt>
      <trkpt lat="43.76259" lon="5.23204">
        <ele>181</ele>
        <time>2024-02-11T21:46:34Z</time>
      </trkpt>
      <trkpt lat="43.76248" lon="5.23205">
        <ele>179</ele>
        <time>2024-02-11T21:46:37Z</time>
      </trkpt>
      <trkpt lat="43.76233" lon="5.23199">
        <ele>180</ele>
        <time>2024-02-11T21:46:41Z</time>
      </trkpt>
      <trkpt lat="43.76229" lon="5.23201">
        <ele>180</ele>
        <time>2024-02-11T21:46:42Z</time>
      </trkpt>
      <trkpt lat="43.76218" lon="5.23215">
        <ele>179</ele>
        <time>2024-02-11T21:46:45Z</time>
      </trkpt>
      <trkpt lat="43.76211" lon="5.23231">
        <ele>178</ele>
        <time>2024-02-11T21:46:48Z</time>
      </trkpt>
      <trkpt lat="43.76206" lon="5.23228">
        <ele>178</ele>
        <time>2024-02-11T21:46:49Z</time>
      </trkpt>
      <trkpt lat="43.76205" lon="5.23212">
        <ele>179</ele>
        <time>2024-02-11T21:46:52Z</time>
      </trkpt>
      <trkpt lat="43.76214" lon="5.23181">
        <ele>181</ele>
        <time>2024-02-11T21:46:58Z</time>
      </trkpt>
      <trkpt lat="43.76214" lon="5.23165">
        <ele>182</ele>
        <time>2024-02-11T21:47:00Z</time>
      </trkpt>
      <trkpt lat="43.76206" lon="5.23147">
        <ele>185</ele>
        <time>2024-02-11T21:47:04Z</time>
      </trkpt>
      <trkpt lat="43.76185" lon="5.23118">
        <ele>189</ele>
        <time>2024-02-11T21:47:11Z</time>
      </trkpt>
      <trkpt lat="43.76167" lon="5.2308">
        <ele>194</ele>
        <time>2024-02-11T21:47:19Z</time>
      </trkpt>
      <trkpt lat="43.76164" lon="5.23062">
        <ele>198</ele>
        <time>2024-02-11T21:47:22Z</time>
      </trkpt>
      <trkpt lat="43.76167" lon="5.23046">
        <ele>199</ele>
        <time>2024-02-11T21:47:25Z</time>
      </trkpt>
      <trkpt lat="43.76176" lon="5.23032">
        <ele>199</ele>
        <time>2024-02-11T21:47:28Z</time>
      </trkpt>
      <trkpt lat="43.76198" lon="5.2303">
        <ele>196</ele>
        <time>2024-02-11T21:47:33Z</time>
      </trkpt>
      <trkpt lat="43.76217" lon="5.23025">
        <ele>194</ele>
        <time>2024-02-11T21:47:37Z</time>
      </trkpt>
      <trkpt lat="43.7623" lon="5.23027">
        <ele>191</ele>
        <time>2024-02-11T21:47:40Z</time>
      </trkpt>
      <trkpt lat="43.76239" lon="5.23023">
        <ele>190</ele>
        <time>2024-02-11T21:47:43Z</time>
      </trkpt>
      <trkpt lat="43.76264" lon="5.22992">
        <ele>189</ele>
        <time>2024-02-11T21:47:50Z</time>
      </trkpt>
      <trkpt lat="43.76285" lon="5.22959">
        <ele>192</ele>
        <time>2024-02-11T21:47:58Z</time>
      </trkpt>
      <trkpt lat="43.76295" lon="5.22936">
        <ele>194</ele>
        <time>2024-02-11T21:48:02Z</time>
      </trkpt>
      <trkpt lat="43.76319" lon="5.22898">
        <ele>195</ele>
        <time>2024-02-11T21:48:11Z</time>
      </trkpt>
      <trkpt lat="43.76326" lon="5.22879">
        <ele>196</ele>
        <time>2024-02-11T21:48:15Z</time>
      </trkpt>
      <trkpt lat="43.76338" lon="5.22859">
        <ele>198</ele>
        <time>2024-02-11T21:48:19Z</time>
      </trkpt>
      <trkpt lat="43.76345" lon="5.22832">
        <ele>202</ele>
        <time>2024-02-11T21:48:24Z</time>
      </trkpt>
      <trkpt lat="43.76362" lon="5.22801">
        <ele>205</ele>
        <time>2024-02-11T21:48:30Z</time>
      </trkpt>
      <trkpt lat="43.76389" lon="5.22765">
        <ele>206</ele>
        <time>2024-02-11T21:48:39Z</time>
      </trkpt>
      <trkpt lat="43.76396" lon="5.22747">
        <ele>205</ele>
        <time>2024-02-11T21:48:43Z</time>
      </trkpt>
      <trkpt lat="43.76408" lon="5.2273">
        <ele>204</ele>
        <time>2024-02-11T21:48:47Z</time>
      </trkpt>
      <trkpt lat="43.76415" lon="5.22714">
        <ele>203</ele>
        <time>2024-02-11T21:48:50Z</time>
      </trkpt>
      <trkpt lat="43.76422" lon="5.22707">
        <ele>204</ele>
        <time>2024-02-11T21:48:52Z</time>
      </trkpt>
      <trkpt lat="43.76429" lon="5.22705">
        <ele>206</ele>
        <time>2024-02-11T21:48:53Z</time>
      </trkpt>
      <trkpt lat="43.76437" lon="5.22698">
        <ele>208</ele>
        <time>2024-02-11T21:48:56Z</time>
      </trkpt>
      <trkpt lat="43.7645" lon="5.2268">
        <ele>210</ele>
        <time>2024-02-11T21:49:00Z</time>
      </trkpt>
      <trkpt lat="43.76471" lon="5.2262">
        <ele>213</ele>
        <time>2024-02-11T21:49:11Z</time>
      </trkpt>
      <trkpt lat="43.76493" lon="5.22582">
        <ele>212</ele>
        <time>2024-02-11T21:49:19Z</time>
      </trkpt>
      <trkpt lat="43.76502" lon="5.22542">
        <ele>214</ele>
        <time>2024-02-11T21:49:26Z</time>
      </trkpt>
      <trkpt lat="43.76526" lon="5.225">
        <ele>218</ele>
        <time>2024-02-11T21:49:35Z</time>
      </trkpt>
      <trkpt lat="43.76544" lon="5.22487">
        <ele>222</ele>
        <time>2024-02-11T21:49:40Z</time>
      </trkpt>
      <trkpt lat="43.76594" lon="5.22474">
        <ele>226</ele>
        <time>2024-02-11T21:49:52Z</time>
      </trkpt>
      <trkpt lat="43.76607" lon="5.22481">
        <ele>226</ele>
        <time>2024-02-11T21:49:55Z</time>
      </trkpt>
      <trkpt lat="43.76616" lon="5.22489">
        <ele>226</ele>
        <time>2024-02-11T21:49:58Z</time>
      </trkpt>
      <trkpt lat="43.76636" lon="5.22513">
        <ele>230</ele>
        <time>2024-02-11T21:50:04Z</time>
      </trkpt>
      <trkpt lat="43.76648" lon="5.22517">
        <ele>232</ele>
        <time>2024-02-11T21:50:07Z</time>
      </trkpt>
      <trkpt lat="43.76665" lon="5.22512">
        <ele>234</ele>
        <time>2024-02-11T21:50:11Z</time>
      </trkpt>
      <trkpt lat="43.76669" lon="5.22507">
        <ele>233</ele>
        <time>2024-02-11T21:50:12Z</time>
      </trkpt>
      <trkpt lat="43.76677" lon="5.22469">
        <ele>234</ele>
        <time>2024-02-11T21:50:19Z</time>
      </trkpt>
      <trkpt lat="43.76691" lon="5.22445">
        <ele>236</ele>
        <time>2024-02-11T21:50:24Z</time>
      </trkpt>
      <trkpt lat="43.76712" lon="5.22393">
        <ele>239</ele>
        <time>2024-02-11T21:50:34Z</time>
      </trkpt>
      <trkpt lat="43.7673" lon="5.22329">
        <ele>239</ele>
        <time>2024-02-11T21:50:46Z</time>
      </trkpt>
      <trkpt lat="43.76764" lon="5.22277">
        <ele>241</ele>
        <time>2024-02-11T21:50:58Z</time>
      </trkpt>
      <trkpt lat="43.76806" lon="5.22237">
        <ele>243</ele>
        <time>2024-02-11T21:51:09Z</time>
      </trkpt>
      <trkpt lat="43.76816" lon="5.2221">
        <ele>243</ele>
        <time>2024-02-11T21:51:15Z</time>
      </trkpt>
      <trkpt lat="43.76811" lon="5.2219">
        <ele>245</ele>
        <time>2024-02-11T21:51:18Z</time>
      </trkpt>
      <trkpt lat="43.76808" lon="5.22162">
        <ele>248</ele>
        <time>2024-02-11T21:51:23Z</time>
      </trkpt>
      <trkpt lat="43.7681" lon="5.22085">
        <ele>259</ele>
        <time>2024-02-11T21:51:36Z</time>
      </trkpt>
      <trkpt lat="43.76816" lon="5.22036">
        <ele>262</ele>
        <time>2024-02-11T21:51:44Z</time>
      </trkpt>
      <trkpt lat="43.76828" lon="5.22021">
        <ele>260</ele>
        <time>2024-02-11T21:51:48Z</time>
      </trkpt>
      <trkpt lat="43.76834" lon="5.21985">
        <ele>261</ele>
        <time>2024-02-11T21:51:54Z</time>
      </trkpt>
      <trkpt lat="43.76834" lon="5.21962">
        <ele>262</ele>
        <time>2024-02-11T21:51:58Z</time>
      </trkpt>
      <trkpt lat="43.76821" lon="5.2193">
        <ele>268</ele>
        <time>2024-02-11T21:52:04Z</time>
      </trkpt>
      <trkpt lat="43.76824" lon="5.21904">
        <ele>269</ele>
        <time>2024-02-11T21:52:09Z</time>
      </trkpt>
      <trkpt lat="43.76839" lon="5.21883">
        <ele>268</ele>
        <time>2024-02-11T21:52:14Z</time>
      </trkpt>
      <trkpt lat="43.76843" lon="5.21839">
        <ele>272</ele>
        <time>2024-02-11T21:52:21Z</time>
      </trkpt>
      <trkpt lat="43.76841" lon="5.21819">
        <ele>274</ele>
        <time>2024-02-11T21:52:25Z</time>
      </trkpt>
      <trkpt lat="43.76825" lon="5.21782">
        <ele>278</ele>
        <time>2024-02-11T21:52:32Z</time>
      </trkpt>
      <trkpt lat="43.76847" lon="5.21714">
        <ele>282</ele>
        <time>2024-02-11T21:52:44Z</time>
      </trkpt>
      <trkpt lat="43.76855" lon="5.21639">
        <ele>288</ele>
        <time>2024-02-11T21:52:57Z</time>
      </trkpt>
      <trkpt lat="43.76863" lon="5.21601">
        <ele>292</ele>
        <time>2024-02-11T21:53:04Z</time>
      </trkpt>
      <trkpt lat="43.76859" lon="5.21561">
        <ele>294</ele>
        <time>2024-02-11T21:53:11Z</time>
      </trkpt>
      <trkpt lat="43.76849" lon="5.21522">
        <ele>297</ele>
        <time>2024-02-11T21:53:18Z</time>
      </trkpt>
      <trkpt lat="43.76867" lon="5.21481">
        <ele>300</ele>
        <time>2024-02-11T21:53:26Z</time>
      </trkpt>
      <trkpt lat="43.76901" lon="5.21364">
        <ele>305</ele>
        <time>2024-02-11T21:53:47Z</time>
      </trkpt>
      <trkpt lat="43.76912" lon="5.21259">
        <ele>311</ele>
        <time>2024-02-11T21:54:05Z</time>
      </trkpt>
      <trkpt lat="43.7692" lon="5.21234">
        <ele>311</ele>
        <time>2024-02-11T21:54:10Z</time>
      </trkpt>
      <trkpt lat="43.76901" lon="5.21215">
        <ele>313</ele>
        <time>2024-02-11T21:54:15Z</time>
      </trkpt>
      <trkpt lat="43.76888" lon="5.21191">
        <ele>315</ele>
        <time>2024-02-11T21:54:20Z</time>
      </trkpt>
      <trkpt lat="43.76873" lon="5.21181">
        <ele>317</ele>
        <time>2024-02-11T21:54:24Z</time>
      </trkpt>
      <trkpt lat="43.76874" lon="5.21163">
        <ele>318</ele>
        <time>2024-02-11T21:54:27Z</time>
      </trkpt>
      <trkpt lat="43.76868" lon="5.21133">
        <ele>319</ele>
        <time>2024-02-11T21:54:32Z</time>
      </trkpt>
      <trkpt lat="43.76867" lon="5.21081">
        <ele>321</ele>
        <time>2024-02-11T21:54:41Z</time>
      </trkpt>
      <trkpt lat="43.76871" lon="5.21042">
        <ele>322</ele>
        <time>2024-02-11T21:54:48Z</time>
      </trkpt>
      <trkpt lat="43.76869" lon="5.21032">
        <ele>323</ele>
        <time>2024-02-11T21:54:49Z</time>
      </trkpt>
      <trkpt lat="43.76863" lon="5.21024">
        <ele>324</ele>
        <time>2024-02-11T21:54:51Z</time>
      </trkpt>
      <trkpt lat="43.76864" lon="5.21012">
        <ele>324</ele>
        <time>2024-02-11T21:54:53Z</time>
      </trkpt>
      <trkpt lat="43.76854" lon="5.20994">
        <ele>326</ele>
        <time>2024-02-11T21:54:57Z</time>
      </trkpt>
      <trkpt lat="43.76845" lon="5.20986">
        <ele>327</ele>
        <time>2024-02-11T21:55:00Z</time>
      </trkpt>
      <trkpt lat="43.76836" lon="5.20964">
        <ele>329</ele>
        <time>2024-02-11T21:55:04Z</time>
      </trkpt>
      <trkpt lat="43.76819" lon="5.20945">
        <ele>330</ele>
        <time>2024-02-11T21:55:09Z</time>
      </trkpt>
      <trkpt lat="43.76815" lon="5.20936">
        <ele>331</ele>
        <time>2024-02-11T21:55:11Z</time>
      </trkpt>
      <trkpt lat="43.76808" lon="5.20928">
        <ele>331</ele>
        <time>2024-02-11T21:55:13Z</time>
      </trkpt>
      <trkpt lat="43.7679" lon="5.2092">
        <ele>332</ele>
        <time>2024-02-11T21:55:17Z</time>
      </trkpt>
      <trkpt lat="43.76784" lon="5.20894">
        <ele>332</ele>
        <time>2024-02-11T21:55:22Z</time>
      </trkpt>
      <trkpt lat="43.76764" lon="5.20877">
        <ele>332</ele>
        <time>2024-02-11T21:55:28Z</time>
      </trkpt>
      <trkpt lat="43.76758" lon="5.20864">
        <ele>332</ele>
        <time>2024-02-11T21:55:30Z</time>
      </trkpt>
      <trkpt lat="43.76741" lon="5.20841">
        <ele>332</ele>
        <time>2024-02-11T21:55:36Z</time>
      </trkpt>
      <trkpt lat="43.76728" lon="5.20832">
        <ele>332</ele>
        <time>2024-02-11T21:55:39Z</time>
      </trkpt>
      <trkpt lat="43.76717" lon="5.20819">
        <ele>331</ele>
        <time>2024-02-11T21:55:42Z</time>
      </trkpt>
      <trkpt lat="43.76703" lon="5.20812">
        <ele>330</ele>
        <time>2024-02-11T21:55:46Z</time>
      </trkpt>
      <trkpt lat="43.76691" lon="5.20819">
        <ele>331</ele>
        <time>2024-02-11T21:55:49Z</time>
      </trkpt>
      <trkpt lat="43.7667" lon="5.20843">
        <ele>332</ele>
        <time>2024-02-11T21:55:55Z</time>
      </trkpt>
      <trkpt lat="43.76644" lon="5.20886">
        <ele>331</ele>
        <time>2024-02-11T21:56:05Z</time>
      </trkpt>
      <trkpt lat="43.76626" lon="5.20901">
        <ele>330</ele>
        <time>2024-02-11T21:56:10Z</time>
      </trkpt>
      <trkpt lat="43.76612" lon="5.20918">
        <ele>330</ele>
        <time>2024-02-11T21:56:14Z</time>
      </trkpt>
      <trkpt lat="43.766" lon="5.20925">
        <ele>329</ele>
        <time>2024-02-11T21:56:17Z</time>
      </trkpt>
      <trkpt lat="43.76575" lon="5.2096">
        <ele>329</ele>
        <time>2024-02-11T21:56:25Z</time>
      </trkpt>
      <trkpt lat="43.76539" lon="5.2099">
        <ele>329</ele>
        <time>2024-02-11T21:56:35Z</time>
      </trkpt>
      <trkpt lat="43.76524" lon="5.20993">
        <ele>328</ele>
        <time>2024-02-11T21:56:39Z</time>
      </trkpt>
      <trkpt lat="43.76494" lon="5.20973">
        <ele>324</ele>
        <time>2024-02-11T21:56:47Z</time>
      </trkpt>
      <trkpt lat="43.76481" lon="5.20959">
        <ele>323</ele>
        <time>2024-02-11T21:56:50Z</time>
      </trkpt>
      <trkpt lat="43.76443" lon="5.20896">
        <ele>320</ele>
        <time>2024-02-11T21:57:04Z</time>
      </trkpt>
      <trkpt lat="43.76422" lon="5.20852">
        <ele>318</ele>
        <time>2024-02-11T21:57:13Z</time>
      </trkpt>
      <trkpt lat="43.7639" lon="5.20814">
        <ele>315</ele>
        <time>2024-02-11T21:57:23Z</time>
      </trkpt>
      <trkpt lat="43.76376" lon="5.20802">
        <ele>314</ele>
        <time>2024-02-11T21:57:27Z</time>
      </trkpt>
      <trkpt lat="43.76362" lon="5.20783">
        <ele>312</ele>
        <time>2024-02-11T21:57:31Z</time>
      </trkpt>
      <trkpt lat="43.76347" lon="5.20729">
        <ele>307</ele>
        <time>2024-02-11T21:57:41Z</time>
      </trkpt>
      <trkpt lat="43.76351" lon="5.20651">
        <ele>298</ele>
        <time>2024-02-11T21:57:54Z</time>
      </trkpt>
      <trkpt lat="43.76344" lon="5.20632">
        <ele>296</ele>
        <time>2024-02-11T21:57:58Z</time>
      </trkpt>
      <trkpt lat="43.7633" lon="5.20613">
        <ele>295</ele>
        <time>2024-02-11T21:58:03Z</time>
      </trkpt>
      <trkpt lat="43.76313" lon="5.20609">
        <ele>291</ele>
        <time>2024-02-11T21:58:07Z</time>
      </trkpt>
      <trkpt lat="43.76303" lon="5.20597">
        <ele>289</ele>
        <time>2024-02-11T21:58:10Z</time>
      </trkpt>
      <trkpt lat="43.76275" lon="5.20598">
        <ele>284</ele>
        <time>2024-02-11T21:58:16Z</time>
      </trkpt>
      <trkpt lat="43.76262" lon="5.20596">
        <ele>282</ele>
        <time>2024-02-11T21:58:19Z</time>
      </trkpt>
      <trkpt lat="43.7622" lon="5.20574">
        <ele>273</ele>
        <time>2024-02-11T21:58:30Z</time>
      </trkpt>
      <trkpt lat="43.76201" lon="5.20569">
        <ele>269</ele>
        <time>2024-02-11T21:58:34Z</time>
      </trkpt>
      <trkpt lat="43.76173" lon="5.20552">
        <ele>266</ele>
        <time>2024-02-11T21:58:41Z</time>
      </trkpt>
      <trkpt lat="43.76162" lon="5.20548">
        <ele>265</ele>
        <time>2024-02-11T21:58:44Z</time>
      </trkpt>
      <trkpt lat="43.76152" lon="5.20538">
        <ele>265</ele>
        <time>2024-02-11T21:58:47Z</time>
      </trkpt>
      <trkpt lat="43.76141" lon="5.20512">
        <ele>270</ele>
        <time>2024-02-11T21:58:52Z</time>
      </trkpt>
      <trkpt lat="43.76125" lon="5.20498">
        <ele>269</ele>
        <time>2024-02-11T21:58:56Z</time>
      </trkpt>
      <trkpt lat="43.76103" lon="5.20488">
        <ele>264</ele>
        <time>2024-02-11T21:59:02Z</time>
      </trkpt>
      <trkpt lat="43.7608" lon="5.20483">
        <ele>258</ele>
        <time>2024-02-11T21:59:07Z</time>
      </trkpt>
      <trkpt lat="43.76049" lon="5.20458">
        <ele>252</ele>
        <time>2024-02-11T21:59:16Z</time>
      </trkpt>
      <trkpt lat="43.76045" lon="5.20451">
        <ele>251</ele>
        <time>2024-02-11T21:59:17Z</time>
      </trkpt>
      <trkpt lat="43.7604" lon="5.20448">
        <ele>250</ele>
        <time>2024-02-11T21:59:18Z</time>
      </trkpt>
      <trkpt lat="43.76032" lon="5.20434">
        <ele>248</ele>
        <time>2024-02-11T21:59:21Z</time>
      </trkpt>
      <trkpt lat="43.76031" lon="5.20406">
        <ele>248</ele>
        <time>2024-02-11T21:59:26Z</time>
      </trkpt>
      <trkpt lat="43.76039" lon="5.20363">
        <ele>244</ele>
        <time>2024-02-11T21:59:34Z</time>
      </trkpt>
      <trkpt lat="43.76054" lon="5.20332">
        <ele>244</ele>
        <time>2024-02-11T21:59:40Z</time>
      </trkpt>
      <trkpt lat="43.76061" lon="5.20324">
        <ele>246</ele>
        <time>2024-02-11T21:59:42Z</time>
      </trkpt>
      <trkpt lat="43.76057" lon="5.20309">
        <ele>243</ele>
        <time>2024-02-11T21:59:45Z</time>
      </trkpt>
      <trkpt lat="43.76057" lon="5.20283">
        <ele>240</ele>
        <time>2024-02-11T21:59:49Z</time>
      </trkpt>
      <trkpt lat="43.7605" lon="5.20249">
        <ele>234</ele>
        <time>2024-02-11T21:59:55Z</time>
      </trkpt>
      <trkpt lat="43.76034" lon="5.20222">
        <ele>230</ele>
        <time>2024-02-11T22:00:01Z</time>
      </trkpt>
      <trkpt lat="43.76025" lon="5.20201">
        <ele>229</ele>
        <time>2024-02-11T22:00:05Z</time>
      </trkpt>
      <trkpt lat="43.7602" lon="5.20139">
        <ele>228</ele>
        <time>2024-02-11T22:00:16Z</time>
      </trkpt>
      <trkpt lat="43.76013" lon="5.20134">
        <ele>228</ele>
        <time>2024-02-11T22:00:17Z</time>
      </trkpt>
      <trkpt lat="43.7601" lon="5.20125">
        <ele>228</ele>
        <time>2024-02-11T22:00:19Z</time>
      </trkpt>
      <trkpt lat="43.75989" lon="5.2011">
        <ele>228</ele>
        <time>2024-02-11T22:00:25Z</time>
      </trkpt>
      <trkpt lat="43.75981" lon="5.20115">
        <ele>226</ele>
        <time>2024-02-11T22:00:27Z</time>
      </trkpt>
      <trkpt lat="43.75972" lon="5.20144">
        <ele>223</ele>
        <time>2024-02-11T22:00:32Z</time>
      </trkpt>
      <trkpt lat="43.75958" lon="5.2017">
        <ele>218</ele>
        <time>2024-02-11T22:00:38Z</time>
      </trkpt>
      <trkpt lat="43.75958" lon="5.2021">
        <ele>215</ele>
        <time>2024-02-11T22:00:44Z</time>
      </trkpt>
      <trkpt lat="43.75962" lon="5.2025">
        <ele>214</ele>
        <time>2024-02-11T22:00:51Z</time>
      </trkpt>
      <trkpt lat="43.75961" lon="5.20282">
        <ele>214</ele>
        <time>2024-02-11T22:00:56Z</time>
      </trkpt>
      <trkpt lat="43.75959" lon="5.20287">
        <ele>213</ele>
        <time>2024-02-11T22:00:57Z</time>
      </trkpt>
      <trkpt lat="43.75945" lon="5.20299">
        <ele>209</ele>
        <time>2024-02-11T22:01:01Z</time>
      </trkpt>
      <trkpt lat="43.75935" lon="5.2031">
        <ele>207</ele>
        <time>2024-02-11T22:01:04Z</time>
      </trkpt>
      <trkpt lat="43.75931" lon="5.20318">
        <ele>205</ele>
        <time>2024-02-11T22:01:06Z</time>
      </trkpt>
      <trkpt lat="43.75925" lon="5.20322">
        <ele>204</ele>
        <time>2024-02-11T22:01:07Z</time>
      </trkpt>
      <trkpt lat="43.75917" lon="5.20322">
        <ele>201</ele>
        <time>2024-02-11T22:01:09Z</time>
      </trkpt>
      <trkpt lat="43.75896" lon="5.20314">
        <ele>197</ele>
        <time>2024-02-11T22:01:14Z</time>
      </trkpt>
      <trkpt lat="43.7588" lon="5.20312">
        <ele>195</ele>
        <time>2024-02-11T22:01:18Z</time>
      </trkpt>
      <trkpt lat="43.7587" lon="5.20312">
        <ele>193</ele>
        <time>2024-02-11T22:01:20Z</time>
      </trkpt>
      <trkpt lat="43.75865" lon="5.20316">
        <ele>192</ele>
        <time>2024-02-11T22:01:22Z</time>
      </trkpt>
      <trkpt lat="43.75853" lon="5.20346">
        <ele>190</ele>
        <time>2024-02-11T22:01:28Z</time>
      </trkpt>
      <trkpt lat="43.75822" lon="5.2039">
        <ele>186</ele>
        <time>2024-02-11T22:01:38Z</time>
      </trkpt>
      <trkpt lat="43.75818" lon="5.20399">
        <ele>186</ele>
        <time>2024-02-11T22:01:40Z</time>
      </trkpt>
      <trkpt lat="43.75799" lon="5.20483">
        <ele>185</ele>
        <time>2024-02-11T22:01:55Z</time>
      </trkpt>
      <trkpt lat="43.75792" lon="5.20506">
        <ele>185</ele>
        <time>2024-02-11T22:01:59Z</time>
      </trkpt>
      <trkpt lat="43.75786" lon="5.20514">
        <ele>184</ele>
        <time>2024-02-11T22:02:01Z</time>
      </trkpt>
      <trkpt lat="43.75747" lon="5.20495">
        <ele>181</ele>
        <time>2024-02-11T22:02:10Z</time>
      </trkpt>
      <trkpt lat="43.75734" lon="5.20491">
        <ele>179</ele>
        <time>2024-02-11T22:02:14Z</time>
      </trkpt>
      <trkpt lat="43.75699" lon="5.2047">
        <ele>176</ele>
        <time>2024-02-11T22:02:22Z</time>
      </trkpt>
      <trkpt lat="43.75682" lon="5.20465">
        <ele>174</ele>
        <time>2024-02-11T22:02:27Z</time>
      </trkpt>
      <trkpt lat="43.7565" lon="5.20446">
        <ele>172</ele>
        <time>2024-02-11T22:02:35Z</time>
      </trkpt>
      <trkpt lat="43.75624" lon="5.20435">
        <ele>170</ele>
        <time>2024-02-11T22:02:41Z</time>
      </trkpt>
      <trkpt lat="43.75591" lon="5.20415">
        <ele>168</ele>
        <time>2024-02-11T22:02:49Z</time>
      </trkpt>
      <trkpt lat="43.75577" lon="5.20411">
        <ele>167</ele>
        <time>2024-02-11T22:02:53Z</time>
      </trkpt>
      <trkpt lat="43.75575" lon="5.20419">
        <ele>167</ele>
        <time>2024-02-11T22:02:54Z</time>
      </trkpt>
      <trkpt lat="43.75576" lon="5.20482">
        <ele>167</ele>
        <time>2024-02-11T22:03:05Z</time>
      </trkpt>
      <trkpt lat="43.75573" lon="5.20528">
        <ele>166</ele>
        <time>2024-02-11T22:03:13Z</time>
      </trkpt>
      <trkpt lat="43.75574" lon="5.20544">
        <ele>166</ele>
        <time>2024-02-11T22:03:15Z</time>
      </trkpt>
      <trkpt lat="43.75571" lon="5.20557">
        <ele>165</ele>
        <time>2024-02-11T22:03:18Z</time>
      </trkpt>
      <trkpt lat="43.75566" lon="5.2056">
        <ele>165</ele>
        <time>2024-02-11T22:03:19Z</time>
      </trkpt>
      <trkpt lat="43.75554" lon="5.2056">
        <ele>164</ele>
        <time>2024-02-11T22:03:22Z</time>
      </trkpt>
      <trkpt lat="43.75511" lon="5.20551">
        <ele>161</ele>
        <time>2024-02-11T22:03:32Z</time>
      </trkpt>
      <trkpt lat="43.75504" lon="5.20545">
        <ele>161</ele>
        <time>2024-02-11T22:03:34Z</time>
      </trkpt>
      <trkpt lat="43.75502" lon="5.20533">
        <ele>161</ele>
        <time>2024-02-11T22:03:36Z</time>
      </trkpt>
      <trkpt lat="43.75511" lon="5.20486">
        <ele>161</ele>
        <time>2024-02-11T22:03:44Z</time>
      </trkpt>
      <trkpt lat="43.75517" lon="5.2043">
        <ele>162</ele>
        <time>2024-02-11T22:03:54Z</time>
      </trkpt>
      <trkpt lat="43.75515" lon="5.20373">
        <ele>162</ele>
        <time>2024-02-11T22:04:03Z</time>
      </trkpt>
      <trkpt lat="43.75508" lon="5.20366">
        <ele>162</ele>
        <time>2024-02-11T22:04:05Z</time>
      </trkpt>
      <trkpt lat="43.75476" lon="5.20353">
        <ele>159</ele>
        <time>2024-02-11T22:04:13Z</time>
      </trkpt>
      <trkpt lat="43.75472" lon="5.20342">
        <ele>159</ele>
        <time>2024-02-11T22:04:15Z</time>
      </trkpt>
      <trkpt lat="43.75475" lon="5.20321">
        <ele>159</ele>
        <time>2024-02-11T22:04:19Z</time>
      </trkpt>
      <trkpt lat="43.75472" lon="5.20312">
        <ele>158</ele>
        <time>2024-02-11T22:04:20Z</time>
      </trkpt>
      <trkpt lat="43.75447" lon="5.20308">
        <ele>156</ele>
        <time>2024-02-11T22:04:26Z</time>
      </trkpt>
      <trkpt lat="43.75428" lon="5.20308">
        <ele>155</ele>
        <time>2024-02-11T22:04:31Z</time>
      </trkpt>
    </trkseg>
  </trk>
</gpx>